Provisional Data: Chemung River near Elmira, NY


Please select a monitoring station.
Please select start date.
Please select start date.

Toggle Unit: C/F Toggle Unit: C/F
Sample Time Temperature (C) Temperature (F) Specific Conductivity (mS/cm) pH   Turbidity (NTU+) DO (mg/L)
1/12/2021 12:10:29 AM 1.62 34.916 307.15 7.9198 20.0575 1.620003
1/12/2021 12:25:29 AM 1.655 34.979 305.8 7.9184 26.1825 1.654999
1/12/2021 12:40:29 AM 1.67 35.006 304.7501 7.9205 24.915 1.669998
1/12/2021 12:55:29 AM 1.705 35.069 304.0499 7.9149 23.7325 1.705002
1/12/2021 1:10:29 AM 1.7075 35.0735 303.7 7.9135 21.895 1.707497
1/12/2021 1:25:29 AM 1.6725 35.0105 304.0499 7.9135 20.24 1.672501
1/12/2021 1:40:29 AM 1.67 35.006 304.0499 7.9163 19.2725 1.669998
1/12/2021 1:55:29 AM 1.67 35.006 303.7501 7.9149 18.75 1.669998
1/12/2021 2:10:29 AM 1.6725 35.0105 303.0499 7.9107 18.925 1.672501
1/12/2021 2:25:29 AM 1.6725 35.0105 302.6499 7.9114 18.3525 1.672501
1/12/2021 2:40:29 AM 1.69 35.042 302 7.9093 18.91 1.690002
1/12/2021 2:55:29 AM 1.6725 35.0105 301.6499 7.9093 18.7875 1.672501
1/12/2021 3:10:29 AM 1.6725 35.0105 301.3 7.9037 18.6125 1.672501
1/12/2021 3:25:29 AM 1.6725 35.0105 300.9501 7.9058 18.735 1.672501
1/12/2021 3:40:29 AM 1.69 35.042 300.55 7.9058 18.7875 1.690002
1/12/2021 3:55:29 AM 1.69 35.042 300.3 7.9044 18.7375 1.690002
1/12/2021 4:10:29 AM 1.69 35.042 300.2499 7.9044 18.7525 1.690002
1/12/2021 4:25:29 AM 1.69 35.042 299.9 7.9051 18.8375 1.690002
1/12/2021 4:40:29 AM 1.705 35.069 299.55 7.9058 18.925 1.705002
1/12/2021 4:55:29 AM 1.7075 35.0735 299.2 7.9037 19.165 1.707497
1/12/2021 5:10:29 AM 1.7075 35.0735 299.2 7.9002 19.135 1.707497
1/12/2021 5:25:29 AM 1.7075 35.0735 298.9 7.9002 19.57 1.707497
1/12/2021 5:40:29 AM 1.705 35.069 298.55 7.9009 19.03 1.705002
1/12/2021 5:55:29 AM 1.7225 35.1005 298.2 7.9009 19.0825 1.722504
1/12/2021 6:10:29 AM 1.725 35.105 297.85 7.9009 19.36 1.724998
1/12/2021 6:25:29 AM 1.7075 35.0735 297.5 7.9002 19.1875 1.707497
1/12/2021 6:40:29 AM 1.7075 35.0735 297.15 7.8946 19.395 1.707497
1/12/2021 6:55:29 AM 1.705 35.069 296.8 7.8967 19.36 1.705002
1/12/2021 7:10:29 AM 1.7075 35.0735 296.45 7.8946 19.62 1.707497
1/12/2021 7:25:29 AM 1.7075 35.0735 296.1 7.8946 19.6375 1.707497
1/12/2021 7:40:29 AM 1.7075 35.0735 295.7501 7.8953 19.725 1.707497
1/12/2021 7:55:29 AM 1.7075 35.0735 295.4 7.8939 19.775 1.707497
1/12/2021 8:10:29 AM 1.7075 35.0735 295.0499 7.8953 19.9325 1.707497
1/12/2021 8:25:29 AM 1.725 35.105 294.7 7.896 18.39 1.724998
1/12/2021 8:40:29 AM 1.725 35.105 294.7501 7.8904 18.65 1.724998
1/12/2021 8:55:29 AM 1.725 35.105 294.4 7.889 18.685 1.724998
1/12/2021 9:10:29 AM 1.74 35.132 294 7.8911 18.3725 1.739998
1/12/2021 9:25:29 AM 1.7425 35.1365 294 7.8897 18.5975 1.7425
1/12/2021 9:40:29 AM 1.76 35.168 293.7 7.8897 18.6475 1.760002
1/12/2021 9:55:29 AM 1.76 35.168 293.3501 7.8918 18.595 1.760002
1/12/2021 10:10:29 AM 1.795 35.231 293 7.8918 18.615 1.794998
1/12/2021 10:25:29 AM 1.795 35.231 293 7.8897 18.5825 1.794998
1/12/2021 10:40:29 AM 1.81 35.258 292.9501 7.8918 18.68 1.809998
1/12/2021 10:55:29 AM 1.8275 35.2895 292.6499 7.8904 18.4425 1.827499
1/12/2021 11:10:29 AM 1.865 35.357 292.3 7.8897 18.63 1.864998
1/12/2021 11:25:29 AM 1.865 35.357 292.3 7.889 18.98 1.864998
1/12/2021 11:40:29 AM 1.88 35.384 292.6 7.8897 18.665 1.879997
1/12/2021 11:55:29 AM 1.88 35.384 293 7.896 18.56 1.879997
1/12/2021 12:10:29 PM 1.9 35.42 293.3501 7.8946 18.5275 1.900002
1/12/2021 12:25:29 PM 1.915 35.447 293.3501 7.8953 18.44 1.915001
1/12/2021 12:40:29 PM 1.9325 35.4785 294 7.8953 18.3 1.932503
1/12/2021 12:55:29 PM 1.935 35.483 294.4 7.8953 18.615 1.934998
1/12/2021 1:10:29 PM 1.9675 35.5415 294.4 7.9002 18.7175 1.967499
1/12/2021 1:25:29 PM 1.9825 35.5685 294.7 7.9016 18.3375 1.982498
1/12/2021 1:40:29 PM 2 35.6 295.1 7.9009 18.545 2
1/12/2021 1:55:29 PM 2.02 35.636 295.45 7.9002 18.44 2.019997
1/12/2021 2:10:29 PM 2.0525 35.6945 295.7501 7.9058 18.6125 2.052498
1/12/2021 2:25:29 PM 2.07 35.726 296 7.9065 18.4025 2.07
1/12/2021 2:40:29 PM 2.0875 35.7575 296.1 7.9058 18.475 2.087502
1/12/2021 2:55:29 PM 2.105 35.789 296.45 7.9051 18.39 2.105003
1/12/2021 3:10:29 PM 2.1225 35.8205 296.7501 7.9058 18.3525 2.122498
1/12/2021 3:25:29 PM 2.1425 35.8565 297.15 7.9044 18.58 2.142502
1/12/2021 3:40:29 PM 2.1575 35.8835 297.45 7.9107 18.18 2.157501
1/12/2021 3:55:29 PM 2.1775 35.9195 297.85 7.9086 18.215 2.177498
1/12/2021 4:10:29 PM 2.1775 35.9195 298.2 7.9093 18.4225 2.177498
1/12/2021 4:25:29 PM 2.1925 35.9465 298.5 7.9163 18.265 2.192497
1/12/2021 4:40:29 PM 2.195 35.951 299.2 7.9135 18.0725 2.195
1/12/2021 4:55:29 PM 2.21 35.978 299.55 7.9135 18.2275 2.209999
1/12/2021 5:10:29 PM 2.21 35.978 300.2499 7.9205 17.8975 2.209999
1/12/2021 5:25:29 PM 2.21 35.978 300.9501 7.9198 18.1075 2.209999
1/12/2021 5:40:29 PM 2.21 35.978 301.2499 7.9198 18.3325 2.209999
1/12/2021 5:55:29 PM 2.21 35.978 301.6499 7.9212 18.1775 2.209999
1/12/2021 6:10:29 PM 2.21 35.978 302.3501 7.9247 18.0725 2.209999
1/12/2021 6:25:29 PM 2.21 35.978 302.6499 7.9261 18.315 2.209999
1/12/2021 6:40:29 PM 2.2275 36.0095 303 7.9261 18.14 2.227501
1/12/2021 6:55:29 PM 2.21 35.978 303.3501 7.9247 18.02 2.209999
1/12/2021 7:10:29 PM 2.21 35.978 303.7 7.9303 18.2825 2.209999
1/12/2021 7:25:29 PM 2.23 36.014 303.7 7.9289 18.09 2.230003
1/12/2021 7:40:29 PM 2.2125 35.9825 304.4 7.9275 17.9125 2.212502
1/12/2021 7:55:29 PM 2.2275 36.0095 304.4 7.931 18.3 2.227501
1/12/2021 8:10:29 PM 2.21 35.978 305.1 7.9303 18.2975 2.209999
1/12/2021 8:25:29 PM 2.21 35.978 305.4 7.931 17.795 2.209999
1/12/2021 8:40:29 PM 2.2275 36.0095 305.4 7.9345 18.0375 2.227501
1/12/2021 8:55:29 PM 2.2275 36.0095 305.8 7.9345 18.0025 2.227501
1/12/2021 9:10:29 PM 2.2125 35.9825 305.8 7.9345 18.3 2.212502
1/12/2021 9:25:29 PM 2.21 35.978 306.1 7.9345 18.1925 2.209999
1/12/2021 9:40:29 PM 2.21 35.978 306.15 7.9338 18.4175 2.209999
1/12/2021 9:55:29 PM 2.21 35.978 306.45 7.9331 18.23 2.209999
1/12/2021 10:10:29 PM 2.21 35.978 306.45 7.9352 18.425 2.209999
1/12/2021 10:25:29 PM 2.21 35.978 306.45 7.9324 18.6125 2.209999
1/12/2021 10:40:29 PM 2.21 35.978 306.45 7.9345 18.595 2.209999
1/12/2021 10:55:29 PM 2.1925 35.9465 306.45 7.9359 18.5075 2.192497
1/12/2021 11:10:29 PM 2.1925 35.9465 306.5 7.9359 18.5775 2.192497
1/12/2021 11:25:29 PM 2.195 35.951 306.85 7.9345 18.4575 2.195
1/12/2021 11:40:29 PM 2.2075 35.9735 306.8 7.9352 18.4875 2.207497
1/13/2021 12:10:29 AM 2.21 35.978 306.7501 7.9338 18.4725 2.209999
1/13/2021 12:25:29 AM 2.21 35.978 306.8 7.9352 18.8575 2.209999
1/13/2021 12:40:29 AM 2.195 35.951 307.15 7.9345 18.9075 2.195
1/13/2021 12:55:29 AM 2.1925 35.9465 307.15 7.9345 18.77 2.192497
1/13/2021 1:10:29 AM 2.21 35.978 307.15 7.9338 19.36 2.209999
1/13/2021 1:25:29 AM 2.21 35.978 307.15 7.9282 18.9275 2.209999
1/13/2021 1:40:29 AM 2.21 35.978 307.15 7.9303 18.77 2.209999
1/13/2021 1:55:29 AM 2.2125 35.9825 307.15 7.9289 19.2925 2.212502
1/13/2021 2:10:29 AM 2.21 35.978 307.15 7.9289 19.22 2.209999
1/13/2021 2:25:29 AM 2.21 35.978 307.15 7.931 18.9075 2.209999
1/13/2021 2:40:29 AM 2.2275 36.0095 306.8 7.9303 19.17 2.227501
1/13/2021 2:55:29 AM 2.21 35.978 306.8 7.9282 19.3275 2.209999
1/13/2021 3:10:29 AM 2.21 35.978 306.8 7.9282 18.91 2.209999
1/13/2021 3:25:29 AM 2.21 35.978 306.4 7.9296 19.15 2.209999
1/13/2021 3:40:29 AM 2.2125 35.9825 306.45 7.9296 19.15 2.212502
1/13/2021 3:55:29 AM 2.2075 35.9735 306.45 7.9296 18.8875 2.207497
1/13/2021 4:10:29 AM 2.19 35.942 306.45 7.9254 19.1675 2.190002
1/13/2021 4:25:29 AM 2.1925 35.9465 306.45 7.9247 19.0275 2.192497
1/13/2021 4:40:29 AM 2.195 35.951 306.5 7.9233 18.7175 2.195
1/13/2021 4:55:29 AM 2.195 35.951 306.45 7.9233 18.9225 2.195
1/13/2021 5:10:29 AM 2.1925 35.9465 306.45 7.9233 18.89 2.192497
1/13/2021 5:25:29 AM 2.1925 35.9465 306.45 7.9233 18.8375 2.192497
1/13/2021 5:40:29 AM 2.1925 35.9465 306.45 7.9254 18.6625 2.192497
1/13/2021 5:55:29 AM 2.175 35.915 306.4 7.9254 19.15 2.175003
1/13/2021 6:10:29 AM 2.175 35.915 306.45 7.924 19.1675 2.175003
1/13/2021 6:25:29 AM 2.175 35.915 306.15 7.924 19.15 2.175003
1/13/2021 6:40:29 AM 2.175 35.915 306.1 7.9247 19.0825 2.175003
1/13/2021 6:55:29 AM 2.1775 35.9195 306.1 7.9233 18.995 2.177498
1/13/2021 7:10:29 AM 2.175 35.915 305.7501 7.9254 18.995 2.175003
1/13/2021 7:25:29 AM 2.1575 35.8835 305.45 7.924 19.0125 2.157501
1/13/2021 7:40:29 AM 2.1575 35.8835 305.4 7.9233 18.7325 2.157501
1/13/2021 7:55:30 AM 2.16 35.888 305.1 7.924 18.8375 2.160004
1/13/2021 8:10:29 AM 2.1575 35.8835 305.1 7.9247 19.1325 2.157501
1/13/2021 8:25:29 AM 2.14 35.852 304.7 7.9247 19.1175 2.139999
1/13/2021 8:40:29 AM 2.14 35.852 304.7501 7.9233 18.995 2.139999
1/13/2021 8:55:29 AM 2.14 35.852 304.7 7.9254 18.8575 2.139999
1/13/2021 9:10:29 AM 2.155 35.879 304.4 7.9247 19.2575 2.154999
1/13/2021 9:25:29 AM 2.14 35.852 304.4 7.924 19.03 2.139999
1/13/2021 9:40:29 AM 2.1575 35.8835 304.4 7.9247 18.6975 2.157501
1/13/2021 9:55:29 AM 2.1425 35.8565 304.0499 7.924 19.1 2.142502
1/13/2021 10:10:29 AM 2.1575 35.8835 304.0499 7.924 18.91 2.157501
1/13/2021 10:25:29 AM 2.1575 35.8835 304.0499 7.9226 19.2025 2.157501
1/13/2021 10:40:29 AM 2.1575 35.8835 303.6499 7.9247 18.9425 2.157501
1/13/2021 10:55:29 AM 2.175 35.915 303.3501 7.924 18.96 2.175003
1/13/2021 11:10:29 AM 2.195 35.951 303.3501 7.924 18.735 2.195
1/13/2021 11:25:29 AM 2.21 35.978 303 7.9254 19.275 2.209999
1/13/2021 11:40:29 AM 2.21 35.978 303 7.9247 19.1325 2.209999
1/13/2021 11:55:29 AM 2.2275 36.0095 302.6499 7.9226 19.27 2.227501
1/13/2021 12:03:15 PM 2.2275 36.0095 302.6499 7.9247 18.945 2.227501
1/13/2021 12:18:15 PM 2.2275 36.0095 302.6499 7.9247 19.185 2.227501
1/13/2021 12:33:14 PM 2.2425 36.0365 302.6499 7.9303 19.065 2.2425
1/13/2021 12:48:14 PM 2.26 36.068 302.3 7.9296 19.3075 2.260002
1/13/2021 1:03:15 PM 2.26 36.068 302.3 7.9289 19.115 2.260002
1/13/2021 1:13:21 PM 2.2775 36.0995 302.3 7.9303 18.9925 2.277496
1/13/2021 1:15:35 PM 2.28 36.104 302.3501 7.9289 19.065 2.279999
1/13/2021 1:30:35 PM 2.3125 36.1625 302.3 7.9296 19.325 2.3125
1/13/2021 1:45:35 PM 2.33 36.194 302.3 7.9296 18.785 2.330002
1/13/2021 2:00:35 PM 2.3825 36.2885 302 7.9296 19.3425 2.3825
1/13/2021 2:15:35 PM 2.4 36.32 301.9501 7.9345 19.0975 2.400002
1/13/2021 2:30:36 PM 2.4525 36.4145 301.6499 7.9331 19.495 2.452499
1/13/2021 2:45:36 PM 2.485 36.473 301.6 7.9352 19.1175 2.485001
1/13/2021 3:00:35 PM 2.505 36.509 301.2499 7.9345 19.1325 2.504997
1/13/2021 3:15:35 PM 2.54 36.572 301.2499 7.9345 19.03 2.540001
1/13/2021 3:30:35 PM 2.555 36.599 301.2499 7.9338 19.2375 2.555
1/13/2021 3:45:35 PM 2.575 36.635 300.9 7.9331 19.6 2.574997
1/13/2021 4:00:35 PM 2.5725 36.6305 301.2499 7.9394 19.22 2.572502
1/13/2021 4:15:35 PM 2.5925 36.6665 301.2499 7.9373 19.045 2.592499
1/13/2021 4:30:35 PM 2.5925 36.6665 301.2499 7.938 19.2075 2.592499
1/13/2021 4:45:35 PM 2.5925 36.6665 301.2499 7.9373 18.8725 2.592499
1/13/2021 5:00:35 PM 2.6075 36.6935 301.2499 7.9401 18.975 2.607498
1/13/2021 5:15:35 PM 2.61 36.698 301.6 7.938 18.7325 2.610001
1/13/2021 5:30:36 PM 2.61 36.698 301.6 7.938 18.925 2.610001
1/13/2021 5:45:35 PM 2.61 36.698 301.9 7.938 19.0125 2.610001
1/13/2021 6:00:36 PM 2.6075 36.6935 301.9501 7.9443 19.065 2.607498
1/13/2021 6:15:35 PM 2.6075 36.6935 301.9501 7.9436 18.8025 2.607498
1/13/2021 6:30:36 PM 2.61 36.698 301.9501 7.9429 18.96 2.610001
1/13/2021 6:45:36 PM 2.625 36.725 302.3 7.945 18.89 2.625
1/13/2021 7:00:35 PM 2.6425 36.7565 302.3 7.9436 18.785 2.642502
1/13/2021 7:15:36 PM 2.6425 36.7565 302.3501 7.9429 18.4375 2.642502
1/13/2021 7:30:36 PM 2.66 36.788 302.3 7.9443 18.9425 2.660004
1/13/2021 7:45:36 PM 2.66 36.788 302.3 7.9436 18.63 2.660004
1/13/2021 8:00:35 PM 2.66 36.788 302.3 7.9436 18.49 2.660004
1/13/2021 8:15:36 PM 2.6425 36.7565 302.3 7.9443 19.0975 2.642502
1/13/2021 8:30:36 PM 2.6425 36.7565 302.6 7.9436 18.905 2.642502
1/13/2021 8:45:36 PM 2.6275 36.7295 302.6499 7.9422 18.8 2.627502
1/13/2021 9:00:36 PM 2.5925 36.6665 303 7.9429 18.8875 2.592499
1/13/2021 9:15:35 PM 2.575 36.635 303 7.9436 18.61 2.574997
1/13/2021 9:30:36 PM 2.555 36.599 303.3501 7.9443 18.56 2.555
1/13/2021 9:45:36 PM 2.54 36.572 303.3501 7.9485 18.4525 2.540001
1/13/2021 10:00:36 PM 2.5225 36.5405 303.7 7.9485 18.6975 2.522499
1/13/2021 10:15:35 PM 2.505 36.509 303.6499 7.9436 18.77 2.504997
1/13/2021 10:30:36 PM 2.505 36.509 304 7.9492 18.6075 2.504997
1/13/2021 10:45:36 PM 2.4875 36.4775 304 7.9485 18.49 2.487503
1/13/2021 11:00:36 PM 2.4875 36.4775 304.0499 7.9436 18.6825 2.487503
1/13/2021 11:15:36 PM 2.47 36.446 304.4 7.9422 18.4525 2.470001
1/13/2021 11:30:35 PM 2.47 36.446 304.4 7.945 18.42 2.470001
1/14/2021 12:00:36 AM 2.47 36.446 304.4 7.9422 18.6625 2.470001
1/14/2021 12:15:36 AM 2.47 36.446 304.4 7.9429 19.255 2.470001
1/14/2021 12:30:36 AM 2.4675 36.4415 304.3501 7.945 19.7375 2.467499
1/14/2021 12:45:35 AM 2.4875 36.4775 304.3501 7.9422 19.74 2.487503
1/14/2021 1:00:35 AM 2.4875 36.4775 304.4 7.945 19.585 2.487503
1/14/2021 1:15:36 AM 2.4875 36.4775 304.4 7.9429 19.29 2.487503
1/14/2021 1:30:35 AM 2.4875 36.4775 304.3501 7.9443 19.2375 2.487503
1/14/2021 1:45:36 AM 2.4875 36.4775 304.3501 7.9422 19.4275 2.487503
1/14/2021 2:00:36 AM 2.365 36.257 305.8 7.9436 18.9575 2.364998
1/14/2021 2:15:36 AM 1.8625 35.3525 311.3501 7.9422 18.5225 1.862503
1/14/2021 2:30:36 AM 2.035 35.663 309.6499 7.945 18.6625 2.035004
1/14/2021 2:45:36 AM 2.2075 35.9735 307.9 7.9401 18.525 2.207497
1/14/2021 3:00:36 AM 2.2775 36.0995 307.2 7.9394 18.2425 2.277496
1/14/2021 3:15:36 AM 2.3275 36.1895 306.5 7.9394 18.45 2.327499
1/14/2021 3:30:35 AM 2.3475 36.2255 306.5 7.9373 18.4525 2.347504
1/14/2021 3:45:36 AM 2.3675 36.2615 306.1 7.9394 18 2.3675
1/14/2021 4:00:35 AM 2.365 36.257 306.15 7.9408 18.21 2.364998
1/14/2021 4:15:36 AM 2.3675 36.2615 305.8 7.938 18.02 2.3675
1/14/2021 4:30:36 AM 2.365 36.257 305.7501 7.9394 17.81 2.364998
1/14/2021 4:45:36 AM 2.3675 36.2615 305.8 7.9331 18.0175 2.3675
1/14/2021 5:00:36 AM 2.3825 36.2885 305.7501 7.9345 18.4025 2.3825
1/14/2021 5:15:36 AM 2.365 36.257 305.8 7.9338 18.0025 2.364998
1/14/2021 5:30:35 AM 2.365 36.257 305.8 7.9331 18.105 2.364998
1/14/2021 5:45:35 AM 2.365 36.257 305.8 7.9338 18.2275 2.364998
1/14/2021 6:00:35 AM 2.365 36.257 305.7501 7.9352 18.33 2.364998
1/14/2021 6:15:35 AM 2.365 36.257 305.7501 7.9345 18.245 2.364998
1/14/2021 6:30:35 AM 2.3825 36.2885 306.1 7.9345 18.295 2.3825
1/14/2021 6:45:35 AM 2.3825 36.2885 306.15 7.9352 18.2275 2.3825
1/14/2021 7:00:35 AM 2.385 36.293 306.1 7.9331 18.245 2.385002
1/14/2021 7:15:35 AM 2.365 36.257 306.45 7.9345 18.1075 2.364998
1/14/2021 7:30:35 AM 2.3825 36.2885 306.45 7.9338 18.225 2.3825
1/14/2021 7:45:35 AM 2.385 36.293 306.5 7.9282 18.2275 2.385002
1/14/2021 8:00:35 AM 2.3825 36.2885 306.45 7.931 18.315 2.3825
1/14/2021 8:15:35 AM 2.3825 36.2885 306.45 7.9282 17.93 2.3825
1/14/2021 8:30:35 AM 2.4175 36.3515 311.6499 7.993299 17.8775 2.417503
1/14/2021 8:45:36 AM 2.385 36.293 307.15 7.8883 17.6725 2.385002
1/14/2021 9:00:35 AM 2.3475 36.2255 307.55 7.8995 17.9125 2.347504
1/14/2021 9:15:35 AM 2.3325 36.1985 307.8 7.9002 17.685 2.332497
1/14/2021 9:30:35 AM 2.665 36.797 326.2 7.8365 16.7225 2.665001
1/14/2021 9:45:35 AM 2.905 37.229 339 7.7889 16.445 2.907501
1/14/2021 9:53:27 AM 3.0625 37.5125 346.9501 7.763 15.8525 3.0625
1/14/2021 9:56:26 AM 3.0775 37.5395 348.3501 7.7644 15.75 3.077499
1/14/2021 10:11:25 AM 3.2875 37.9175 356.3 7.739901 15.0875 3.287498
1/14/2021 10:16:59 AM 3.3575 38.0435 361.5 7.731501 15.0875 3.357498
1/14/2021 10:31:59 AM 3.4975 38.2955 367.7501 7.719601 14.74 3.497498
1/14/2021 10:46:58 AM 3.5975 38.4755 376.0499 7.709801 14.6675 3.597504
1/14/2021 11:01:59 AM 3.7 38.66 382.9501 7.699301 14.145 3.699997
1/14/2021 11:16:59 AM 2.6425 36.7565 307.2499 7.8743 20.52 2.642502
1/14/2021 11:31:59 AM 2.5375 36.5675 307.6 7.8841 21.405 2.537498
1/14/2021 11:46:59 AM 2.0525 35.6945 312.7501 7.9009 20.4175 2.052498
1/14/2021 12:01:59 PM 1.8475 35.3255 315.2 7.9107 19.645 1.847504
1/14/2021 12:16:58 PM 1.7775 35.1995 316.2499 7.917 19.6975 1.777496
1/14/2021 12:31:59 PM 1.7275 35.1095 316.6499 7.9212 19.3325 1.727501
1/14/2021 12:46:58 PM 1.7125 35.0825 317 7.9205 18.4975 1.712502
1/14/2021 1:01:58 PM 1.7275 35.1095 317.0499 7.9219 18.95 1.727501
1/14/2021 1:16:59 PM 1.73 35.114 317.0499 7.9254 19.0575 1.730003
1/14/2021 1:31:59 PM 1.745 35.141 317 7.9275 18.7425 1.745003
1/14/2021 1:46:59 PM 1.765 35.177 317.0499 7.9261 18.7975 1.764999
1/14/2021 2:01:58 PM 1.78 35.204 317.4 7.9282 19.075 1.779999
1/14/2021 2:16:59 PM 1.795 35.231 317.3501 7.9324 18.6225 1.794998
1/14/2021 2:31:58 PM 1.8175 35.2715 317.3501 7.9324 18.9175 1.817497
1/14/2021 2:46:59 PM 1.815 35.267 317.45 7.9303 19.0225 1.815002
1/14/2021 3:01:59 PM 1.8325 35.2985 317.0499 7.9366 18.6725 1.832497
1/14/2021 3:16:58 PM 1.85 35.33 317.0499 7.9373 18.915 1.849998
1/14/2021 3:31:59 PM 1.8325 35.2985 317.0499 7.9373 18.725 1.832497
1/14/2021 3:46:59 PM 1.85 35.33 317.0499 7.9359 18.6225 1.849998
1/14/2021 4:01:59 PM 1.8525 35.3345 317.0499 7.9408 18.69 1.852501
1/14/2021 4:16:59 PM 1.8525 35.3345 317.0499 7.9359 18.605 1.852501
1/14/2021 4:31:59 PM 1.8525 35.3345 317.0499 7.9408 18.4475 1.852501
1/14/2021 4:46:59 PM 1.85 35.33 317.4 7.9429 18.71 1.849998
1/14/2021 5:01:59 PM 1.8525 35.3345 317.3501 7.9408 18.57 1.852501
1/14/2021 5:16:58 PM 1.8525 35.3345 317.4 7.9429 18.5375 1.852501
1/14/2021 5:31:59 PM 1.835 35.303 317.7501 7.9471 18.485 1.834999
1/14/2021 5:46:59 PM 1.8175 35.2715 317.7501 7.9471 18.6075 1.817497
1/14/2021 6:01:59 PM 1.8 35.24 318.1 7.9464 18.485 1.800003
1/14/2021 6:16:59 PM 1.8175 35.2715 317.7501 7.9485 18.6625 1.817497
1/14/2021 6:31:59 PM 1.8 35.24 318.1 7.9471 18.5925 1.800003
1/14/2021 6:46:59 PM 1.8 35.24 318.1 7.9471 18.7125 1.800003
1/14/2021 7:01:59 PM 1.8 35.24 318.1 7.9478 18.745 1.800003
1/14/2021 7:16:59 PM 1.785 35.213 318.1 7.9478 18.47 1.785004
1/14/2021 7:31:59 PM 1.7825 35.2085 318.1 7.9478 18.6275 1.782501
1/14/2021 7:46:59 PM 1.7475 35.1455 318.5 7.952 18.2075 1.747498
1/14/2021 8:01:59 PM 1.7675 35.1815 318.45 7.9464 18.66 1.767502
1/14/2021 8:16:59 PM 1.7675 35.1815 318.15 7.952 19.4625 1.767502
1/14/2021 8:31:59 PM 1.7475 35.1455 318.1 7.9513 19.865 1.747498
1/14/2021 8:46:59 PM 1.75 35.15 318.1 7.9513 19.5525 1.75
1/14/2021 9:01:59 PM 1.75 35.15 318.1 7.952 19.22 1.75
1/14/2021 9:16:59 PM 1.7475 35.1455 318.15 7.9513 19.465 1.747498
1/14/2021 9:31:59 PM 1.7325 35.1185 318.15 7.9464 19.045 1.732498
1/14/2021 9:46:59 PM 1.7325 35.1185 318.15 7.9478 19.415 1.732498
1/14/2021 10:01:59 PM 1.7325 35.1185 318.1 7.9464 19.34 1.732498
1/14/2021 10:16:59 PM 1.715 35.087 318.1 7.9471 18.8375 1.714996
1/14/2021 10:31:59 PM 1.715 35.087 318.1 7.9457 18.68 1.714996
1/14/2021 10:46:58 PM 1.715 35.087 318.1 7.9464 18.995 1.714996
1/14/2021 11:01:58 PM 1.715 35.087 318.15 7.9464 18.995 1.714996
1/14/2021 11:16:58 PM 1.695 35.051 318.15 7.9478 18.9575 1.697502
1/14/2021 11:31:58 PM 1.715 35.087 317.8 7.9478 18.54 1.714996
1/15/2021 12:01:59 AM 1.7125 35.0825 317.8 7.9478 19.0625 1.712502
1/15/2021 12:16:59 AM 1.6975 35.0555 317.8 7.9471 18.715 1.697502
1/15/2021 12:31:59 AM 1.6975 35.0555 317.7501 7.9429 18.87 1.697502
1/15/2021 12:46:59 AM 1.6975 35.0555 317.7501 7.9422 18.7125 1.697502
1/15/2021 1:01:59 AM 1.6975 35.0555 317.7501 7.9429 18.54 1.697502
1/15/2021 1:16:59 AM 1.695 35.051 317.7501 7.9436 18.6975 1.695
1/15/2021 1:31:59 AM 1.6975 35.0555 318.1 7.9422 18.8875 1.697502
1/15/2021 1:46:59 AM 1.6975 35.0555 318.15 7.9422 18.5575 1.697502
1/15/2021 2:01:59 AM 1.7125 35.0825 318.1 7.9394 18.5925 1.712502
1/15/2021 2:16:59 AM 1.715 35.087 318.1 7.9366 18.59 1.714996
1/15/2021 2:46:59 AM 1.7125 35.0825 318.15 7.9387 18.66 1.712502
1/15/2021 3:01:59 AM 1.7125 35.0825 318.5 7.938 18.645 1.712502
1/15/2021 3:16:59 AM 1.715 35.087 318.45 7.9373 18.47 1.714996
1/15/2021 3:31:59 AM 1.6975 35.0555 318.85 7.9317 18.42 1.697502
1/15/2021 3:46:59 AM 1.6625 34.9925 319.2 7.9331 18.4725 1.662498
1/15/2021 4:01:59 AM 1.6475 34.9655 319.55 7.9331 18.6275 1.647499
1/15/2021 4:16:59 AM 1.645 34.961 319.55 7.9317 18.455 1.644997
1/15/2021 4:31:59 AM 1.645 34.961 319.15 7.9331 18.4875 1.644997
1/15/2021 4:46:59 AM 1.6625 34.9925 319.15 7.9317 18.2625 1.662498
1/15/2021 5:01:59 AM 1.645 34.961 319.55 7.9331 18.2225 1.644997
1/15/2021 5:16:59 AM 1.6275 34.9295 319.55 7.9345 18.455 1.627502
1/15/2021 5:31:59 AM 1.61 34.898 319.9 7.9345 18.2275 1.610001
1/15/2021 5:46:59 AM 1.5925 34.8665 319.85 7.9289 18.2125 1.592499
1/15/2021 6:01:59 AM 1.6125 34.9025 319.9 7.9331 18.315 1.612503
1/15/2021 6:16:59 AM 1.645 34.961 319.55 7.9282 18.0725 1.644997
1/15/2021 6:31:59 AM 1.6275 34.9295 319.5 7.9338 17.765 1.627502
1/15/2021 6:46:59 AM 1.6275 34.9295 319.85 7.9275 18.055 1.627502
1/15/2021 7:01:59 AM 1.6275 34.9295 319.5 7.9275 18.2125 1.627502
1/15/2021 7:16:59 AM 1.575 34.835 319.9 7.9289 17.8325 1.574997
1/15/2021 7:31:59 AM 1.525 34.745 320.55 7.9275 18.09 1.525002
1/15/2021 7:46:59 AM 1.49 34.682 320.9 7.9282 17.8825 1.489998
1/15/2021 8:01:59 AM 1.49 34.682 320.9501 7.9268 17.85 1.489998
1/15/2021 8:16:59 AM 1.4725 34.6505 321.3 7.9289 17.68 1.472504
1/15/2021 8:31:59 AM 1.455 34.619 321.2499 7.9289 17.8375 1.455002
1/15/2021 8:46:59 AM 1.4725 34.6505 321.3 7.9282 17.56 1.472504
1/15/2021 9:01:59 AM 1.4725 34.6505 321.2499 7.9268 17.885 1.472504
1/15/2021 9:16:59 AM 1.5075 34.7135 320.9501 7.9268 17.505 1.5075
1/15/2021 9:31:59 AM 1.6825 35.0285 319.15 7.9275 17.28 1.677498
1/15/2021 9:46:59 AM 1.9925 35.5865 315.6499 7.9261 17.2375 1.9925
1/15/2021 10:01:59 AM 2.1475 35.8655 313.9501 7.9254 17.0625 2.147499
1/15/2021 10:16:59 AM 2.2475 36.0455 312.85 7.9282 17.3 2.247498
1/15/2021 10:31:59 AM 2.3175 36.1715 312.15 7.9317 17.335 2.317497
1/15/2021 10:46:59 AM 2.3675 36.2615 311.8 7.9303 17.16 2.3675
1/15/2021 11:01:59 AM 2.4375 36.3875 311.45 7.9296 17.125 2.4375
1/15/2021 11:16:59 AM 2.42 36.356 311.8 7.931 17.0525 2.419998
1/15/2021 11:31:59 AM 2.3175 36.1715 313.55 7.9296 17.0225 2.317497
1/15/2021 11:46:59 AM 2.4375 36.3875 312.8 7.9303 17.055 2.4375
1/15/2021 12:01:59 PM 2.525 36.545 312.15 7.931 16.8825 2.525002
1/15/2021 12:16:59 PM 2.575 36.635 312.1 7.9352 16.97 2.574997
1/15/2021 12:31:59 PM 2.61 36.698 312.1 7.9338 16.8975 2.610001
1/15/2021 12:46:59 PM 2.47 36.446 313.85 7.9345 16.865 2.470001
1/15/2021 1:01:59 PM 2.3525 36.2345 315.6 7.9387 16.99 2.352501
1/15/2021 1:16:59 PM 2.4225 36.3605 315.2499 7.9387 17.0425 2.422501
1/15/2021 1:31:59 PM 2.54 36.572 314.2 7.9401 16.885 2.540001
1/15/2021 1:46:59 PM 2.61 36.698 313.85 7.9394 16.9175 2.610001
1/15/2021 2:01:59 PM 2.665 36.797 313.5 7.9443 16.78 2.665001
1/15/2021 2:16:59 PM 2.68 36.824 313.8 7.9443 16.71 2.68
1/15/2021 2:31:59 PM 2.5225 36.5405 316.2499 7.9457 16.415 2.522499
1/15/2021 2:46:59 PM 2.575 36.635 316.3 7.945 16.6975 2.574997
1/15/2021 3:01:59 PM 2.7175 36.8915 315.2 7.9499 16.7275 2.717499
1/15/2021 3:16:59 PM 2.8 37.04 314.9 7.9506 16.6425 2.800003
1/15/2021 3:31:59 PM 2.8525 37.1345 314.55 7.9555 16.605 2.852501
1/15/2021 3:46:59 PM 2.7675 36.9815 315.9 7.9555 16.3975 2.767502
1/15/2021 4:01:59 PM 2.575 36.635 318.3501 7.9555 16.555 2.574997
1/15/2021 4:16:59 PM 2.4725 36.4505 319.7 7.9548 16.5025 2.472504
1/15/2021 4:31:59 PM 2.5075 36.5135 319.7501 7.959 16.4 2.5075
1/15/2021 4:46:59 PM 2.68 36.824 318 7.9611 16.465 2.68
1/15/2021 5:01:59 PM 2.8175 37.0715 316.6 7.9604 16.135 2.817497
1/15/2021 5:16:59 PM 2.8875 37.1975 315.9 7.9611 16.4325 2.887497
1/15/2021 5:31:59 PM 2.94 37.292 315.55 7.959 16.31 2.940002
1/15/2021 5:46:59 PM 2.9225 37.2605 315.9 7.9639 16.22 2.922501
1/15/2021 6:01:59 PM 2.6125 36.7025 319.7501 7.9646 16.1525 2.612503
1/15/2021 6:17:00 PM 2.525 36.545 321.15 7.966 16.0825 2.525002
1/15/2021 6:31:59 PM 2.4575 36.4235 322.2 7.9653 15.9625 2.457497
1/15/2021 6:46:59 PM 2.4225 36.3605 322.9501 7.9653 16.0675 2.422501
1/15/2021 7:01:59 PM 2.37 36.266 323.2499 7.9667 15.8075 2.370003
1/15/2021 7:16:59 PM 2.3375 36.2075 324 7.9674 15.985 2.337502
1/15/2021 7:31:59 PM 2.3375 36.2075 323.9501 7.9702 15.62 2.337502
1/15/2021 7:46:59 PM 2.32 36.176 324.3 7.9709 15.7075 2.32
1/15/2021 8:01:59 PM 2.305 36.149 324.4 7.9709 15.515 2.305
1/15/2021 8:16:59 PM 2.3025 36.1445 324.7 7.9723 15.6575 2.302498
1/15/2021 8:31:59 PM 2.3225 36.1805 324.4 7.9702 15.6225 2.322502
1/15/2021 8:46:59 PM 2.285 36.113 324.7 7.9723 15.4475 2.285004
1/15/2021 9:01:59 PM 2.27 36.086 325.0499 7.9716 15.3625 2.269997
1/15/2021 9:16:59 PM 2.27 36.086 325.1 7.9702 15.3775 2.269997
1/15/2021 9:31:59 PM 2.2525 36.0545 325.45 7.9716 15.275 2.252502
1/15/2021 9:46:59 PM 2.2525 36.0545 325.3501 7.9716 14.9975 2.252502
1/15/2021 10:01:59 PM 2.27 36.086 325.4 7.9723 15.2075 2.269997
1/15/2021 10:16:59 PM 2.27 36.086 325.4 7.9716 15.0675 2.269997
1/15/2021 10:31:59 PM 2.2875 36.1175 325.0499 7.9702 14.7425 2.287498
1/15/2021 10:46:59 PM 2.3025 36.1445 325.0499 7.9667 14.945 2.302498
1/15/2021 11:01:59 PM 2.3225 36.1805 325.0499 7.9653 14.945 2.322502
1/15/2021 11:16:59 PM 2.3225 36.1805 324.7 7.966 14.735 2.322502
1/15/2021 11:31:59 PM 2.305 36.149 325 7.966 14.58 2.305
1/16/2021 12:01:59 AM 2.305 36.149 325.0499 7.966 14.6325 2.305
1/16/2021 12:16:59 AM 2.305 36.149 325 7.966 14.5125 2.305
1/16/2021 12:31:59 AM 2.2875 36.1175 325 7.9604 14.3175 2.287498
1/16/2021 12:47:00 AM 2.2875 36.1175 325.0499 7.9618 14.3025 2.287498
1/16/2021 1:01:59 AM 2.27 36.086 325.0499 7.9625 14.3725 2.269997
1/16/2021 1:16:59 AM 2.5275 36.5495 322.2 7.9597 14.0925 2.527496
1/16/2021 1:32:00 AM 2.755 36.959 319.45 7.9597 14.16 2.754997
1/16/2021 1:46:59 AM 2.8575 37.1435 317.7 7.9611 14.2075 2.857498
1/16/2021 2:01:59 AM 2.9425 37.2965 317 7.9604 14.12 2.942497
1/16/2021 2:16:59 AM 2.975 37.355 316.3 7.9562 14.155 2.974998
1/16/2021 2:31:59 AM 3.01 37.418 315.9 7.9548 13.9275 3.010002
1/16/2021 2:47:00 AM 3.0275 37.4495 315.55 7.9541 13.9975 3.027496
1/16/2021 3:01:59 AM 3.045 37.481 315.55 7.9548 13.8575 3.044998
1/16/2021 3:16:59 AM 2.6975 36.8555 319.4 7.9548 13.91 2.697502
1/16/2021 3:31:59 AM 2.405 36.329 322.9 7.9562 13.8975 2.404999
1/16/2021 3:47:00 AM 2.27 36.086 324.3 7.9513 13.865 2.269997
1/16/2021 4:02:00 AM 2.1975 35.9555 325 7.9527 13.765 2.197502
1/16/2021 4:17:00 AM 2.1475 35.8655 325.3501 7.9513 13.885 2.147499
1/16/2021 4:32:00 AM 2.39 36.302 322.6 7.952 13.9575 2.389999
1/16/2021 4:47:00 AM 2.6825 36.8285 319.1 7.9527 13.95 2.682503
1/16/2021 5:02:00 AM 2.8225 37.0805 317.3501 7.9492 14.0025 2.822502
1/16/2021 5:17:00 AM 2.89 37.202 316.6499 7.952 13.825 2.889999
1/16/2021 5:31:59 AM 2.9425 37.2965 316.3 7.9492 13.8775 2.942497
1/16/2021 5:46:59 AM 2.975 37.355 316.2499 7.9464 13.98 2.974998
1/16/2021 6:01:59 AM 3.01 37.418 316.2499 7.945 14.0125 3.010002
1/16/2021 6:16:59 AM 2.6475 36.7655 320.8 7.9443 14.3825 2.647499
1/16/2021 6:31:59 AM 2.3525 36.2345 324.3 7.9464 14.8525 2.352501
1/16/2021 6:46:59 AM 2.2325 36.0185 325.7 7.9478 14.8225 2.232498
1/16/2021 7:01:59 AM 2.3175 36.1715 324.6499 7.9478 14.7175 2.317497
1/16/2021 7:16:59 AM 2.6325 36.7385 320.9 7.9485 14.9425 2.6325
1/16/2021 7:31:59 AM 2.8025 37.0445 318.7501 7.9457 14.6425 2.805
1/16/2021 7:46:59 AM 2.8875 37.1975 317.6499 7.9415 14.7125 2.887497
1/16/2021 8:01:59 AM 2.9425 37.2965 316.6499 7.9408 14.485 2.942497
1/16/2021 8:16:59 AM 2.975 37.355 316.3 7.9401 14.5675 2.974998
1/16/2021 8:32:00 AM 2.7325 36.9185 319.0499 7.9401 14.5875 2.732498
1/16/2021 8:47:00 AM 2.405 36.329 322.85 7.9401 14.4375 2.404999
1/16/2021 9:01:59 AM 2.285 36.113 324.3 7.9415 14.5075 2.285004
1/16/2021 9:17:00 AM 2.215 35.987 325.3501 7.9415 14.335 2.214996
1/16/2021 9:31:59 AM 2.4575 36.4235 322.6 7.9429 14.4225 2.457497
1/16/2021 9:46:59 AM 2.7175 36.8915 319.8 7.9429 14.3125 2.717499
1/16/2021 10:02:00 AM 2.8725 37.1705 318.0499 7.9408 14.33 2.872498
1/16/2021 10:16:59 AM 2.94 37.292 317.3501 7.9422 14.26 2.940002
1/16/2021 10:31:59 AM 3.01 37.418 316.9501 7.9415 14.205 3.010002
1/16/2021 10:46:59 AM 3.0275 37.4495 316.9501 7.9408 14.1575 3.027496
1/16/2021 11:01:59 AM 2.615 36.707 321.85 7.9401 13.945 2.614998
1/16/2021 11:17:00 AM 2.475 36.455 323.6 7.9471 14.21 2.474998
1/16/2021 11:31:59 AM 2.7875 37.0175 320.1 7.9457 14.2225 2.787498
1/16/2021 11:46:59 AM 2.9775 37.3595 318.3501 7.9457 13.7925 2.977501
1/16/2021 12:01:59 PM 3.08 37.544 317.6499 7.9457 14.1 3.080002
1/16/2021 12:17:00 PM 3.1475 37.6655 317.2499 7.9457 14.0825 3.147499
1/16/2021 12:31:59 PM 2.7675 36.9815 321.8 7.9457 13.9825 2.767502
1/16/2021 12:46:59 PM 2.6125 36.7025 324.2499 7.9464 14.0175 2.612503
1/16/2021 1:02:00 PM 2.5625 36.6125 325.3501 7.945 14.1225 2.5625
1/16/2021 1:17:00 PM 2.5275 36.5495 326.0499 7.945 14.195 2.527496
1/16/2021 1:31:59 PM 2.7525 36.9545 323.6 7.945 14.195 2.752502
1/16/2021 1:47:00 PM 3.0475 37.4855 320.45 7.9457 13.8275 3.047501
1/16/2021 2:01:59 PM 3.2025 37.7645 318.7 7.945 14.16 3.202499
1/16/2021 2:17:00 PM 3.2875 37.9175 318.3 7.9499 14.395 3.287498
1/16/2021 2:31:59 PM 3.34 38.012 318 7.9436 14.2725 3.339996
1/16/2021 2:46:59 PM 2.96 37.328 322.85 7.9499 14.3325 2.959999
1/16/2021 3:01:59 PM 2.7875 37.0175 325.3 7.9513 14.3675 2.787498
1/16/2021 3:16:59 PM 2.7375 36.9275 326.3501 7.945 14.4725 2.737503
1/16/2021 3:31:59 PM 3.065 37.517 323.2499 7.9443 14.575 3.065002
1/16/2021 3:47:00 PM 3.27 37.886 321.5 7.9513 14.5 3.269997
1/16/2021 4:01:59 PM 3.3925 38.1065 320.8 7.9499 15.18 3.392502
1/16/2021 4:16:59 PM 3.4425 38.1965 320.8 7.9506 14.9525 3.442497
1/16/2021 4:31:59 PM 3.095 37.571 325.6499 7.9499 15.25 3.095001
1/16/2021 4:47:00 PM 2.96 37.328 328.1 7.9506 15.235 2.959999
1/16/2021 5:02:00 PM 3.2175 37.7915 325.6499 7.9485 15.5625 3.217499
1/16/2021 5:17:00 PM 3.39 38.102 324.2499 7.9506 15.5975 3.389999
1/16/2021 5:32:00 PM 3.48 38.264 323.2 7.9485 15.905 3.480003
1/16/2021 5:46:59 PM 3.375 38.075 324.2499 7.9499 15.9225 3.375
1/16/2021 6:01:59 PM 2.9575 37.3235 328.8 7.9499 16.1175 2.957497
1/16/2021 6:16:59 PM 2.77 36.986 330.2 7.952 16.365 2.769997
1/16/2021 6:31:59 PM 2.685 36.833 330.55 7.952 16.4725 2.684998
1/16/2021 6:47:00 PM 2.65 36.77 330.6 7.952 16.5425 2.650002
1/16/2021 7:02:00 PM 2.91 37.238 326.4 7.9513 16.63 2.910004
1/16/2021 7:17:00 PM 3.1525 37.6745 322.55 7.9513 16.6825 3.152496
1/16/2021 7:31:59 PM 3.2725 37.8905 320.1 7.9499 16.7325 3.272499
1/16/2021 7:47:00 PM 3.34 38.012 318.3501 7.9513 16.7475 3.339996
1/16/2021 8:01:59 PM 3.375 38.075 316.9501 7.9492 16.935 3.375
1/16/2021 8:17:00 PM 2.925 37.265 321.1 7.9492 17.025 2.925003
1/16/2021 8:32:00 PM 2.6825 36.8285 323.2499 7.9506 17.2925 2.682503
1/16/2021 8:47:00 PM 2.5625 36.6125 323.6499 7.9506 17.2775 2.5625
1/16/2021 9:02:00 PM 2.755 36.959 320.5 7.9513 17.43 2.754997
1/16/2021 9:17:00 PM 3.0125 37.4225 316.6499 7.9513 17.53 3.012497
1/16/2021 9:32:00 PM 3.135 37.643 314.55 7.9485 17.4775 3.135002
1/16/2021 9:47:00 PM 3.185 37.733 313.15 7.9513 17.4725 3.184998
1/16/2021 10:02:00 PM 3.2 37.76 312.15 7.9499 17.61 3.199997
1/16/2021 10:17:00 PM 2.9925 37.3865 313.85 7.9513 17.505 2.9925
1/16/2021 10:32:00 PM 2.615 36.707 317.7 7.9499 17.5625 2.614998
1/16/2021 10:47:00 PM 2.4225 36.3605 319.5 7.9506 17.325 2.422501
1/16/2021 11:02:00 PM 2.3375 36.2075 320.2 7.952 17.2075 2.337502
1/16/2021 11:17:00 PM 2.5475 36.5855 317.1 7.9513 17.3925 2.547501
1/16/2021 11:32:00 PM 2.8225 37.0805 313.2499 7.9513 17.135 2.822502
1/17/2021 12:01:59 AM 3.045 37.481 309.7501 7.9471 17.42 3.044998
1/17/2021 12:17:00 AM 3.095 37.571 308.7 7.9457 17.0375 3.095001
1/17/2021 12:31:59 AM 3.1325 37.6385 308 7.9401 17.315 3.1325
1/17/2021 12:46:59 AM 3.15 37.67 307.6 7.9394 16.9325 3.150002
1/17/2021 1:01:59 AM 3.165 37.697 307.2499 7.9387 17.2075 3.165001
1/17/2021 1:16:59 AM 3.1475 37.6655 306.9 7.9401 17.275 3.147499
1/17/2021 1:32:00 AM 3.1475 37.6655 306.9 7.9394 17.1925 3.147499
1/17/2021 1:46:59 AM 3.13 37.634 306.55 7.9408 17.4675 3.129997
1/17/2021 2:01:59 AM 3.13 37.634 306.2 7.9443 17.655 3.129997
1/17/2021 2:17:00 AM 3.13 37.634 305.85 7.9443 17.985 3.129997
1/17/2021 2:31:59 AM 2.63 36.734 311.0499 7.9492 17.7775 2.629997
1/17/2021 2:46:59 AM 2.4225 36.3605 313.2 7.9492 18.13 2.422501
1/17/2021 3:02:00 AM 2.735 36.923 309.4 7.9513 18.0975 2.735001
1/17/2021 3:17:00 AM 2.87 37.166 307.3 7.9506 17.9575 2.870003
1/17/2021 3:31:59 AM 2.9575 37.3235 306.2499 7.9492 18.425 2.957497
1/17/2021 3:46:59 AM 2.975 37.355 305.9 7.9485 18.3025 2.974998
1/17/2021 4:01:59 AM 3.01 37.418 304.85 7.9534 18.6 3.010002
1/17/2021 4:17:00 AM 3.0275 37.4495 304.1 7.9548 18.53 3.027496
1/17/2021 4:31:59 AM 3.0425 37.4765 303.45 7.9548 18.9275 3.042503
1/17/2021 4:46:59 AM 3.025 37.445 302.4 7.9555 19.07 3.025002
1/17/2021 5:01:59 AM 3.025 37.445 301 7.9541 18.79 3.025002
1/17/2021 5:17:00 AM 2.54 36.572 304.85 7.9548 19.335 2.540001
1/17/2021 5:31:59 AM 2.3525 36.2345 305.6 7.9569 19.3175 2.352501
1/17/2021 5:46:59 AM 2.6475 36.7655 300.7501 7.9548 19.5425 2.647499
1/17/2021 6:02:00 AM 2.785 37.013 297.2499 7.9534 19.59 2.785004
1/17/2021 6:16:59 AM 2.8525 37.1345 294.8 7.9548 20.0725 2.852501
1/17/2021 6:31:59 AM 2.87 37.166 292.0499 7.9492 20.2625 2.870003
1/17/2021 6:46:59 AM 2.8875 37.1975 289.6 7.9506 20.5225 2.887497
1/17/2021 7:01:59 AM 2.905 37.229 286.85 7.9429 20.75 2.904999
1/17/2021 7:17:00 AM 2.905 37.229 284.4 7.9401 21.1 2.904999
1/17/2021 7:32:00 AM 2.8875 37.1975 282 7.938 21.7925 2.887497
1/17/2021 7:47:00 AM 2.61 36.698 282 7.9352 22.385 2.610001
1/17/2021 8:01:59 AM 2.2125 35.9825 284.15 7.9296 22.3525 2.212502
1/17/2021 8:17:00 AM 2.315 36.167 280.6499 7.9275 22.9625 2.315002
1/17/2021 8:31:59 AM 2.545 36.581 276.15 7.9198 23.155 2.544998
1/17/2021 8:46:59 AM 2.6625 36.7925 272.6499 7.9163 23.64 2.662498
1/17/2021 9:01:59 AM 2.715 36.887 270.6 7.9142 23.725 2.714996
1/17/2021 9:16:59 AM 2.7325 36.9185 268.9 7.9114 24.105 2.732498
1/17/2021 9:31:59 AM 2.765 36.977 267.1 7.9051 24.66 2.767502
1/17/2021 9:46:59 AM 2.765 36.977 265.7 7.9051 24.8825 2.764999
1/17/2021 10:01:59 AM 2.525 36.545 267.15 7.8995 25.165 2.525002
1/17/2021 10:16:59 AM 2.2475 36.0455 268.9 7.8967 25.08 2.247498
1/17/2021 10:31:59 AM 2.4725 36.4505 265.4 7.896 25.8425 2.472504
1/17/2021 10:46:59 AM 2.61 36.698 263 7.8904 25.635 2.610001
1/17/2021 11:01:59 AM 2.6975 36.8555 261.2 7.8848 25.875 2.697502
1/17/2021 11:16:59 AM 2.7475 36.9455 259.5 7.8848 25.5775 2.747498
1/17/2021 11:31:59 AM 2.7825 37.0085 258.45 7.8799 25.9425 2.782501
1/17/2021 11:46:59 AM 2.8 37.04 257.0499 7.8799 25.6625 2.800003
1/17/2021 12:01:59 PM 2.6075 36.6935 258.15 7.8764 25.82 2.607498
1/17/2021 12:16:59 PM 2.3675 36.2615 259.55 7.8771 25.7725 2.3675
1/17/2021 12:31:59 PM 2.61 36.698 256.7501 7.8764 25.545 2.610001
1/17/2021 12:46:59 PM 2.7475 36.9455 254.6499 7.8708 25.465 2.747498
1/17/2021 1:01:59 PM 2.835 37.103 253.3 7.8694 25.53 2.834999
1/17/2021 1:16:59 PM 2.8875 37.1975 252.6 7.8659 25.4575 2.887497
1/17/2021 1:32:00 PM 2.87 37.166 252.2499 7.8652 25.14 2.870003
1/17/2021 1:46:59 PM 2.455 36.419 255.7501 7.8673 25.1825 2.455002
1/17/2021 2:02:00 PM 2.3 36.14 256.8 7.8659 25.15 2.300003
1/17/2021 2:16:59 PM 2.37 36.266 255.7501 7.8624 25.01 2.370003
1/17/2021 2:31:59 PM 2.645 36.761 252.6499 7.8624 24.785 2.644997
1/17/2021 2:47:00 PM 2.785 37.013 250.9 7.8617 24.9375 2.785004
1/17/2021 3:02:00 PM 2.8525 37.1345 249.85 7.8624 24.5725 2.852501
1/17/2021 3:17:00 PM 2.905 37.229 248.7501 7.8617 24.675 2.904999
1/17/2021 3:32:00 PM 2.94 37.292 248.1 7.8603 24.64 2.940002
1/17/2021 3:47:00 PM 2.82 37.076 248.8 7.8596 24.3125 2.82
1/17/2021 4:02:00 PM 2.4 36.32 252.2499 7.8638 24.35 2.400002
1/17/2021 4:17:00 PM 2.23 36.014 253.3501 7.8624 24.35 2.230003
1/17/2021 4:32:00 PM 2.145 35.861 253.7 7.8638 24.3225 2.144997
1/17/2021 4:47:00 PM 2.095 35.771 254.0499 7.8631 24.25 2.095001
1/17/2021 5:02:00 PM 2.04 35.672 254.1 7.8652 24.22 2.040001
1/17/2021 5:17:00 PM 2.0075 35.6135 254.1 7.8631 24.045 2.0075
1/17/2021 5:32:00 PM 1.975 35.555 254.45 7.8638 24.2575 1.974998
1/17/2021 5:46:59 PM 1.94 35.492 254.45 7.8589 23.715 1.940002
1/17/2021 6:01:59 PM 1.9225 35.4605 254.45 7.8638 23.68 1.922501
1/17/2021 6:16:59 PM 1.905 35.429 254.45 7.8603 23.4775 1.904999
1/17/2021 6:31:59 PM 1.8875 35.3975 254.8 7.861 23.6125 1.887497
1/17/2021 6:46:59 PM 2.1975 35.9555 251.3 7.8575 23.675 2.197502
1/17/2021 7:01:59 PM 2.405 36.329 249.2 7.8575 22.985 2.404999
1/17/2021 7:16:59 PM 2.5075 36.5135 248.15 7.8519 23.43 2.5075
1/17/2021 7:31:59 PM 2.5775 36.6395 247.4 7.8575 22.945 2.577499
1/17/2021 7:46:59 PM 2.61 36.698 246.7501 7.8582 22.5275 2.610001
1/17/2021 8:01:59 PM 2.6275 36.7295 246.7501 7.8554 23.0425 2.627502
1/17/2021 8:16:59 PM 2.645 36.761 246.4 7.8519 22.665 2.644997
1/17/2021 8:31:59 PM 2.6625 36.7925 246 7.8512 22.6275 2.662498
1/17/2021 8:46:59 PM 2.6775 36.8195 246 7.8526 22.8 2.677498
1/17/2021 9:01:59 PM 2.68 36.824 246 7.8561 22.71 2.68
1/17/2021 9:16:59 PM 2.5225 36.5405 247.4 7.8575 22.4525 2.522499
1/17/2021 9:31:59 PM 2.1075 35.7935 251.6 7.8582 22.215 2.107498
1/17/2021 9:46:59 PM 1.935 35.483 253.3501 7.8582 22.32 1.934998
1/17/2021 10:01:59 PM 1.85 35.33 254.4 7.8589 22.3425 1.849998
1/17/2021 10:16:59 PM 1.7975 35.2355 255.15 7.8575 22.0675 1.797501
1/17/2021 10:31:59 PM 2.145 35.861 252.3501 7.8596 21.9075 2.144997
1/17/2021 10:46:59 PM 2.355 36.239 250.2499 7.8519 21.8 2.355003
1/17/2021 11:02:00 PM 2.49 36.482 249.15 7.8589 21.7125 2.489998
1/17/2021 11:17:00 PM 2.56 36.608 248.85 7.8421 21.7075 2.559998
1/17/2021 11:32:00 PM 2.595 36.671 248.45 7.8428 21.9 2.595001
1/18/2021 12:02:00 AM 2.645 36.761 248.45 7.8428 21.24 2.644997
1/18/2021 12:17:00 AM 2.6625 36.7925 248.4 7.84 21.185 2.662498
1/18/2021 12:32:00 AM 2.6625 36.7925 248.45 7.8428 20.9775 2.662498
1/18/2021 12:47:00 AM 2.6775 36.8195 248.1 7.8379 20.9625 2.677498
1/18/2021 1:02:00 AM 2.2825 36.1085 251.9501 7.8435 20.82 2.282501
1/18/2021 1:17:00 AM 1.97 35.546 255.1 7.8386 20.5475 1.970001
1/18/2021 1:32:00 AM 1.8325 35.2985 256.5 7.8442 20.85 1.832497
1/18/2021 1:47:00 AM 1.94 35.492 255.8 7.8449 20.7125 1.940002
1/18/2021 2:02:00 AM 2.25 36.05 253 7.8407 20.465 2.25
1/18/2021 2:16:59 AM 2.42 36.356 251.6 7.8442 20.2175 2.419998
1/18/2021 2:32:00 AM 2.49 36.482 251.2499 7.8442 19.9775 2.489998
1/18/2021 2:47:00 AM 2.5425 36.5765 250.9 7.8365 20.2325 2.542503
1/18/2021 3:01:59 AM 2.575 36.635 250.5 7.8386 19.99 2.574997
1/18/2021 3:16:59 AM 2.595 36.671 250.5 7.8365 19.9 2.595001
1/18/2021 3:31:59 AM 2.61 36.698 250.5 7.8365 19.6925 2.610001
1/18/2021 3:46:59 AM 2.61 36.698 250.15 7.8365 19.83 2.610001
1/18/2021 4:01:59 AM 2.455 36.419 251.6 7.8365 19.76 2.455002
1/18/2021 4:16:59 AM 1.955 35.519 256.1 7.8386 19.7 1.955002
1/18/2021 4:31:59 AM 1.745 35.141 258.2 7.8393 20.5175 1.745003
1/18/2021 4:47:00 AM 1.6275 34.9295 259.3 7.8386 20.8875 1.627502
1/18/2021 5:01:59 AM 1.56 34.808 259.6499 7.8386 20.715 1.559998
1/18/2021 5:17:00 AM 1.5075 34.7135 259.9501 7.84 20.7675 1.5075
1/18/2021 5:32:00 AM 1.7825 35.2085 257.6 7.8393 20.56 1.782501
1/18/2021 5:47:00 AM 2.095 35.771 254.45 7.8393 20.45 2.095001
1/18/2021 6:01:59 AM 2.25 36.05 253.0499 7.8337 19.925 2.25
1/18/2021 6:16:59 AM 2.335 36.203 252.3501 7.8337 20.185 2.334999
1/18/2021 6:32:00 AM 2.3875 36.2975 251.9501 7.8386 19.8875 2.387497
1/18/2021 6:47:00 AM 2.1075 35.7935 255.0499 7.8344 19.7 2.107498
1/18/2021 7:01:59 AM 1.765 35.177 258.9501 7.8379 19.705 1.764999
1/18/2021 7:16:59 AM 1.61 34.898 260.6499 7.8337 19.585 1.610001
1/18/2021 7:31:59 AM 1.7125 35.0825 259.9501 7.8365 19.6375 1.712502
1/18/2021 7:47:00 AM 2.0425 35.6765 256.85 7.833 19.565 2.042503
1/18/2021 8:01:59 AM 2.215 35.987 255.45 7.8351 19.51 2.214996
1/18/2021 8:17:00 AM 2.3175 36.1715 254.7 7.833 19.14 2.317497
1/18/2021 8:32:00 AM 2.37 36.266 254.7 7.833 19.35 2.370003
1/18/2021 8:46:59 AM 1.9875 35.5775 258.85 7.8337 19.385 1.987503
1/18/2021 9:02:00 AM 1.7325 35.1185 261.7 7.8337 19.25 1.732498
1/18/2021 9:16:59 AM 1.6075 34.8935 263.45 7.84 19.3025 1.607498
1/18/2021 9:32:00 AM 1.5575 34.8035 264.5 7.8393 19.1125 1.557503
1/18/2021 9:47:00 AM 1.5575 34.8035 264.9 7.84 19.1 1.557503
1/18/2021 10:02:00 AM 1.955 35.519 261.7 7.8393 18.8525 1.955002
1/18/2021 10:16:59 AM 2.18 35.924 259.9 7.8386 19.04 2.18
1/18/2021 10:32:00 AM 2.32 36.176 259.6 7.8386 18.95 2.32
1/18/2021 10:47:00 AM 2.3875 36.2975 259.2 7.8386 18.88 2.387497
1/18/2021 11:02:00 AM 2.475 36.455 259.55 7.8008 7.967499 2.474998
1/18/2021 11:17:00 AM 2.5075 36.5135 259.2 7.8148 18.895 2.5075
1/18/2021 11:32:00 AM 2.56 36.608 259.6 7.8218 17.1775 2.559998
1/18/2021 11:46:59 AM 2.575 36.635 260.2 7.8295 16.5175 2.574997
1/18/2021 12:02:00 PM 2.5575 36.6035 260.9 7.833 16.3225 2.557503
1/18/2021 12:17:00 PM 2.56 36.608 261.6 7.8372 16.27 2.559998
1/18/2021 12:31:59 PM 2.5925 36.6665 261.9501 7.8421 16.5675 2.592499
1/18/2021 12:46:59 PM 2.61 36.698 262.2499 7.8421 16.18 2.610001
1/18/2021 1:01:59 PM 2.6425 36.7565 262.2499 7.8477 16.09 2.642502
1/18/2021 1:16:59 PM 2.6775 36.8195 262.2499 7.8456 16.23 2.677498
1/18/2021 1:31:59 PM 2.7125 36.8825 262.6 7.8463 15.9525 2.712502
1/18/2021 1:47:00 PM 2.73 36.914 262.6 7.8519 16.215 2.730003
1/18/2021 2:01:59 PM 2.7475 36.9455 262.9501 7.8512 15.935 2.747498
1/18/2021 2:16:59 PM 2.7625 36.9725 262.9501 7.8561 15.69 2.762497
1/18/2021 2:32:00 PM 2.78 37.004 263.2499 7.8575 16.1075 2.779999
1/18/2021 2:47:00 PM 2.7975 37.0355 263.3 7.8617 16.0225 2.797501
1/18/2021 3:02:00 PM 2.835 37.103 263.6499 7.8624 15.8 2.834999
1/18/2021 3:16:59 PM 2.85 37.13 263.9501 7.8596 16.0175 2.849998
1/18/2021 3:32:00 PM 2.8475 37.1255 264.2499 7.8659 15.88 2.847504
1/18/2021 3:46:59 PM 2.885 37.193 264.7 7.8701 15.83 2.885002
1/18/2021 4:02:00 PM 2.92 37.256 265 7.8694 16.0025 2.919998
1/18/2021 4:16:59 PM 2.92 37.256 265.3501 7.8708 15.7775 2.919998
1/18/2021 4:32:00 PM 2.92 37.256 265.3501 7.8743 15.9325 2.919998
1/18/2021 4:47:00 PM 2.92 37.256 265.3501 7.8743 15.9025 2.919998
1/18/2021 5:02:00 PM 2.92 37.256 265.7 7.8736 15.8275 2.919998
1/18/2021 5:17:00 PM 2.935 37.283 265.7 7.875 15.83 2.934998
1/18/2021 5:32:00 PM 2.92 37.256 266 7.8799 15.5675 2.919998
1/18/2021 5:47:00 PM 2.92 37.256 265.6499 7.8799 15.965 2.919998
1/18/2021 6:02:00 PM 2.9025 37.2245 266 7.8806 15.865 2.902496
1/18/2021 6:17:00 PM 2.9 37.22 266.0499 7.8862 15.76 2.900002
1/18/2021 6:32:00 PM 2.9025 37.2245 266 7.8862 15.655 2.902496
1/18/2021 6:47:00 PM 2.9 37.22 266 7.8848 15.725 2.900002
1/18/2021 7:02:00 PM 2.885 37.193 266 7.8834 15.81 2.885002
1/18/2021 7:17:00 PM 2.8675 37.1615 266 7.8897 15.6725 2.8675
1/18/2021 7:32:00 PM 2.8675 37.1615 266.0499 7.8897 15.8125 2.8675
1/18/2021 7:47:00 PM 2.8675 37.1615 266.4 7.8904 15.5675 2.8675
1/18/2021 8:02:00 PM 2.8675 37.1615 266.4 7.8904 15.6575 2.8675
1/18/2021 8:17:00 PM 2.8525 37.1345 266.3501 7.889 15.7425 2.852501
1/18/2021 8:32:00 PM 2.85 37.13 266.7 7.8904 15.74 2.849998
1/18/2021 8:47:00 PM 2.85 37.13 266.4 7.889 16.02 2.849998
1/18/2021 9:02:00 PM 2.85 37.13 266.4 7.889 15.865 2.849998
1/18/2021 9:17:00 PM 2.85 37.13 266.4 7.8911 15.6725 2.849998
1/18/2021 9:31:59 PM 2.8325 37.0985 266.4 7.8897 15.93 2.832497
1/18/2021 9:47:00 PM 2.8325 37.0985 266.4 7.8834 15.6725 2.832497
1/18/2021 10:02:00 PM 2.8175 37.0715 266.7 7.8897 15.74 2.817497
1/18/2021 10:17:00 PM 2.7975 37.0355 266.7501 7.8897 15.8625 2.797501
1/18/2021 10:32:00 PM 2.7775 36.9995 266.7 7.889 15.7225 2.777496
1/18/2021 10:47:00 PM 2.78 37.004 266.7501 7.8904 15.775 2.779999
1/18/2021 11:02:00 PM 2.76 36.968 266.7501 7.8911 16.0025 2.760002
1/18/2021 11:17:00 PM 2.765 36.977 266.7 7.8855 16.1575 2.764999
1/18/2021 11:31:59 PM 2.7475 36.9455 267.0499 7.8911 16.0075 2.747498
1/19/2021 12:02:00 AM 2.75 36.95 267.4 7.8862 15.73 2.75
1/19/2021 12:16:59 AM 2.7325 36.9185 267.8 7.8855 15.815 2.732498
1/19/2021 12:31:59 AM 2.7475 36.9455 268.0499 7.8848 15.8125 2.747498
1/19/2021 12:46:59 AM 2.715 36.887 268.1 7.8848 16.08 2.714996
1/19/2021 1:01:59 AM 2.715 36.887 268.45 7.8848 15.83 2.714996
1/19/2021 1:31:59 AM 2.6825 36.8285 268.4 7.8855 15.935 2.682503
1/19/2021 1:46:59 AM 2.665 36.797 268.4 7.8855 15.9025 2.665001
1/19/2021 2:01:59 AM 2.6625 36.7925 268.0499 7.8869 15.9575 2.662498
1/19/2021 2:16:59 AM 2.66 36.788 268.45 7.8869 16.0225 2.660004
1/19/2021 2:31:59 AM 2.66 36.788 268.1 7.8869 15.885 2.660004
1/19/2021 2:46:59 AM 2.66 36.788 268.45 7.8862 15.885 2.660004
1/19/2021 3:01:59 AM 2.6625 36.7925 268.45 7.8862 15.9525 2.662498
1/19/2021 3:16:59 AM 2.645 36.761 268.8 7.8862 15.955 2.644997
1/19/2021 3:31:59 AM 2.645 36.761 268.7501 7.8848 15.9025 2.644997
1/19/2021 3:46:59 AM 2.645 36.761 269.15 7.8848 15.7275 2.644997
1/19/2021 4:01:59 AM 2.6475 36.7655 269.5 7.8862 15.7775 2.647499
1/19/2021 4:17:00 AM 2.645 36.761 269.45 7.8869 15.83 2.644997
1/19/2021 4:31:59 AM 2.6425 36.7565 269.45 7.8862 15.92 2.642502
1/19/2021 4:47:00 AM 2.645 36.761 269.45 7.8869 15.8825 2.644997
1/19/2021 5:01:59 AM 2.6275 36.7295 269.45 7.8862 15.935 2.627502
1/19/2021 5:17:00 AM 2.6275 36.7295 269.45 7.8862 15.9525 2.627502
1/19/2021 5:31:59 AM 2.61 36.698 269.15 7.8862 15.85 2.610001
1/19/2021 5:46:59 AM 2.59 36.662 269.1 7.8862 15.935 2.589996
1/19/2021 6:01:59 AM 2.595 36.671 268.7501 7.8841 16.0375 2.595001
1/19/2021 6:16:59 AM 2.575 36.635 268.7501 7.8869 15.76 2.574997
1/19/2021 6:31:59 AM 2.5575 36.6035 268.4 7.8869 15.6575 2.557503
1/19/2021 6:46:59 AM 2.56 36.608 268.45 7.8855 15.9675 2.559998
1/19/2021 7:01:59 AM 2.56 36.608 268.45 7.8855 15.6575 2.559998
1/19/2021 7:16:59 AM 2.5425 36.5765 268.8 7.889 15.8475 2.542503
1/19/2021 7:31:59 AM 2.5425 36.5765 269.1 7.8897 15.7275 2.542503
1/19/2021 7:46:59 AM 2.54 36.572 269.1 7.8904 15.83 2.540001
1/19/2021 8:01:59 AM 2.54 36.572 269.45 7.8911 15.935 2.540001
1/19/2021 8:16:59 AM 2.5575 36.6035 269.45 7.8918 15.6075 2.557503
1/19/2021 8:31:59 AM 2.56 36.608 269.8 7.8904 15.8825 2.559998
1/19/2021 8:46:59 AM 2.54 36.572 269.85 7.8904 15.83 2.540001
1/19/2021 9:01:59 AM 2.5225 36.5405 270.15 7.8911 15.9 2.522499
1/19/2021 9:16:59 AM 2.5225 36.5405 270.15 7.8925 15.935 2.522499
1/19/2021 9:31:59 AM 2.54 36.572 270.15 7.8904 15.7275 2.540001
1/19/2021 9:46:59 AM 2.54 36.572 270.5 7.8904 15.8675 2.540001
1/19/2021 10:02:00 AM 2.54 36.572 270.5 7.8904 15.6425 2.540001
1/19/2021 10:17:00 AM 2.6275 36.7295 269.8 7.8904 17.105 2.627502
1/19/2021 10:31:59 AM 2.6775 36.8195 269.1 7.8911 19.895 2.677498
1/19/2021 10:46:59 AM 2.645 36.761 269.45 7.8946 20.2275 2.644997
1/19/2021 11:01:59 AM 2.61 36.698 269.8 7.896 17.6925 2.610001
1/19/2021 11:16:59 AM 2.6075 36.6935 270.1 7.896 16.665 2.607498
1/19/2021 11:32:00 AM 2.6275 36.7295 269.8 7.8939 15.9675 2.627502
1/19/2021 11:46:59 AM 2.6425 36.7565 269.8 7.8953 15.9025 2.642502
1/19/2021 12:02:00 PM 2.6625 36.7925 269.8 7.8939 16.125 2.662498
1/19/2021 12:17:00 PM 2.6775 36.8195 269.8 7.8953 15.8125 2.677498
1/19/2021 12:31:59 PM 2.7125 36.8825 269.45 7.8967 15.7425 2.712502
1/19/2021 12:47:00 PM 2.7475 36.9455 269.45 7.8946 15.5875 2.747498
1/19/2021 1:01:59 PM 2.78 37.004 269.1 7.896 15.76 2.779999
1/19/2021 1:17:00 PM 2.8 37.04 269.0499 7.8953 15.675 2.800003
1/19/2021 1:31:59 PM 2.8175 37.0715 268.7501 7.8967 15.76 2.817497
1/19/2021 1:47:00 PM 2.835 37.103 268.7501 7.896 15.5 2.834999
1/19/2021 2:02:00 PM 2.8525 37.1345 268.4 7.896 15.6375 2.852501
1/19/2021 2:17:00 PM 2.8675 37.1615 268.4 7.8953 15.705 2.8675
1/19/2021 2:32:00 PM 2.885 37.193 268.0499 7.8995 15.795 2.885002
1/19/2021 2:47:00 PM 2.905 37.229 268.0499 7.8988 15.59 2.904999
1/19/2021 3:02:00 PM 2.9225 37.2605 267.7501 7.8981 15.64 2.922501
1/19/2021 3:16:59 PM 2.92 37.256 267.7 7.9009 15.8625 2.919998
1/19/2021 3:32:00 PM 2.9375 37.2875 267.7501 7.9009 15.95 2.9375
1/19/2021 3:46:59 PM 2.955 37.319 267.7501 7.9044 15.5175 2.955002
1/19/2021 4:01:59 PM 2.9525 37.3145 267.7501 7.9051 15.675 2.952499
1/19/2021 4:16:59 PM 2.9725 37.3505 267.7 7.9051 15.67 2.972504
1/19/2021 4:31:59 PM 2.9725 37.3505 267.7 7.9044 15.69 2.972504
1/19/2021 4:46:59 PM 2.9725 37.3505 267.7 7.9051 15.795 2.972504
1/19/2021 5:02:00 PM 2.99 37.382 267.7 7.9037 15.69 2.989998
1/19/2021 5:16:59 PM 3.005 37.409 267.7 7.9051 15.7275 3.004997
1/19/2021 5:31:59 PM 3.0075 37.4135 267.7 7.9058 15.845 3.0075
1/19/2021 5:47:00 PM 2.99 37.382 268.1 7.9086 15.6025 2.989998
1/19/2021 6:01:59 PM 2.99 37.382 268.0499 7.9107 15.64 2.989998
1/19/2021 6:16:59 PM 2.9925 37.3865 268.4 7.9093 15.725 2.9925
1/19/2021 6:31:59 PM 2.99 37.382 268.4 7.9156 16.04 2.989998
1/19/2021 6:46:59 PM 2.975 37.355 268.4 7.9107 15.7775 2.974998
1/19/2021 7:01:59 PM 2.955 37.319 268.4 7.9156 15.655 2.955002
1/19/2021 7:17:00 PM 2.955 37.319 268.7501 7.9156 15.7275 2.955002
1/19/2021 7:31:59 PM 2.9375 37.2875 268.7501 7.9149 15.465 2.9375
1/19/2021 7:46:59 PM 2.9375 37.2875 269.0499 7.9149 15.6 2.9375
1/19/2021 8:01:59 PM 2.9225 37.2605 269.1 7.9135 15.795 2.922501
1/19/2021 8:17:00 PM 2.9025 37.2245 269.45 7.9142 15.4875 2.902496
1/19/2021 8:31:59 PM 2.885 37.193 269.8 7.9156 15.57 2.885002
1/19/2021 8:46:59 PM 2.85 37.13 269.7501 7.9149 15.5025 2.849998
1/19/2021 9:01:59 PM 2.8525 37.1345 270.1 7.9142 15.4125 2.852501
1/19/2021 9:17:00 PM 2.815 37.067 270.5 7.9093 15.19 2.815002
1/19/2021 9:31:59 PM 2.8 37.04 270.5 7.9086 15.5525 2.800003
1/19/2021 9:47:00 PM 2.78 37.004 270.8 7.9114 15.485 2.779999
1/19/2021 10:01:59 PM 2.78 37.004 270.85 7.91 15.59 2.779999
1/19/2021 10:17:00 PM 2.7475 36.9455 271.2 7.9093 15.5375 2.747498
1/19/2021 10:31:59 PM 2.73 36.914 271.2 7.91 15.4525 2.730003
1/19/2021 10:47:00 PM 2.7125 36.8825 271.15 7.9107 15.5175 2.712502
1/19/2021 11:02:00 PM 2.7125 36.8825 271.15 7.9079 15.415 2.712502
1/19/2021 11:17:00 PM 2.695 36.851 271.55 7.9093 15.3675 2.695
1/19/2021 11:32:00 PM 2.6775 36.8195 271.55 7.9093 15.62 2.677498
1/20/2021 12:02:00 AM 2.6625 36.7925 271.85 7.9037 15.6375 2.662498
1/20/2021 12:16:59 AM 2.73 36.914 271.15 7.9051 16.5775 2.730003
1/20/2021 12:31:59 AM 2.73 36.914 271.5 7.9093 17.43 2.730003
1/20/2021 12:46:59 AM 2.695 36.851 271.85 7.9037 16.2825 2.695
1/20/2021 1:01:59 AM 2.66 36.788 272.2499 7.9044 15.935 2.660004
1/20/2021 1:16:59 AM 2.645 36.761 272.6 7.9044 15.6575 2.644997
1/20/2021 1:31:59 AM 2.625 36.725 272.9501 7.9009 15.295 2.625
1/20/2021 1:46:59 AM 2.625 36.725 273.2499 7.9009 15.3675 2.625
1/20/2021 2:01:59 AM 2.6075 36.6935 273.2499 7.9002 15.295 2.607498
1/20/2021 2:16:59 AM 2.6075 36.6935 273.2499 7.8988 15.4675 2.607498
1/20/2021 2:31:59 AM 2.61 36.698 273.6 7.8995 15.5575 2.610001
1/20/2021 2:46:59 AM 2.6075 36.6935 273.6 7.9016 15.3975 2.607498
1/20/2021 3:01:59 AM 2.5925 36.6665 273.6 7.8995 15.1575 2.592499
1/20/2021 3:16:59 AM 2.5925 36.6665 273.9 7.8995 15.09 2.592499
1/20/2021 3:31:59 AM 2.59 36.662 273.9501 7.9002 15.245 2.589996
1/20/2021 3:46:59 AM 2.5725 36.6305 274.3 7.9009 15.1225 2.572502
1/20/2021 4:01:59 AM 2.5725 36.6305 274.6 7.9002 15.155 2.572502
1/20/2021 4:16:59 AM 2.5725 36.6305 275 7.9002 15.085 2.572502
1/20/2021 4:31:59 AM 2.555 36.599 275.3501 7.9016 15.33 2.555
1/20/2021 4:46:59 AM 2.555 36.599 275.6499 7.8995 15.09 2.555
1/20/2021 5:01:59 AM 2.54 36.572 276.0499 7.9002 15.0725 2.540001
1/20/2021 5:16:59 AM 2.54 36.572 276.3501 7.8995 14.9675 2.540001
1/20/2021 5:31:59 AM 2.555 36.599 276.3501 7.9009 15.1775 2.555
1/20/2021 5:46:59 AM 2.5225 36.5405 276.7 7.9002 15.0375 2.522499
1/20/2021 6:01:59 AM 2.505 36.509 276.7501 7.8981 15.0375 2.504997
1/20/2021 6:16:59 AM 2.47 36.446 277.0499 7.9002 15.0025 2.470001
1/20/2021 6:31:59 AM 2.4525 36.4145 277.0499 7.8988 14.865 2.452499
1/20/2021 6:46:59 AM 2.435 36.383 277.0499 7.9002 15.21 2.434998
1/20/2021 7:01:59 AM 2.435 36.383 277.0499 7.9002 14.97 2.434998
1/20/2021 7:16:59 AM 2.435 36.383 277.0499 7.9044 14.795 2.434998
1/20/2021 7:31:59 AM 2.4175 36.3515 277.4 7.9051 14.9025 2.417503
1/20/2021 7:46:59 AM 2.435 36.383 277.0499 7.9051 15.1775 2.434998
1/20/2021 8:01:59 AM 2.4375 36.3875 277.0499 7.9044 14.795 2.4375
1/20/2021 8:17:00 AM 2.4025 36.3245 277.4 7.9037 14.7625 2.402496
1/20/2021 8:31:59 AM 2.4175 36.3515 277.4 7.9051 14.585 2.417503
1/20/2021 8:46:59 AM 2.4025 36.3245 277.4 7.9037 14.675 2.402496
1/20/2021 9:01:59 AM 2.4 36.32 277.7501 7.9044 14.6525 2.400002
1/20/2021 9:16:59 AM 2.4175 36.3515 277.7501 7.9037 14.83 2.417503
1/20/2021 9:31:59 AM 2.4175 36.3515 277.7501 7.9093 14.64 2.417503
1/20/2021 9:46:59 AM 2.4525 36.4145 277.7501 7.9107 14.585 2.452499
1/20/2021 10:01:59 AM 2.4525 36.4145 278.1 7.9079 14.5675 2.452499
1/20/2021 10:16:59 AM 2.435 36.383 278.45 7.9135 14.6025 2.434998
1/20/2021 10:31:59 AM 2.4525 36.4145 278.1 7.9135 14.5 2.452499
1/20/2021 10:46:59 AM 2.4525 36.4145 278.45 7.9128 14.375 2.452499
1/20/2021 11:01:59 AM 2.4525 36.4145 278.4 7.9149 14.5525 2.452499
1/20/2021 11:16:59 AM 2.45 36.41 278.45 7.9205 14.4975 2.449997
1/20/2021 11:31:59 AM 2.4525 36.4145 278.45 7.9184 14.3925 2.452499
1/20/2021 11:46:59 AM 2.4375 36.3875 278.7501 7.9177 14.34 2.4375
1/20/2021 12:01:59 PM 2.435 36.383 278.8 7.9345 13.0375 2.434998
1/20/2021 12:16:59 PM 2.4525 36.4145 279.15 7.9191 12.8775 2.452499
1/20/2021 12:31:59 PM 2.4525 36.4145 279.45 7.9226 12.7625 2.452499
1/20/2021 12:46:59 PM 2.4675 36.4415 280.15 7.9254 12.8625 2.467499
1/20/2021 1:01:59 PM 2.505 36.509 280.15 7.9282 12.83 2.504997
1/20/2021 1:16:59 PM 2.5225 36.5405 280.6 7.9282 13.055 2.522499
1/20/2021 1:31:59 PM 2.5375 36.5675 280.85 7.9296 12.845 2.537498
1/20/2021 1:46:59 PM 2.54 36.572 281.2499 7.9331 12.9825 2.540001
1/20/2021 2:01:59 PM 2.5725 36.6305 281.55 7.9338 12.655 2.572502
1/20/2021 2:16:59 PM 2.59 36.662 281.55 7.9394 12.67 2.589996
1/20/2021 2:31:59 PM 2.59 36.662 281.55 7.9394 12.705 2.589996
1/20/2021 2:46:59 PM 2.61 36.698 281.55 7.9387 12.725 2.610001
1/20/2021 3:01:59 PM 2.61 36.698 281.55 7.9373 12.755 2.610001
1/20/2021 3:16:59 PM 2.59 36.662 281.85 7.9394 12.8425 2.589996
1/20/2021 3:31:59 PM 2.5925 36.6665 281.9 7.9429 12.515 2.592499
1/20/2021 3:46:59 PM 2.5725 36.6305 281.9 7.9443 12.845 2.572502
1/20/2021 4:01:59 PM 2.575 36.635 281.9 7.9436 12.6725 2.574997
1/20/2021 4:16:59 PM 2.5725 36.6305 281.9 7.9436 12.635 2.572502
1/20/2021 4:31:59 PM 2.5725 36.6305 282.2499 7.9436 12.7725 2.572502
1/20/2021 4:46:59 PM 2.5725 36.6305 282.6 7.9499 12.635 2.572502
1/20/2021 5:01:59 PM 2.5725 36.6305 282.55 7.9492 12.7225 2.572502
1/20/2021 5:17:00 PM 2.5575 36.6035 282.6 7.9492 12.6025 2.557503
1/20/2021 5:31:59 PM 2.555 36.599 282.9501 7.9478 12.5825 2.555
1/20/2021 5:46:59 PM 2.555 36.599 282.9501 7.9499 12.4475 2.555
1/20/2021 6:01:59 PM 2.5575 36.6035 282.9501 7.9485 12.74 2.557503
1/20/2021 6:16:59 PM 2.54 36.572 282.9501 7.9534 12.69 2.540001
1/20/2021 6:31:59 PM 2.505 36.509 282.9501 7.9548 12.7425 2.504997
1/20/2021 6:46:59 PM 2.4875 36.4775 282.9501 7.9527 12.74 2.487503
1/20/2021 7:01:59 PM 2.4525 36.4145 282.9501 7.9541 12.5675 2.452499
1/20/2021 7:16:59 PM 2.4325 36.3785 282.9501 7.9548 12.415 2.432503
1/20/2021 7:31:59 PM 2.3825 36.2885 282.6 7.9555 12.585 2.3825
1/20/2021 7:46:59 PM 2.35 36.23 282.55 7.9492 12.5675 2.349998
1/20/2021 8:01:59 PM 2.3325 36.1985 282.55 7.9485 12.515 2.332497
1/20/2021 8:16:59 PM 2.295 36.131 282.6 7.9478 12.55 2.294998
1/20/2021 8:31:59 PM 2.28 36.104 282.55 7.9485 12.2725 2.279999
1/20/2021 8:46:59 PM 2.245 36.041 282.6 7.9499 12.3075 2.245003
1/20/2021 9:01:59 PM 2.2275 36.0095 282.9501 7.9485 12.6725 2.227501
1/20/2021 9:16:59 PM 2.2075 35.9735 282.9501 7.9485 12.4075 2.207497
1/20/2021 9:31:59 PM 2.1925 35.9465 282.9501 7.9506 12.48 2.192497
1/20/2021 9:46:59 PM 2.175 35.915 282.9501 7.9457 12.5175 2.175003
1/20/2021 10:01:59 PM 2.14 35.852 283.3 7.945 12.325 2.139999
1/20/2021 10:16:59 PM 2.125 35.825 283.3 7.9422 12.1175 2.125
1/20/2021 10:31:59 PM 2.1075 35.7935 283.3 7.945 12.2225 2.107498
1/20/2021 10:46:59 PM 2.0875 35.7575 283.3 7.9457 12.19 2.087502
1/20/2021 11:01:59 PM 2.07 35.726 283.3 7.945 12.255 2.07
1/20/2021 11:16:59 PM 2.055 35.699 283.3 7.9443 12.1525 2.055
1/20/2021 11:31:59 PM 2.035 35.663 283.3 7.9436 12.29 2.035004
1/21/2021 12:01:59 AM 2 35.6 283.3 7.9408 12.365 2
1/21/2021 12:16:59 AM 1.985 35.573 282.9501 7.9394 13.315 1.985001
1/21/2021 12:31:59 AM 1.9675 35.5415 283 7.9394 13.7475 1.967499
1/21/2021 12:46:59 AM 1.95 35.51 283.3501 7.9401 12.915 1.949997
1/21/2021 1:01:59 AM 1.935 35.483 283.3 7.9394 12.4675 1.934998
1/21/2021 1:16:59 AM 1.915 35.447 283.6499 7.9387 12.205 1.915001
1/21/2021 1:31:59 AM 1.9 35.42 283.6499 7.938 12.2225 1.900002
1/21/2021 1:46:59 AM 1.8625 35.3525 284 7.9331 12.0975 1.862503
1/21/2021 2:01:59 AM 1.865 35.357 283.6 7.9331 12.03 1.864998
1/21/2021 2:16:59 AM 1.8275 35.2895 283.6 7.9352 12.2925 1.827499
1/21/2021 2:32:00 AM 1.7925 35.2265 283.6499 7.9352 12.0325 1.792503
1/21/2021 2:46:59 AM 1.7575 35.1635 283.6 7.9352 11.8725 1.7575
1/21/2021 3:01:59 AM 1.7425 35.1365 283.6499 7.9331 12.0125 1.7425
1/21/2021 3:16:59 AM 1.7075 35.0735 283.7 7.9331 12.4825 1.707497
1/21/2021 3:31:59 AM 1.6725 35.0105 283.3 7.9338 12.275 1.672501
1/21/2021 3:46:59 AM 1.64 34.952 283.3 7.9359 12.1375 1.639999
1/21/2021 4:01:59 AM 1.6025 34.8845 283.6499 7.9338 12.17 1.602501
1/21/2021 4:16:59 AM 1.5675 34.8215 283.6499 7.9352 11.805 1.567497
1/21/2021 4:31:59 AM 1.55 34.79 283.6499 7.9338 12.0475 1.550003
1/21/2021 4:46:59 AM 1.515 34.727 284 7.9345 12.2025 1.514999
1/21/2021 5:01:59 AM 1.495 34.691 284.3 7.9359 11.9275 1.495003
1/21/2021 5:16:59 AM 1.48 34.664 284.3501 7.9331 11.98 1.480003
1/21/2021 5:31:59 AM 1.4625 34.6325 284.3 7.9345 11.9975 1.462502
1/21/2021 5:46:59 AM 1.4475 34.6055 284.6499 7.9338 12.0475 1.447502
1/21/2021 6:01:59 AM 1.4125 34.5425 284.7 7.9331 11.8425 1.412498
1/21/2021 6:16:59 AM 1.41 34.538 284.6499 7.9352 11.805 1.410004
1/21/2021 6:31:59 AM 1.3925 34.5065 284.3501 7.9352 11.7525 1.392502
1/21/2021 6:46:59 AM 1.375 34.475 284.3501 7.9359 11.8925 1.375
1/21/2021 7:01:59 AM 1.3575 34.4435 284 7.9345 11.9075 1.357498
1/21/2021 7:16:59 AM 1.3425 34.4165 283.6499 7.9338 11.895 1.342499
1/21/2021 7:31:59 AM 1.34 34.412 283.6499 7.9352 11.795 1.339996
1/21/2021 7:46:59 AM 1.3425 34.4165 283.2499 7.9359 11.735 1.342499
1/21/2021 8:01:59 AM 1.325 34.385 283.3 7.9331 11.98 1.324997
1/21/2021 8:16:59 AM 1.3075 34.3535 282.9501 7.9338 11.91 1.307503
1/21/2021 8:31:59 AM 1.305 34.349 282.9501 7.9345 11.9775 1.305
1/21/2021 8:46:59 AM 1.3075 34.3535 283.3 7.9338 12.0975 1.307503
1/21/2021 9:01:59 AM 1.325 34.385 283.3 7.9345 12.045 1.324997
1/21/2021 9:16:59 AM 1.325 34.385 283.3 7.9352 12.0325 1.324997
1/21/2021 9:31:59 AM 1.325 34.385 283.6499 7.9387 11.9075 1.324997
1/21/2021 9:46:59 AM 1.3425 34.4165 283.6 7.9387 11.905 1.342499
1/21/2021 10:01:59 AM 1.3575 34.4435 283.6 7.9401 12.03 1.357498
1/21/2021 10:16:59 AM 1.375 34.475 283.6 7.9401 11.9225 1.375
1/21/2021 10:31:59 AM 1.3775 34.4795 283.6 7.9387 11.5775 1.377502
1/21/2021 10:46:59 AM 1.3925 34.5065 283.6499 7.9387 11.9075 1.392502
1/21/2021 11:01:59 AM 1.3925 34.5065 283.6 7.9387 11.68 1.392502
1/21/2021 11:16:59 AM 1.3925 34.5065 283.6499 7.9401 11.7525 1.392502
1/21/2021 11:31:59 AM 1.43 34.574 283.3 7.9429 11.6125 1.43
1/21/2021 11:46:59 AM 1.4275 34.5695 283.3 7.9443 11.82 1.427498
1/21/2021 12:01:59 PM 1.4625 34.6325 283.3 7.9436 11.805 1.462502
1/21/2021 12:16:59 PM 1.55 34.79 282.6 7.9254 18.56 1.550003
1/21/2021 12:31:59 PM 1.62 34.916 282.2499 7.9345 18.7325 1.620003
1/21/2021 12:46:59 PM 1.655 34.979 282.2499 7.9345 14.85 1.654999
1/21/2021 1:01:59 PM 1.69 35.042 282.3501 7.938 13.6475 1.690002
1/21/2021 1:16:59 PM 1.7275 35.1095 282.3 7.938 13.0025 1.727501
1/21/2021 1:31:59 PM 1.775 35.195 282.2499 7.9443 12.585 1.775002
1/21/2021 1:46:59 PM 1.845 35.321 282.2499 7.9429 12.3425 1.845001
1/21/2021 2:01:59 PM 1.8975 35.4155 282.2499 7.9422 12.3075 1.897499
1/21/2021 2:16:59 PM 1.95 35.51 281.9 7.9499 12.2875 1.949997
1/21/2021 2:31:59 PM 2.0025 35.6045 281.9 7.9478 12.255 2.002502
1/21/2021 2:46:59 PM 2.0325 35.6585 281.9 7.9499 12.2575 2.032501
1/21/2021 3:01:59 PM 2.07 35.726 281.6 7.9478 12.3425 2.07
1/21/2021 3:16:59 PM 2.105 35.789 281.55 7.9478 12.4275 2.105003
1/21/2021 3:31:59 PM 2.1225 35.8205 281.55 7.9471 12.22 2.122498
1/21/2021 3:46:59 PM 2.1225 35.8205 281.2 7.9534 12.4275 2.122498
1/21/2021 4:01:59 PM 2.1225 35.8205 281.15 7.9527 12.3075 2.122498
1/21/2021 4:16:59 PM 2.1225 35.8205 281.2 7.9548 12.4125 2.122498
1/21/2021 4:31:59 PM 2.1375 35.8475 280.8 7.9541 12.2 2.137497
1/21/2021 4:47:00 PM 2.14 35.852 280.8 7.9527 12.3075 2.139999
1/21/2021 5:01:59 PM 2.14 35.852 280.85 7.9548 12.4475 2.139999
1/21/2021 5:16:59 PM 2.14 35.852 280.85 7.952 12.185 2.139999
1/21/2021 5:31:59 PM 2.1375 35.8475 280.9 7.9527 12.41 2.137497
1/21/2021 5:46:59 PM 2.1225 35.8205 280.8 7.9527 12.235 2.122498
1/21/2021 6:01:59 PM 2.12 35.816 281.15 7.9534 12.2875 2.120003
1/21/2021 6:16:59 PM 2.1225 35.8205 281.2 7.9534 12.3625 2.122498
1/21/2021 6:32:00 PM 2.125 35.825 281.2 7.952 12.1325 2.125
1/21/2021 6:46:59 PM 2.14 35.852 281.15 7.9534 12.3225 2.139999
1/21/2021 7:01:59 PM 2.14 35.852 281.55 7.9527 12.15 2.139999
1/21/2021 7:17:00 PM 2.175 35.915 281.5 7.9541 12.15 2.175003
1/21/2021 7:32:00 PM 2.175 35.915 281.55 7.9541 12.0475 2.175003
1/21/2021 7:47:00 PM 2.175 35.915 281.5 7.9541 12.1125 2.175003
1/21/2021 8:02:00 PM 2.175 35.915 281.55 7.9548 11.89 2.175003
1/21/2021 8:17:00 PM 2.1725 35.9105 281.5 7.9534 11.96 2.172501
1/21/2021 8:32:00 PM 2.175 35.915 281.55 7.9478 11.9275 2.175003
1/21/2021 8:47:00 PM 2.175 35.915 281.5 7.9471 11.8225 2.175003
1/21/2021 9:02:00 PM 2.155 35.879 281.5 7.9492 11.89 2.154999
1/21/2021 9:17:00 PM 2.1575 35.8835 281.55 7.9492 11.9625 2.157501
1/21/2021 9:32:00 PM 2.175 35.915 281.55 7.9429 11.9775 2.175003
1/21/2021 9:47:00 PM 2.1575 35.8835 281.5 7.9422 12.0475 2.157501
1/21/2021 10:02:00 PM 2.175 35.915 281.55 7.9429 12.065 2.175003
1/21/2021 10:16:59 PM 2.1725 35.9105 281.85 7.9401 11.8925 2.172501
1/21/2021 10:32:00 PM 2.175 35.915 281.9 7.9387 11.8225 2.175003
1/21/2021 10:47:00 PM 2.1725 35.9105 282.2 7.9401 11.94 2.172501
1/21/2021 11:01:59 PM 2.175 35.915 282.55 7.938 11.94 2.175003
1/21/2021 11:17:00 PM 2.1725 35.9105 282.55 7.9394 11.975 2.172501
1/21/2021 11:32:00 PM 2.175 35.915 282.9 7.9373 11.94 2.175003
1/22/2021 12:01:59 AM 2.175 35.915 283.2499 7.9387 11.875 2.175003
1/22/2021 12:17:00 AM 2.175 35.915 283.2499 7.9331 11.96 2.175003
1/22/2021 12:32:00 AM 2.1575 35.8835 283.2499 7.9352 11.82 2.157501
1/22/2021 12:47:00 AM 2.155 35.879 283.2499 7.9345 11.8375 2.154999
1/22/2021 1:02:00 AM 2.1575 35.8835 283.2499 7.9296 11.89 2.157501
1/22/2021 1:17:00 AM 2.1575 35.8835 283.2499 7.9282 11.7525 2.157501
1/22/2021 1:32:00 AM 2.1575 35.8835 282.9501 7.9275 11.6125 2.157501
1/22/2021 1:47:00 AM 2.14 35.852 283.3 7.9282 11.7175 2.139999
1/22/2021 2:02:00 AM 2.1375 35.8475 282.9 7.9247 11.9075 2.137497
1/22/2021 2:17:00 AM 2.14 35.852 282.9 7.9226 11.7175 2.139999
1/22/2021 2:32:00 AM 2.1225 35.8205 282.9 7.9247 11.8375 2.122498
1/22/2021 2:47:00 AM 2.105 35.789 282.9 7.9226 11.7675 2.105003
1/22/2021 3:02:00 AM 2.0875 35.7575 282.9 7.924 11.7325 2.087502
1/22/2021 3:17:00 AM 2.07 35.726 282.6 7.9233 11.5775 2.07
1/22/2021 3:32:00 AM 2.07 35.726 282.6 7.924 11.5775 2.07
1/22/2021 3:47:00 AM 2.0525 35.6945 282.55 7.924 11.6975 2.052498
1/22/2021 4:02:00 AM 2.0525 35.6945 282.6 7.9191 11.7675 2.052498
1/22/2021 4:17:00 AM 2.035 35.663 282.55 7.9205 11.4375 2.035004
1/22/2021 4:32:00 AM 2.0175 35.6315 282.6 7.9177 11.645 2.017502
1/22/2021 4:47:00 AM 2.0175 35.6315 282.55 7.9191 11.6825 2.017502
1/22/2021 5:02:00 AM 2 35.6 282.6 7.9198 11.475 2
1/22/2021 5:17:00 AM 2 35.6 282.6 7.9205 11.63 2
1/22/2021 5:32:00 AM 1.985 35.573 282.2499 7.9177 11.37 1.985001
1/22/2021 5:47:00 AM 2 35.6 282.2499 7.9205 11.6975 2
1/22/2021 6:02:00 AM 1.9825 35.5685 282.6 7.9156 11.4575 1.982498
1/22/2021 6:17:00 AM 1.9675 35.5415 282.6 7.9135 11.665 1.967499
1/22/2021 6:32:00 AM 1.965 35.537 282.9 7.9156 11.5425 1.964996
1/22/2021 6:47:00 AM 1.9675 35.5415 282.9 7.9184 11.525 1.967499
1/22/2021 7:02:00 AM 1.9475 35.5055 282.9501 7.9198 11.5975 1.947502
1/22/2021 7:16:59 AM 1.95 35.51 282.9 7.9135 11.65 1.949997
1/22/2021 7:32:00 AM 1.9475 35.5055 282.9 7.9156 11.75 1.947502
1/22/2021 7:46:59 AM 1.95 35.51 282.9 7.9177 11.6125 1.949997
1/22/2021 8:01:59 AM 1.9475 35.5055 282.9 7.9156 11.595 1.947502
1/22/2021 8:16:59 AM 1.9675 35.5415 282.9 7.9191 11.5625 1.967499
1/22/2021 8:31:59 AM 1.9675 35.5415 282.9501 7.9191 11.5075 1.967499
1/22/2021 8:46:59 AM 1.9825 35.5685 282.9 7.9191 11.6125 1.982498
1/22/2021 9:01:59 AM 2.0025 35.6045 282.9 7.9184 11.72 2.002502
1/22/2021 9:17:00 AM 2.0175 35.6315 282.9501 7.9184 11.91 2.017502
1/22/2021 9:31:59 AM 2.0175 35.6315 282.9501 7.9191 11.49 2.017502
1/22/2021 9:46:59 AM 2.0325 35.6585 282.9501 7.924 11.4725 2.032501
1/22/2021 10:01:59 AM 2.0525 35.6945 283.3 7.9233 11.5075 2.052498
1/22/2021 10:16:59 AM 2.07 35.726 283.2499 7.9233 11.4725 2.07
1/22/2021 10:31:59 AM 2.1025 35.7845 283.3 7.9233 11.49 2.102501
1/22/2021 10:46:59 AM 2.1375 35.8475 283.6 7.9296 11.525 2.137497
1/22/2021 11:01:59 AM 2.1725 35.9105 283.6 7.9296 11.42 2.172501
1/22/2021 11:16:59 AM 2.2075 35.9735 283.6 7.9275 11.4025 2.207497
1/22/2021 11:32:00 AM 2.245 36.041 284 7.9331 11.2675 2.245003
1/22/2021 11:46:59 AM 2.26 36.068 283.9501 7.9331 11.1075 2.260002
1/22/2021 12:01:59 PM 2.295 36.131 284.3 7.9324 11.1725 2.294998
1/22/2021 12:17:00 PM 2.2775 36.0995 284.6499 7.9394 11.0925 2.277496
1/22/2021 12:31:59 PM 2.295 36.131 285.0499 7.938 11.105 2.294998
1/22/2021 12:46:59 PM 2.31 36.158 285 7.9443 10.76 2.309998
1/22/2021 1:01:59 PM 2.345 36.221 285 7.9443 11.0175 2.345001
1/22/2021 1:16:59 PM 2.3975 36.3155 285.3501 7.9492 10.76 2.397499
1/22/2021 1:31:59 PM 2.4175 36.3515 285.7 7.9478 10.7275 2.417503
1/22/2021 1:47:00 PM 2.4175 36.3515 286.3501 7.9513 10.795 2.417503
1/22/2021 2:01:59 PM 2.4325 36.3785 286.7501 7.9513 10.495 2.432503
1/22/2021 2:16:59 PM 2.47 36.446 287.0499 7.952 10.43 2.470001
1/22/2021 2:31:59 PM 2.5025 36.5045 287.4 7.9541 10.4125 2.502502
1/22/2021 2:47:00 PM 2.5375 36.5675 288.15 7.9576 10.465 2.537498
1/22/2021 3:02:00 PM 2.555 36.599 288.8 7.959 10.29 2.555
1/22/2021 3:17:00 PM 2.5725 36.6305 289.15 7.9618 10.185 2.572502
1/22/2021 3:31:59 PM 2.575 36.635 289.5 7.9611 10.1525 2.574997
1/22/2021 3:47:00 PM 2.555 36.599 290.2 7.9674 10.0475 2.555
1/22/2021 4:01:59 PM 2.5725 36.6305 290.9 7.9674 9.910004 2.572502
1/22/2021 4:16:59 PM 2.555 36.599 291.2 7.966 9.980003 2.555
1/22/2021 4:32:00 PM 2.555 36.599 291.55 7.9723 9.93 2.555
1/22/2021 4:46:59 PM 2.555 36.599 291.9 7.9723 9.82 2.555
1/22/2021 5:02:00 PM 2.5225 36.5405 292.2499 7.973 9.945 2.522499
1/22/2021 5:16:59 PM 2.505 36.509 293 7.9723 9.839996 2.504997
1/22/2021 5:31:59 PM 2.505 36.509 293.2499 7.9723 9.772499 2.504997
1/22/2021 5:46:59 PM 2.505 36.509 293.6 7.9758 9.582497 2.504997
1/22/2021 6:01:59 PM 2.52 36.536 293.6499 7.9786 9.822502 2.519997
1/22/2021 6:16:59 PM 2.505 36.509 294 7.9765 9.667503 2.504997
1/22/2021 6:31:59 PM 2.505 36.509 294 7.9786 9.702499 2.504997
1/22/2021 6:46:59 PM 2.4875 36.4775 294.3501 7.9716 9.597504 2.487503
1/22/2021 7:01:59 PM 2.485 36.473 294.6499 7.973 9.514999 2.485001
1/22/2021 7:16:59 PM 2.4875 36.4775 294.6499 7.9716 9.529999 2.487503
1/22/2021 7:31:59 PM 2.4875 36.4775 294.7 7.9716 9.457497 2.487503
1/22/2021 7:46:59 PM 2.47 36.446 294.6499 7.9709 9.459999 2.470001
1/22/2021 8:01:59 PM 2.435 36.383 294.6499 7.9737 9.425003 2.434998
1/22/2021 8:16:59 PM 2.4175 36.3515 295.0499 7.9709 9.404999 2.417503
1/22/2021 8:31:59 PM 2.4 36.32 295.0499 7.973 9.355003 2.400002
1/22/2021 8:46:59 PM 2.4 36.32 295 7.9716 9.459999 2.400002
1/22/2021 9:01:59 PM 2.3825 36.2885 295.0499 7.9716 9.357498 2.3825
1/22/2021 9:16:59 PM 2.3475 36.2255 295.3501 7.9723 9.357498 2.347504
1/22/2021 9:31:59 PM 2.33 36.194 295.3501 7.9737 9.459999 2.330002
1/22/2021 9:46:59 PM 2.3275 36.1895 295.7 7.9681 9.267502 2.327499
1/22/2021 10:01:59 PM 2.3125 36.1625 295.3501 7.9674 9.477501 2.3125
1/22/2021 10:16:59 PM 2.3125 36.1625 295.7501 7.9681 9.360001 2.3125
1/22/2021 10:32:00 PM 2.295 36.131 296.0499 7.9681 9.150002 2.294998
1/22/2021 10:46:59 PM 2.2975 36.1355 296.0499 7.9632 9.337502 2.297501
1/22/2021 11:01:59 PM 2.26 36.068 296.4 7.9611 9.232498 2.260002
1/22/2021 11:16:59 PM 2.2425 36.0365 296.7501 7.9625 9.254997 2.2425
1/22/2021 11:32:00 PM 2.225 36.005 296.7 7.9618 9.32 2.224998
1/23/2021 12:02:00 AM 2.19 35.942 297.15 7.9625 9.269997 2.190002
1/23/2021 12:16:59 AM 2.175 35.915 297.45 7.9618 9.322502 2.175003
1/23/2021 12:32:00 AM 2.14 35.852 297.7501 7.9569 9.459999 2.139999
1/23/2021 12:47:00 AM 2.1075 35.7935 297.8 7.9583 9.220001 2.107498
1/23/2021 1:02:00 AM 2.085 35.753 298.15 7.959 9.214996 2.084999
1/23/2021 1:17:00 AM 2.07 35.726 298.15 7.9576 9.287498 2.07
1/23/2021 1:31:59 AM 2.05 35.69 298.15 7.959 9.337502 2.050003
1/23/2021 1:46:59 AM 2.035 35.663 298.15 7.9583 9.269997 2.035004
1/23/2021 2:01:59 AM 2.0025 35.6045 298.15 7.952 9.217499 2.002502
1/23/2021 2:16:59 AM 1.985 35.573 298.5 7.9527 9.322502 1.985001
1/23/2021 2:32:00 AM 1.9325 35.4785 298.5 7.9527 9.287498 1.932503
1/23/2021 2:46:59 AM 1.915 35.447 298.5 7.952 9.317497 1.915001
1/23/2021 3:02:00 AM 1.9125 35.4425 298.55 7.9548 9.392502 1.912498
1/23/2021 3:17:00 AM 1.895 35.411 298.5 7.9492 9.254997 1.894997
1/23/2021 3:32:00 AM 1.8625 35.3525 298.9 7.952 9.252502 1.862503
1/23/2021 3:46:59 AM 1.845 35.321 298.85 7.9499 9.357498 1.845001
1/23/2021 4:02:00 AM 1.83 35.294 299.2 7.9478 9.442497 1.830002
1/23/2021 4:16:59 AM 1.81 35.258 299.55 7.9485 9.305 1.809998
1/23/2021 4:32:00 AM 1.7925 35.2265 299.5 7.9478 9.287498 1.792503
1/23/2021 4:47:00 AM 1.76 35.168 299.9 7.9471 9.287498 1.760002
1/23/2021 5:02:00 AM 1.7425 35.1365 300.2499 7.9478 9.375 1.7425
1/23/2021 5:16:59 AM 1.7225 35.1005 300.55 7.9499 9.355003 1.722504
1/23/2021 5:32:00 AM 1.7075 35.0735 300.6 7.9485 9.18 1.707497
1/23/2021 5:46:59 AM 1.6875 35.0375 300.9 7.9492 9.305 1.6875
1/23/2021 6:02:00 AM 1.655 34.979 301.3 7.9492 9.322502 1.654999
1/23/2021 6:16:59 AM 1.6375 34.9475 301.3 7.9471 9.217499 1.637497
1/23/2021 6:31:59 AM 1.6 34.88 301.6 7.9492 9.0625 1.599998
1/23/2021 6:47:00 AM 1.5825 34.8485 301.6499 7.9478 9.18 1.582497
1/23/2021 7:02:00 AM 1.5675 34.8215 302 7.9478 10.0325 1.567497
1/23/2021 7:17:00 AM 1.5525 34.7945 301.9501 7.9485 9.237503 1.552498
1/23/2021 7:32:00 AM 1.53 34.754 301.9501 7.9443 9.214996 1.529999
1/23/2021 7:47:00 AM 1.515 34.727 301.9501 7.9478 9.252502 1.514999
1/23/2021 8:02:00 AM 1.48 34.664 301.9501 7.9499 9.165001 1.480003
1/23/2021 8:17:00 AM 1.465 34.637 301.6 7.9471 9.287498 1.464996
1/23/2021 8:32:00 AM 1.4475 34.6055 302 7.9478 9.235001 1.447502
1/23/2021 8:47:00 AM 1.43 34.574 301.3 7.9485 9.235001 1.43
1/23/2021 9:02:00 AM 1.41 34.538 300.9501 7.9485 9.305 1.410004
1/23/2021 9:17:00 AM 1.4125 34.5425 300.9501 7.9478 9.129997 1.412498
1/23/2021 9:32:00 AM 1.4275 34.5695 300.2499 7.9485 9.302498 1.427498
1/23/2021 9:47:00 AM 1.41 34.538 299.85 7.9506 9.252502 1.410004
1/23/2021 10:02:00 AM 1.43 34.574 299.6 7.9534 9.1325 1.43
1/23/2021 10:17:00 AM 1.425 34.565 299.2 7.9548 9.237503 1.425003
1/23/2021 10:32:00 AM 1.4475 34.6055 298.85 7.9478 9.337502 1.447502
1/23/2021 10:47:00 AM 1.43 34.574 298.5 7.9527 9.232498 1.43
1/23/2021 11:02:00 AM 1.4275 34.5695 298.15 7.9541 9.220001 1.427498
1/23/2021 11:17:00 AM 1.43 34.574 298.2 7.9534 9.287498 1.43
1/23/2021 11:32:00 AM 1.4275 34.5695 298.2 7.9548 9.182503 1.427498
1/23/2021 11:46:59 AM 1.445 34.601 297.85 7.9583 9.25 1.445
1/23/2021 12:02:00 PM 1.4475 34.6055 297.85 7.9583 9.357498 1.447502
1/23/2021 12:17:00 PM 1.445 34.601 297.85 7.9583 9.235001 1.445
1/23/2021 12:31:59 PM 1.41 34.538 297.85 7.9569 9.232498 1.410004
1/23/2021 12:47:00 PM 1.3925 34.5065 298.15 7.9646 9.217499 1.392502
1/23/2021 1:02:00 PM 1.3575 34.4435 298.15 7.9632 9.165001 1.357498
1/23/2021 1:17:00 PM 1.3575 34.4435 298.15 7.9681 9.214996 1.357498
1/23/2021 1:31:59 PM 1.34 34.412 298.15 7.9695 9.264999 1.339996
1/23/2021 1:47:00 PM 1.3425 34.4165 298.15 7.9695 9.252502 1.342499
1/23/2021 2:02:00 PM 1.36 34.448 298.2 7.9681 9.407501 1.360001
1/23/2021 2:17:00 PM 1.36 34.448 298.15 7.973 9.370003 1.360001
1/23/2021 2:32:00 PM 1.3575 34.4435 298.15 7.9737 9.337502 1.357498
1/23/2021 2:47:00 PM 1.3425 34.4165 298.2 7.973 9.197502 1.342499
1/23/2021 3:02:00 PM 1.3225 34.3805 298.5 7.9779 9.214996 1.322502
1/23/2021 3:17:00 PM 1.3075 34.3535 298.55 7.9772 9.252502 1.307503
1/23/2021 3:32:00 PM 1.325 34.385 298.55 7.9779 9.510002 1.324997
1/23/2021 3:46:59 PM 1.305 34.349 298.85 7.9835 9.339996 1.305
1/23/2021 4:02:00 PM 1.305 34.349 298.9 7.9828 9.392502 1.305
1/23/2021 4:16:59 PM 1.3225 34.3805 299.2 7.9835 9.355003 1.322502
1/23/2021 4:32:00 PM 1.36 34.448 299.55 7.9863 9.459999 1.360001
1/23/2021 4:47:00 PM 1.375 34.475 299.55 7.9884 9.357498 1.375
1/23/2021 5:01:59 PM 1.3775 34.4795 299.85 7.9877 10.2975 1.377502
1/23/2021 5:17:00 PM 1.4475 34.6055 299.55 7.9877 14.2525 1.447502
1/23/2021 5:32:00 PM 1.4625 34.6325 299.2499 7.993999 14.1525 1.462502
1/23/2021 6:02:00 PM 1.4625 34.6325 299.6 7.992599 11.3575 1.462502
1/23/2021 6:17:00 PM 1.445 34.601 299.9 7.990499 10.41 1.445
1/23/2021 6:31:59 PM 1.4275 34.5695 300.2499 7.993299 10.085 1.427498
1/23/2021 6:46:59 PM 1.4125 34.5425 300.2499 7.996099 9.962502 1.412498
1/23/2021 7:01:59 PM 1.4125 34.5425 300.2499 7.992599 9.737503 1.412498
1/23/2021 7:16:59 PM 1.395 34.511 300.2 7.996099 9.805 1.394997
1/23/2021 7:31:59 PM 1.3775 34.4795 300.6 7.997499 9.705002 1.377502
1/23/2021 7:46:59 PM 1.3425 34.4165 300.6499 7.992599 9.6175 1.342499
1/23/2021 8:01:59 PM 1.325 34.385 300.6 7.992599 9.684998 1.324997
1/23/2021 8:16:59 PM 1.3075 34.3535 300.9501 7.992599 9.582497 1.307503
1/23/2021 8:31:59 PM 1.2725 34.2905 301.3 7.991899 9.684998 1.272499
1/23/2021 8:46:59 PM 1.255 34.259 301.2499 7.991899 9.722504 1.254997
1/23/2021 9:01:59 PM 1.235 34.223 301.6499 7.992599 9.667503 1.235001
1/23/2021 9:16:59 PM 1.2 34.16 301.6 7.993299 9.682503 1.199997
1/23/2021 9:31:59 PM 1.17 34.106 302 7.987 9.722504 1.169998
1/23/2021 9:46:59 PM 1.1525 34.0745 302 7.987 9.702499 1.152496
1/23/2021 10:01:59 PM 1.115 34.007 301.9501 7.9877 9.599998 1.114998
1/23/2021 10:16:59 PM 1.1 33.98 301.9501 7.9835 9.739998 1.099998
1/23/2021 10:31:59 PM 1.08 33.944 301.9501 7.9884 9.807503 1.080002
1/23/2021 10:46:59 PM 1.0475 33.8855 302.3 7.9828 9.927498 1.047501
1/23/2021 11:01:59 PM 1.03 33.854 302.3501 7.9821 9.877502 1.029999
1/23/2021 11:16:59 PM 1.0125 33.8225 302.6499 7.9835 9.807503 1.012497
1/23/2021 11:31:59 PM 0.995 33.791 302.6499 7.9772 9.842499 0.9950027
1/24/2021 12:01:59 AM 0.9575 33.7235 303 7.98 9.650002 0.9574966
1/24/2021 12:16:59 AM 0.96 33.728 303.3501 7.9772 9.877502 0.9599991
1/24/2021 12:31:59 AM 0.9775 33.7595 303.3501 7.9737 9.787498 0.9775009
1/24/2021 12:46:59 AM 0.96 33.728 303.4 7.9737 9.827499 0.9599991
1/24/2021 1:01:59 AM 0.96 33.728 303.7 7.9744 9.879997 0.9599991
1/24/2021 1:16:59 AM 0.96 33.728 303.7 7.9751 9.967499 0.9599991
1/24/2021 1:32:00 AM 0.96 33.728 304.0499 7.9702 9.93 0.9599991
1/24/2021 1:46:59 AM 0.96 33.728 304.1 7.9688 10.0675 0.9599991
1/24/2021 2:01:59 AM 0.96 33.728 304.0499 7.9695 10 0.9599991
1/24/2021 2:17:00 AM 0.9425 33.6965 304.4 7.9674 10.105 0.9424973
1/24/2021 2:32:00 AM 0.9425 33.6965 304.7501 7.9625 9.932503 0.9424973
1/24/2021 2:46:59 AM 0.9425 33.6965 304.7501 7.9639 10.2975 0.9424973
1/24/2021 3:02:00 AM 0.945 33.701 304.7501 7.9625 10.6275 0.9449997
1/24/2021 3:17:00 AM 0.925 33.665 304.7501 7.9639 10.155 0.9250031
1/24/2021 3:32:00 AM 0.925 33.665 305.0499 7.959 10.4325 0.9250031
1/24/2021 3:47:00 AM 0.9425 33.6965 305.1 7.9597 10.715 0.9424973
1/24/2021 4:01:59 AM 0.925 33.665 305.5 7.9604 10.35 0.9250031
1/24/2021 4:17:00 AM 0.925 33.665 305.8 7.9534 10.4875 0.9250031
1/24/2021 4:31:59 AM 0.9225 33.6605 305.45 7.9555 10.14 0.9225006
1/24/2021 4:46:59 AM 0.925 33.665 305.8 7.9548 10.0175 0.9250031
1/24/2021 5:01:59 AM 0.9275 33.6695 306.15 7.9527 10.3975 0.9274979
1/24/2021 5:16:59 AM 0.9075 33.6335 306.45 7.9541 10.1225 0.9075012
1/24/2021 5:31:59 AM 0.925 33.665 306.5 7.9499 10.105 0.9250031
1/24/2021 5:46:59 AM 0.9075 33.6335 306.5 7.9492 10.1575 0.9075012
1/24/2021 6:01:59 AM 0.8925 33.6065 307.15 7.9492 10.02 0.8925018
1/24/2021 6:16:59 AM 0.875 33.575 307.55 7.9478 9.842499 0.875
1/24/2021 6:31:59 AM 0.875 33.575 307.9 7.9436 9.739998 0.8724976
1/24/2021 6:46:59 AM 0.875 33.575 308.2499 7.9429 9.635002 0.875
1/24/2021 7:01:59 AM 0.8575 33.5435 308.6 7.9443 9.480003 0.8574982
1/24/2021 7:16:59 AM 0.8725 33.5705 308.55 7.9457 9.482498 0.8724976
1/24/2021 7:31:59 AM 0.855 33.539 309.2499 7.9457 9.410004 0.8550034
1/24/2021 7:46:59 AM 0.8575 33.5435 309.2499 7.945 9.377502 0.8574982
1/24/2021 8:01:59 AM 0.8375 33.5075 309.6499 7.9457 9.377502 0.8375015
1/24/2021 8:16:59 AM 0.855 33.539 309.6499 7.945 9.392502 0.8550034
1/24/2021 8:31:59 AM 0.84 33.512 309.6 7.945 9.43 0.8399963
1/24/2021 8:46:59 AM 0.855 33.539 310 7.945 9.377502 0.8550034
1/24/2021 9:01:59 AM 0.8575 33.5435 310 7.945 9.375 0.8574982
1/24/2021 9:16:59 AM 0.875 33.575 309.6 7.9457 9.252502 0.875
1/24/2021 9:31:59 AM 0.875 33.575 309.6 7.945 9.392502 0.875
1/24/2021 9:46:59 AM 0.8925 33.6065 309.6499 7.945 9.394997 0.8925018
1/24/2021 10:01:59 AM 0.91 33.638 309.6 7.9464 9.427498 0.9100037
1/24/2021 10:16:59 AM 0.9075 33.6335 309.6 7.9464 9.394997 0.9075012
1/24/2021 10:31:59 AM 0.9275 33.6695 309.6499 7.9443 9.307503 0.9274979
1/24/2021 10:46:59 AM 0.9425 33.6965 309.3 7.945 9.150002 0.9424973
1/24/2021 11:01:59 AM 0.945 33.701 309.6 7.9436 9.324997 0.9449997
1/24/2021 11:16:59 AM 0.96 33.728 309.3 7.9443 9.252502 0.9599991
1/24/2021 11:31:59 AM 0.9775 33.7595 309.2499 7.9443 9.254997 0.9775009
1/24/2021 11:46:59 AM 0.9775 33.7595 309.2499 7.9492 9.427498 0.9775009
1/24/2021 12:01:59 PM 0.9775 33.7595 309.3 7.9464 9.307503 0.9775009
1/24/2021 12:16:59 PM 0.9925 33.7865 308.9 7.9499 9.459999 0.9925003
1/24/2021 12:31:59 PM 0.995 33.791 308.9501 7.9443 9.410004 0.9950027
1/24/2021 12:46:59 PM 1.0125 33.8225 308.6 7.9492 9.425003 1.012497
1/24/2021 1:01:59 PM 1.015 33.827 308.9 7.9478 9.322502 1.014999
1/24/2021 1:16:59 PM 1.03 33.854 308.55 7.9499 9.375 1.029999
1/24/2021 1:31:59 PM 1.0475 33.8855 308.2499 7.9541 9.392502 1.047501
1/24/2021 1:46:59 PM 1.0475 33.8855 308.2499 7.9534 9.459999 1.047501
1/24/2021 2:01:59 PM 1.0475 33.8855 308.2499 7.9534 9.287498 1.047501
1/24/2021 2:16:59 PM 1.0475 33.8855 308.2 7.9555 9.339996 1.047501
1/24/2021 2:31:59 PM 1.0475 33.8855 308.2499 7.9541 9.392502 1.047501
1/24/2021 2:46:59 PM 1.03 33.854 308.2499 7.9541 9.459999 1.029999
1/24/2021 3:01:59 PM 1.0125 33.8225 308.2 7.959 9.529999 1.012497
1/24/2021 3:16:59 PM 0.995 33.791 308.2499 7.9597 9.567497 0.9950027
1/24/2021 3:31:59 PM 0.995 33.791 307.9 7.9632 9.427498 0.9950027
1/24/2021 3:46:59 PM 0.9775 33.7595 307.55 7.9639 9.502502 0.9775009
1/24/2021 4:01:59 PM 0.96 33.728 307.5 7.9646 9.535004 0.9599991
1/24/2021 4:16:59 PM 0.9625 33.7325 307.2 7.9632 9.307503 0.9625015
1/24/2021 4:31:59 PM 0.9425 33.6965 307.15 7.9646 9.495003 0.9424973
1/24/2021 4:46:59 PM 0.9275 33.6695 306.85 7.9625 9.480003 0.9274979
1/24/2021 5:01:59 PM 0.9275 33.6695 306.85 7.9632 9.514999 0.9274979
1/24/2021 5:16:59 PM 0.9075 33.6335 306.5 7.9702 9.290001 0.9075012
1/24/2021 5:31:59 PM 0.9075 33.6335 306.5 7.9695 9.375 0.9075012
1/24/2021 5:46:59 PM 0.8925 33.6065 306.5 7.9681 9.339996 0.8925018
1/24/2021 6:01:59 PM 0.8925 33.6065 306.2 7.9695 9.375 0.8925018
1/24/2021 6:16:59 PM 0.89 33.602 306.15 7.9688 9.415001 0.8899994
1/24/2021 6:31:59 PM 0.875 33.575 305.8 7.9688 9.445 0.875
1/24/2021 6:46:59 PM 0.8725 33.5705 305.85 7.9737 9.497498 0.8724976
1/24/2021 7:01:59 PM 0.8725 33.5705 305.8 7.9744 9.377502 0.8724976
1/24/2021 7:16:59 PM 0.8575 33.5435 305.85 7.9723 9.322502 0.8574982
1/24/2021 7:31:59 PM 0.875 33.575 305.45 7.9737 9.480003 0.875
1/24/2021 7:46:59 PM 0.875 33.575 305.5 7.9737 9.550003 0.875
1/24/2021 8:01:59 PM 0.8575 33.5435 305.85 7.9737 9.602501 0.8574982
1/24/2021 8:16:59 PM 0.8575 33.5435 305.8 7.9737 9.410004 0.8574982
1/24/2021 8:31:59 PM 0.84 33.512 305.8 7.9744 9.43 0.8399963
1/24/2021 8:46:59 PM 0.84 33.512 306.2 7.9737 9.445 0.8399963
1/24/2021 9:01:59 PM 0.84 33.512 306.2 7.9737 9.567497 0.8399963
1/24/2021 9:16:59 PM 0.84 33.512 306.5 7.9793 9.427498 0.8399963
1/24/2021 9:31:59 PM 0.84 33.512 306.55 7.9744 9.514999 0.8399963
1/24/2021 9:46:59 PM 0.84 33.512 306.5 7.9737 9.550003 0.8399963
1/24/2021 10:01:59 PM 0.8225 33.4805 306.45 7.9737 9.637497 0.8225021
1/24/2021 10:16:59 PM 0.8375 33.5075 306.5 7.9758 9.57 0.8375015
1/24/2021 10:31:59 PM 0.84 33.512 306.5 7.9681 9.637497 0.8399963
1/24/2021 10:46:59 PM 0.8225 33.4805 306.55 7.973 9.6175 0.8225021
1/24/2021 11:01:59 PM 0.8225 33.4805 306.5 7.9688 9.514999 0.8225021
1/24/2021 11:16:59 PM 0.8225 33.4805 306.15 7.9702 9.669998 0.8225021
1/24/2021 11:31:59 PM 0.805 33.449 306.5 7.9709 9.550003 0.8050003
1/25/2021 12:01:59 AM 0.8225 33.4805 306.15 7.966 9.760002 0.8225021
1/25/2021 12:16:59 AM 0.805 33.449 306.2 7.9646 9.830002 0.8050003
1/25/2021 12:31:59 AM 0.8025 33.4445 306.15 7.9604 9.754997 0.8024979
1/25/2021 12:46:59 AM 0.805 33.449 305.8 7.9604 9.709999 0.8050003
1/25/2021 1:01:59 AM 0.8025 33.4445 305.8 7.9548 9.917503 0.8024979
1/25/2021 1:16:59 AM 0.7875 33.4175 305.8 7.9541 9.8825 0.7874985
1/25/2021 1:31:59 AM 0.79 33.422 305.8 7.9548 9.952499 0.7900009
1/25/2021 1:46:59 AM 0.7875 33.4175 306.15 7.9562 9.879997 0.7874985
1/25/2021 2:01:59 AM 0.77 33.386 306.2 7.9506 9.932503 0.7699966
1/25/2021 2:16:59 AM 0.77 33.386 306.15 7.945 9.797501 0.7699966
1/25/2021 2:31:59 AM 0.77 33.386 306.15 7.9457 10.005 0.7699966
1/25/2021 2:46:59 AM 0.7725 33.3905 306.15 7.945 9.8825 0.7724991
1/25/2021 3:01:59 AM 0.765 33.377 306.15 7.945 10.085 0.7649994
1/25/2021 3:16:59 AM 0.7675 33.3815 305.8 7.9401 9.997498 0.7675018
1/25/2021 3:31:59 AM 0.7675 33.3815 305.85 7.938 10.0175 0.7675018
1/25/2021 3:46:59 AM 0.7675 33.3815 305.85 7.9352 10.1225 0.7675018
1/25/2021 4:01:59 AM 0.75 33.35 305.85 7.9401 9.980003 0.75
1/25/2021 4:16:59 AM 0.75 33.35 305.5 7.9331 10.1725 0.75
1/25/2021 4:31:59 AM 0.75 33.35 305.5 7.9338 10.105 0.75
1/25/2021 4:46:59 AM 0.75 33.35 305.45 7.9303 9.982498 0.75
1/25/2021 5:01:59 AM 0.7325 33.3185 305.2 7.9289 10.28 0.7324982
1/25/2021 5:16:59 AM 0.7325 33.3185 305.1 7.9303 10.1925 0.7324982
1/25/2021 5:31:59 AM 0.7325 33.3185 305.15 7.9247 10.2425 0.7324982
1/25/2021 5:46:59 AM 0.715 33.287 305.45 7.9205 10.1225 0.7149963
1/25/2021 6:01:59 AM 0.715 33.287 305.15 7.9205 10.2275 0.7149963
1/25/2021 6:16:59 AM 0.7175 33.2915 305.2 7.9233 10.1425 0.7174988
1/25/2021 6:31:59 AM 0.7175 33.2915 305.15 7.9191 10.055 0.7174988
1/25/2021 6:46:59 AM 0.6975 33.2555 305.15 7.9212 10.0025 0.6975021
1/25/2021 7:01:59 AM 0.6975 33.2555 305.5 7.9205 10.175 0.6975021
1/25/2021 7:16:59 AM 0.7 33.26 305.5 7.9149 10.0525 0.6999969
1/25/2021 7:31:59 AM 0.6825 33.2285 305.45 7.9135 10.1925 0.6825027
1/25/2021 7:46:59 AM 0.68 33.224 305.55 7.9149 10.1575 0.6800003
1/25/2021 8:01:59 AM 0.6975 33.2555 305.5 7.9149 10.2275 0.6975021
1/25/2021 8:16:59 AM 0.6975 33.2555 305.15 7.91 10.1575 0.6975021
1/25/2021 8:31:59 AM 0.715 33.287 305.2 7.9093 10.1025 0.7149963
1/25/2021 8:46:59 AM 0.7325 33.3185 304.7501 7.91 10.1575 0.7324982
1/25/2021 9:01:59 AM 0.75 33.35 304.8 7.9065 10.26 0.75
1/25/2021 9:16:59 AM 0.7675 33.3815 304.45 7.9114 10.315 0.7675018
1/25/2021 9:31:59 AM 0.7825 33.4085 304.1 7.9093 10.4 0.7825012
1/25/2021 9:46:59 AM 0.835 33.503 303.7501 7.91 10.225 0.8349991
1/25/2021 10:01:59 AM 0.8725 33.5705 303.4 7.9093 10.155 0.8724976
1/25/2021 10:16:59 AM 0.905 33.629 303.0499 7.9107 10.0875 0.9049988
1/25/2021 10:31:59 AM 0.925 33.665 303.0499 7.9093 10.155 0.9250031
1/25/2021 10:46:59 AM 0.94 33.692 302.7 7.91 10.2075 0.9400024
1/25/2021 11:01:59 AM 0.9575 33.7235 302.7 7.903 10.19 0.9574966
1/25/2021 11:16:59 AM 0.975 33.755 302.7501 7.9044 10.14 0.9749985
1/25/2021 11:31:59 AM 1.0075 33.8135 302.3501 7.9051 10.3475 1.0075
1/25/2021 11:46:59 AM 1.0125 33.8225 302.3 7.9058 10.47 1.012497
1/25/2021 12:01:59 PM 1.0125 33.8225 303.4 7.896 10.09 1.012497
1/25/2021 12:16:59 PM 0.945 33.701 303.1 7.8771 12.1225 0.9449997
1/25/2021 12:31:59 PM 0.91 33.638 303.4 7.8911 10.7175 0.9100037
1/25/2021 12:46:59 PM 0.8925 33.6065 303.4 7.896 10.5775 0.8925018
1/25/2021 1:01:59 PM 0.8875 33.5975 303.4 7.9016 10.6275 0.8874969
1/25/2021 1:16:59 PM 0.8875 33.5975 303.45 7.9051 10.5375 0.8874969
1/25/2021 1:31:59 PM 0.89 33.602 303.4 7.9065 10.625 0.8899994
1/25/2021 1:46:59 PM 0.8875 33.5975 303.3501 7.9051 10.4675 0.8874969
1/25/2021 2:01:59 PM 0.8875 33.5975 303.4 7.9093 10.5375 0.8874969
1/25/2021 2:16:59 PM 0.8875 33.5975 303.1 7.9142 10.6075 0.8874969
1/25/2021 2:31:59 PM 0.8875 33.5975 303.45 7.9149 11.2325 0.8874969
1/25/2021 2:46:59 PM 0.87 33.566 303.45 7.9191 11.4925 0.8700027
1/25/2021 3:01:59 PM 0.89 33.602 303.45 7.9191 11.39 0.8899994
1/25/2021 3:16:59 PM 0.8875 33.5975 303.8 7.9212 11.2875 0.8874969
1/25/2021 3:32:00 PM 0.87 33.566 304.1 7.9254 11.095 0.8700027
1/25/2021 3:46:59 PM 0.8725 33.5705 304.45 7.9303 10.99 0.8724976
1/25/2021 4:01:59 PM 0.905 33.629 304.8 7.996799 11.5125 0.9049988
1/25/2021 4:16:59 PM 0.82 33.476 305.8 7.9632 9.302498 0.8199997
1/25/2021 4:32:00 PM 0.8375 33.5075 306.15 7.9583 9.337502 0.8375015
1/25/2021 4:46:59 PM 0.855 33.539 306.55 7.9576 9.459999 0.8550034
1/25/2021 5:01:59 PM 0.8375 33.5075 307.55 7.9597 9.254997 0.8375015
1/25/2021 5:16:59 PM 0.8175 33.4715 308.2499 7.9646 9.375 0.8174973
1/25/2021 5:31:59 PM 0.82 33.476 308.9501 7.9632 9.1875 0.8199997
1/25/2021 5:46:59 PM 0.82 33.476 309.6499 7.9625 9.235001 0.8199997
1/25/2021 6:01:59 PM 0.8 33.44 310.6499 7.9695 9.114998 0.8000031
1/25/2021 6:16:59 PM 0.8025 33.4445 311.0499 7.9695 9.445 0.8024979
1/25/2021 6:31:59 PM 0.8025 33.4445 311.7 7.9695 9.584999 0.8024979
1/25/2021 6:46:59 PM 0.8025 33.4445 312.4 7.9681 9.375 0.8024979
1/25/2021 7:01:59 PM 0.785 33.413 313.1 7.9737 9.387497 0.7850037
1/25/2021 7:16:59 PM 0.8025 33.4445 313.45 7.9793 9.512497 0.8024979
1/25/2021 7:31:59 PM 0.7825 33.4085 313.8 7.9793 9.065002 0.7825012
1/25/2021 7:46:59 PM 0.785 33.413 314.45 7.9814 9.080002 0.7850037
1/25/2021 8:01:59 PM 0.7825 33.4085 314.85 7.9821 8.972504 0.7825012
1/25/2021 8:16:59 PM 0.785 33.413 315.15 7.987 8.889999 0.7850037
1/25/2021 8:31:59 PM 0.7825 33.4085 315.55 7.9891 8.764999 0.7825012
1/25/2021 8:46:59 PM 0.785 33.413 315.9 7.9877 8.802498 0.7850037
1/25/2021 9:01:59 PM 0.785 33.413 316.2499 7.991899 8.75 0.7850037
1/25/2021 9:16:59 PM 0.785 33.413 316.55 7.991899 8.627502 0.7850037
1/25/2021 9:31:59 PM 0.7875 33.4175 316.9501 7.991899 8.697502 0.7874985
1/25/2021 9:46:59 PM 0.785 33.413 317.2499 7.992599 8.662498 0.7850037
1/25/2021 10:01:59 PM 0.785 33.413 317.6 7.991899 8.542503 0.7850037
1/25/2021 10:16:59 PM 0.7675 33.3815 317.9501 7.991899 8.574997 0.7675018
1/25/2021 10:40:53 PM 0.785 33.413 318.6499 7.991199 8.577499 0.7850037
1/25/2021 10:55:54 PM 0.785 33.413 319 7.993999 8.455002 0.7850037
1/25/2021 11:10:54 PM 0.7825 33.4085 319.3 7.993299 8.474998 0.7825012
1/25/2021 11:25:54 PM 0.77 33.386 320 7.991199 8.457497 0.7699966
1/25/2021 11:40:53 PM 0.785 33.413 320.3501 7.993999 8.647499 0.7850037
1/26/2021 12:10:53 AM 0.77 33.386 321.4 7.9863 8.334999 0.7699966
1/26/2021 12:25:54 AM 0.765 33.377 321.7501 7.9877 8.457497 0.7649994
1/26/2021 12:40:54 AM 0.785 33.413 322.1 7.9856 8.282501 0.7850037
1/26/2021 12:55:54 AM 0.7875 33.4175 322.8 7.9814 8.247498 0.7874985
1/26/2021 1:10:54 AM 0.785 33.413 322.8 7.9814 8.264999 0.7850037
1/26/2021 1:25:54 AM 0.7675 33.3815 323.15 7.9814 8.317497 0.7675018
1/26/2021 1:40:54 AM 0.7675 33.3815 323.5 7.9828 8.300003 0.7675018
1/26/2021 1:55:54 AM 0.7675 33.3815 323.85 7.9828 8.247498 0.7675018
1/26/2021 2:10:54 AM 0.7675 33.3815 323.8 7.9772 8.332497 0.7675018
1/26/2021 2:25:53 AM 0.7675 33.3815 323.8 7.9828 8.177498 0.7675018
1/26/2021 2:40:54 AM 0.7675 33.3815 323.85 7.9779 8.212502 0.7675018
1/26/2021 2:55:54 AM 0.785 33.413 323.8 7.9772 8.002502 0.7850037
1/26/2021 3:10:54 AM 0.785 33.413 323.8 7.9786 8.160004 0.7850037
1/26/2021 3:25:54 AM 0.7875 33.4175 324.2 7.9723 8.127502 0.7874985
1/26/2021 3:40:54 AM 0.7675 33.3815 324.15 7.9737 8.092499 0.7675018
1/26/2021 3:55:54 AM 0.7675 33.3815 324.2 7.973 8.110001 0.7675018
1/26/2021 4:10:54 AM 0.7675 33.3815 323.8 7.973 8.072502 0.7675018
1/26/2021 4:25:54 AM 0.785 33.413 323.85 7.973 8.107498 0.7850037
1/26/2021 4:40:54 AM 0.785 33.413 323.5 7.9681 8.019997 0.7850037
1/26/2021 4:55:54 AM 0.7675 33.3815 323.5 7.9667 8.212502 0.7675018
1/26/2021 5:10:54 AM 0.7675 33.3815 323.1 7.9681 8.197502 0.7675018
1/26/2021 5:25:54 AM 0.765 33.377 323.1 7.9646 8.195 0.7649994
1/26/2021 5:40:54 AM 0.7675 33.3815 322.8 7.9632 8.18 0.7675018
1/26/2021 5:55:54 AM 0.7675 33.3815 322.45 7.9583 8.057503 0.7675018
1/26/2021 6:10:54 AM 0.7675 33.3815 322.45 7.9583 8.092499 0.7675018
1/26/2021 6:25:54 AM 0.765 33.377 322.1 7.9583 8.230003 0.7649994
1/26/2021 6:40:54 AM 0.7675 33.3815 322.1 7.9576 8.227501 0.7675018
1/26/2021 6:55:54 AM 0.7675 33.3815 321.7 7.959 8.212502 0.7675018
1/26/2021 7:10:54 AM 0.7675 33.3815 321.7501 7.9548 8.18 0.7675018
1/26/2021 7:25:54 AM 0.7675 33.3815 321.4 7.9548 8.282501 0.7675018
1/26/2021 7:40:54 AM 0.7675 33.3815 321.4 7.9548 8.32 0.7675018
1/26/2021 7:55:54 AM 0.7675 33.3815 321.4 7.9534 8.162498 0.7675018
1/26/2021 8:10:54 AM 0.785 33.413 321.1 7.9541 8.107498 0.7850037
1/26/2021 8:25:54 AM 0.785 33.413 320.7 7.9548 8.160004 0.7850037
1/26/2021 8:40:53 AM 0.785 33.413 320.7 7.9534 8.18 0.7850037
1/26/2021 8:55:54 AM 0.785 33.413 320.3501 7.9485 8.25 0.7850037
1/26/2021 9:10:54 AM 0.785 33.413 320.3501 7.9485 8.230003 0.7850037
1/26/2021 9:25:54 AM 0.7675 33.3815 320.3501 7.9492 8.370003 0.7675018
1/26/2021 9:40:53 AM 0.7675 33.3815 320.3501 7.9499 8.18 0.7675018
1/26/2021 9:55:53 AM 0.7675 33.3815 320.3501 7.9499 8.177498 0.7675018
1/26/2021 10:10:53 AM 0.75 33.35 320.3501 7.9478 8.18 0.75
1/26/2021 10:25:54 AM 0.7675 33.3815 320.3501 7.9436 8.089996 0.7675018
1/26/2021 10:40:54 AM 0.75 33.35 320.4 7.9499 8.055 0.75
1/26/2021 10:55:53 AM 0.7525 33.3545 320.7 7.9485 8.247498 0.7525024
1/26/2021 11:10:54 AM 0.75 33.35 320.7 7.9499 8.212502 0.75
1/26/2021 11:25:54 AM 0.75 33.35 320.7 7.9478 8.195 0.75
1/26/2021 11:40:54 AM 0.7525 33.3545 321.0499 7.9485 8.165001 0.7525024
1/26/2021 11:55:53 AM 0.75 33.35 321.0499 7.9492 8.264999 0.75
1/26/2021 12:10:54 PM 0.75 33.35 321.0499 7.9499 8.040001 0.75
1/26/2021 12:25:54 PM 0.7525 33.3545 321.0499 7.952 8.040001 0.7525024
1/26/2021 12:40:54 PM 0.7325 33.3185 321.45 7.9499 8.144997 0.7324982
1/26/2021 12:55:54 PM 0.7525 33.3545 321.45 7.9527 8.125 0.7525024
1/26/2021 1:10:54 PM 0.75 33.35 321.4 7.9541 8.162498 0.75
1/26/2021 1:25:54 PM 0.7525 33.3545 321.4 7.9541 8.074997 0.7525024
1/26/2021 1:40:54 PM 0.7325 33.3185 321.45 7.9534 8.004997 0.7324982
1/26/2021 1:55:54 PM 0.7325 33.3185 321.4 7.9569 8.059998 0.7324982
1/26/2021 2:10:54 PM 0.75 33.35 321.4 7.9583 8.114998 0.75
1/26/2021 2:25:53 PM 0.75 33.35 321.45 7.9597 8.092499 0.75
1/26/2021 2:40:54 PM 0.75 33.35 321.7501 7.9583 8.040001 0.75
1/26/2021 2:55:54 PM 0.75 33.35 322.1 7.9639 7.952499 0.75
1/26/2021 3:10:53 PM 0.75 33.35 322.45 7.9681 7.932503 0.75
1/26/2021 3:25:53 PM 0.75 33.35 322.7501 7.9695 8.072502 0.75
1/26/2021 3:40:54 PM 0.7525 33.3545 323.15 7.9681 7.970001 0.7525024
1/26/2021 3:55:54 PM 0.75 33.35 323.85 7.973 7.815002 0.75
1/26/2021 4:10:54 PM 0.7525 33.3545 324.15 7.9723 7.782501 0.7525024
1/26/2021 4:25:54 PM 0.75 33.35 324.9 7.9779 7.797501 0.75
1/26/2021 4:40:54 PM 0.75 33.35 325.2 7.9835 7.794998 0.75
1/26/2021 4:55:54 PM 0.75 33.35 325.9 7.9828 7.690002 0.75
1/26/2021 5:10:53 PM 0.765 33.377 326.6 7.9884 7.695 0.7649994
1/26/2021 5:25:54 PM 0.765 33.377 326.9501 7.9877 7.660004 0.7649994
1/26/2021 5:40:54 PM 0.77 33.386 327.6499 7.987 7.657501 0.7699966
1/26/2021 5:55:54 PM 0.7675 33.3815 328.3501 7.993299 7.467499 0.7675018
1/26/2021 6:10:54 PM 0.7675 33.3815 329 7.991899 7.7425 0.7675018
1/26/2021 6:25:54 PM 0.7675 33.3815 329.3501 7.996099 7.605003 0.7675018
1/26/2021 6:40:53 PM 0.7675 33.3815 330.1 7.997499 7.589996 0.7675018
1/26/2021 6:55:54 PM 0.7675 33.3815 330.4 7.996799 7.449997 0.7675018
1/26/2021 7:10:54 PM 0.765 33.377 331.1 7.998899 7.417503 0.7649994
1/26/2021 7:25:54 PM 0.7675 33.3815 331.45 8.002399 7.482498 0.7675018
1/26/2021 7:40:54 PM 0.7675 33.3815 331.45 8.001699 7.397499 0.7675018
1/26/2021 7:55:54 PM 0.785 33.413 331.8 8.001699 7.394997 0.7850037
1/26/2021 8:10:54 PM 0.785 33.413 332.15 8.003099 7.345001 0.7850037
1/26/2021 8:25:54 PM 0.785 33.413 332.15 8.002399 7.397499 0.7850037
1/26/2021 8:40:54 PM 0.7825 33.4085 332.45 8.003099 7.412498 0.7825012
1/26/2021 8:55:54 PM 0.785 33.413 332.85 8.003099 7.279999 0.7850037
1/26/2021 9:10:54 PM 0.7825 33.4085 333.15 8.007299 7.330002 0.7825012
1/26/2021 9:25:54 PM 0.7825 33.4085 333.15 8.001699 7.342499 0.7825012
1/26/2021 9:40:54 PM 0.785 33.413 333.15 8.000999 7.4375 0.7850037
1/26/2021 9:55:54 PM 0.785 33.413 333.15 8.003099 7.397499 0.7850037
1/26/2021 10:10:54 PM 0.785 33.413 333.15 8.003099 7.415001 0.7850037
1/26/2021 10:25:54 PM 0.785 33.413 333.2 8.001699 7.449997 0.7850037
1/26/2021 10:40:54 PM 0.785 33.413 333.2 7.996799 7.309998 0.7850037
1/26/2021 10:55:53 PM 0.8025 33.4445 333.2 7.996099 7.379997 0.8024979
1/26/2021 11:10:54 PM 0.7825 33.4085 333.55 8.001699 7.397499 0.7825012
1/26/2021 11:25:54 PM 0.8025 33.4445 333.15 7.997499 7.364998 0.8024979
1/26/2021 11:40:54 PM 0.805 33.449 333.15 7.996099 7.362503 0.8050003
1/27/2021 12:10:54 AM 0.8025 33.4445 332.8 7.992599 7.2575 0.8024979
1/27/2021 12:25:54 AM 0.8025 33.4445 332.85 7.993999 7.327499 0.8024979
1/27/2021 12:40:54 AM 0.8 33.44 332.8 7.992599 7.292503 0.8000031
1/27/2021 12:55:54 AM 0.8025 33.4445 332.5 7.993299 7.467499 0.8024979
1/27/2021 1:10:54 AM 0.8375 33.5075 331.8 7.9884 7.397499 0.8375015
1/27/2021 1:25:54 AM 0.835 33.503 331.4 7.9884 7.427498 0.8349991
1/27/2021 1:40:54 AM 0.855 33.539 331.1 7.9821 7.277496 0.8550034
1/27/2021 1:55:54 AM 0.87 33.566 330.7501 7.9877 7.485001 0.8700027
1/27/2021 2:10:54 AM 0.8725 33.5705 330.0499 7.9765 9.080002 0.8724976
1/27/2021 2:25:54 AM 0.87 33.566 329.7 7.9779 9.665001 0.8700027
1/27/2021 2:40:54 AM 0.89 33.602 329 7.9779 9.342499 0.8899994
1/27/2021 2:55:54 AM 0.905 33.629 328.6499 7.9793 8.650002 0.9049988
1/27/2021 3:10:53 AM 0.8925 33.6065 328.6499 7.973 8.232498 0.8925018
1/27/2021 3:25:54 AM 0.89 33.602 328.6499 7.9688 7.764999 0.8899994
1/27/2021 3:40:54 AM 0.89 33.602 328.6499 7.9751 7.695 0.8899994
1/27/2021 3:55:53 AM 0.8925 33.6065 328.6499 7.9695 7.574997 0.8925018
1/27/2021 4:10:54 AM 0.91 33.638 328.3 7.9625 7.504997 0.9100037
1/27/2021 4:25:54 AM 0.89 33.602 328.3 7.9653 7.692497 0.8899994
1/27/2021 4:40:54 AM 0.8925 33.6065 328 7.9639 7.697502 0.8925018
1/27/2021 4:55:54 AM 0.89 33.602 328 7.9583 7.555 0.8899994
1/27/2021 5:10:54 AM 0.89 33.602 327.6 7.9597 7.589996 0.8899994
1/27/2021 5:25:54 AM 0.8725 33.5705 328 7.959 7.625 0.8724976
1/27/2021 5:40:54 AM 0.8925 33.6065 327.6499 7.9611 7.589996 0.8925018
1/27/2021 5:55:54 AM 0.8725 33.5705 327.9501 7.9555 7.610001 0.8724976
1/27/2021 6:10:54 AM 0.8725 33.5705 327.9501 7.9604 7.660004 0.8724976
1/27/2021 6:25:54 AM 0.875 33.575 327.9501 7.9541 7.695 0.875
1/27/2021 6:40:54 AM 0.8925 33.6065 328.3 7.9541 7.644997 0.8925018
1/27/2021 6:55:54 AM 0.875 33.575 328.6499 7.9541 7.644997 0.875
1/27/2021 7:10:54 AM 0.875 33.575 329 7.9548 7.665001 0.875
1/27/2021 7:25:54 AM 0.875 33.575 329.7 7.9548 7.610001 0.875
1/27/2021 7:40:54 AM 0.8575 33.5435 330.0499 7.9534 7.647499 0.8574982
1/27/2021 7:55:54 AM 0.87 33.566 330.4 7.9464 7.565002 0.8700027
1/27/2021 8:10:54 AM 0.8525 33.5345 330.7501 7.9534 7.660004 0.8525009
1/27/2021 8:25:54 AM 0.855 33.539 331.45 7.9534 7.692497 0.8550034
1/27/2021 8:40:54 AM 0.8525 33.5345 331.7501 7.9541 7.657501 0.8525009
1/27/2021 8:55:54 AM 0.8375 33.5075 332.45 7.9478 7.657501 0.8375015
1/27/2021 9:10:54 AM 0.855 33.539 332.85 7.952 7.639999 0.8550034
1/27/2021 9:25:54 AM 0.855 33.539 333.85 7.952 7.745003 0.8550034
1/27/2021 9:40:54 AM 0.8375 33.5075 334.6 7.9478 7.764999 0.8375015
1/27/2021 9:55:54 AM 0.8375 33.5075 335.2 7.9422 7.602501 0.8375015
1/27/2021 10:10:54 AM 0.8375 33.5075 335.9501 7.9471 7.675003 0.8375015
1/27/2021 10:25:54 AM 0.835 33.503 337 7.9492 7.762497 0.8349991
1/27/2021 10:40:54 AM 0.8375 33.5075 337.6499 7.9492 7.709999 0.8375015
1/27/2021 10:55:54 AM 0.8525 33.5345 338.3501 7.9548 7.902496 0.8525009
1/27/2021 11:10:54 AM 0.855 33.539 338.7 7.952 7.745003 0.8550034
1/27/2021 11:25:54 AM 0.8525 33.5345 339.3501 7.9527 7.794998 0.8525009
1/27/2021 11:40:54 AM 0.84 33.512 339.7501 7.9527 7.677498 0.8399963
1/27/2021 11:55:54 AM 0.8725 33.5705 340.1 7.9569 7.849998 0.8724976
1/27/2021 12:10:54 PM 0.8725 33.5705 340.1 7.9597 7.675003 0.8724976
1/27/2021 12:25:54 PM 0.8725 33.5705 340.4 7.959 7.745003 0.8724976
1/27/2021 12:40:54 PM 0.8725 33.5705 340.8 7.959 7.709999 0.8724976
1/27/2021 12:55:54 PM 0.8725 33.5705 340.8 7.9639 7.797501 0.8724976
1/27/2021 1:10:54 PM 0.8725 33.5705 340.8 7.9695 7.762497 0.8724976
1/27/2021 1:25:54 PM 0.87 33.566 340.7501 7.9681 7.782501 0.8700027
1/27/2021 1:40:54 PM 0.8725 33.5705 340.8 7.9688 7.779999 0.8724976
1/27/2021 1:55:54 PM 0.8725 33.5705 340.8 7.9737 7.779999 0.8724976
1/27/2021 2:10:54 PM 0.855 33.539 340.8 7.9723 7.832497 0.8550034
1/27/2021 2:25:54 PM 0.87 33.566 340.4 7.9723 7.762497 0.8700027
1/27/2021 2:40:54 PM 0.8725 33.5705 340.4 7.9779 7.800003 0.8724976
1/27/2021 2:55:54 PM 0.8725 33.5705 340.45 7.9765 7.8125 0.8724976
1/27/2021 3:10:54 PM 0.89 33.602 340.1 7.9814 7.672501 0.8899994
1/27/2021 3:25:54 PM 0.8875 33.5975 339.7 7.9877 7.727501 0.8874969
1/27/2021 3:40:54 PM 0.89 33.602 339.7 7.987 7.779999 0.8899994
1/27/2021 3:55:54 PM 0.89 33.602 339.7 7.9877 7.797501 0.8899994
1/27/2021 4:10:54 PM 0.89 33.602 339.4 7.9884 7.745003 0.8899994
1/27/2021 4:25:54 PM 0.87 33.566 339.7 7.993999 7.777496 0.8700027
1/27/2021 4:40:54 PM 0.8725 33.5705 339.4 7.987 7.745003 0.8724976
1/27/2021 4:55:54 PM 0.87 33.566 339.4 7.993299 7.779999 0.8700027
1/27/2021 5:10:54 PM 0.8725 33.5705 339.0499 7.991199 7.7425 0.8724976
1/27/2021 5:25:54 PM 0.89 33.602 339.0499 7.996799 7.675003 0.8899994
1/27/2021 5:40:54 PM 0.89 33.602 338.7 7.995399 7.705002 0.8899994
1/27/2021 5:55:54 PM 0.8875 33.5975 338.6499 7.997499 7.637497 0.8874969
1/27/2021 6:10:54 PM 0.89 33.602 338.3 8.001699 9.082497 0.8899994
1/27/2021 6:25:54 PM 0.9225 33.6605 337.6 8.002399 11.98 0.9225006
1/27/2021 6:40:54 PM 0.94 33.692 337.3 8.005899 11.285 0.9400024
1/27/2021 6:55:54 PM 0.94 33.692 337.3 8.005199 10.87 0.9400024
1/27/2021 7:10:54 PM 0.9575 33.7235 336.9501 8.006599 10.785 0.9574966
1/27/2021 7:25:54 PM 0.975 33.755 336.6 8.006599 10.2425 0.9749985
1/27/2021 7:40:54 PM 0.9775 33.7595 336.6 8.012899 9.864998 0.9775009
1/27/2021 7:55:54 PM 0.96 33.728 336.6 8.010799 9.152496 0.9599991
1/27/2021 8:10:54 PM 0.9425 33.6965 337.3 8.012199 8.355003 0.9424973
1/27/2021 8:25:54 PM 0.9275 33.6695 337.3 8.007999 7.977501 0.9274979
1/27/2021 8:40:54 PM 0.9075 33.6335 337.3 8.009399 7.887497 0.9075012
1/27/2021 8:55:54 PM 0.9075 33.6335 337.3501 8.008699 7.837502 0.9075012
1/27/2021 9:10:54 PM 0.9075 33.6335 337.3 8.007999 7.852501 0.9075012
1/27/2021 9:25:54 PM 0.89 33.602 337.3501 8.007299 7.8675 0.8899994
1/27/2021 9:40:54 PM 0.8875 33.5975 337.3 8.007999 7.934998 0.8874969
1/27/2021 9:55:54 PM 0.8875 33.5975 337.3 8.000999 7.849998 0.8874969
1/27/2021 10:10:54 PM 0.8725 33.5705 337.3501 8.000999 7.849998 0.8724976
1/27/2021 10:25:54 PM 0.8725 33.5705 337.3501 8.001699 7.660004 0.8724976
1/27/2021 10:40:54 PM 0.855 33.539 337.3501 8.000999 7.779999 0.8550034
1/27/2021 10:55:54 PM 0.8525 33.5345 337.6499 8.002399 7.8125 0.8550034
1/27/2021 11:10:54 PM 0.8375 33.5075 337.6499 8.000999 7.764999 0.8375015
1/27/2021 11:25:54 PM 0.8375 33.5075 337.6499 7.997499 7.800003 0.8375015
1/27/2021 11:40:54 PM 0.82 33.476 337.7 7.996799 7.800003 0.8199997
1/28/2021 12:10:54 AM 0.8025 33.4445 337.7 7.998199 7.782501 0.8024979
1/28/2021 12:25:54 AM 0.8 33.44 337.6499 7.993299 7.849998 0.8000031
1/28/2021 12:40:54 AM 0.8025 33.4445 337.6499 7.993299 7.849998 0.8024979
1/28/2021 12:55:54 AM 0.785 33.413 337.7 7.993299 7.800003 0.7850037
1/28/2021 1:10:54 AM 0.785 33.413 338 7.991899 7.762497 0.7850037
1/28/2021 1:25:54 AM 0.7675 33.3815 338 7.9877 7.712502 0.7675018
1/28/2021 1:40:54 AM 0.7525 33.3545 338.0499 7.9877 7.834999 0.7525024
1/28/2021 1:55:54 AM 0.75 33.35 338 7.9842 7.885002 0.75
1/28/2021 2:10:54 AM 0.75 33.35 338.0499 7.9828 8.042503 0.75
1/28/2021 2:25:54 AM 0.765 33.377 337.7 7.9842 8.142502 0.7649994
1/28/2021 2:40:54 AM 0.7675 33.3815 337.6499 7.9779 8.162498 0.7675018
1/28/2021 2:55:54 AM 0.765 33.377 337.6499 7.9765 8.162498 0.7649994
1/28/2021 3:10:54 AM 0.7675 33.3815 337.6499 7.9772 8.110001 0.7675018
1/28/2021 3:25:55 AM 0.75 33.35 337.6499 7.9779 8.160004 0.75
1/28/2021 3:40:54 AM 0.75 33.35 338 7.9786 8.042503 0.75
1/28/2021 3:55:54 AM 0.75 33.35 338 7.9744 8.025002 0.75
1/28/2021 4:10:55 AM 0.75 33.35 338 7.9716 8.125 0.75
1/28/2021 4:25:54 AM 0.75 33.35 338.3501 7.9695 8.092499 0.75
1/28/2021 4:40:55 AM 0.7475 33.3455 338 7.9688 8.087502 0.7474976
1/28/2021 4:55:55 AM 0.75 33.35 338 7.9674 8.144997 0.75
1/28/2021 5:10:54 AM 0.7475 33.3455 338 7.9639 8.019997 0.7474976
1/28/2021 5:25:54 AM 0.75 33.35 338 7.9681 7.885002 0.75
1/28/2021 5:40:54 AM 0.785 33.413 338 7.9625 8.004997 0.7850037
1/28/2021 5:55:54 AM 0.8025 33.4445 338.0499 7.9583 7.989998 0.8024979
1/28/2021 6:10:54 AM 0.8025 33.4445 338 7.9569 7.917503 0.8024979
1/28/2021 6:25:54 AM 0.7675 33.3815 338.7 7.9569 7.8675 0.7675018
1/28/2021 6:40:54 AM 0.75 33.35 339.0499 7.9569 7.745003 0.75
1/28/2021 6:55:54 AM 0.75 33.35 339.4 7.9548 7.675003 0.75
1/28/2021 7:10:54 AM 0.7325 33.3185 339.4 7.9527 7.779999 0.7324982
1/28/2021 7:25:54 AM 0.715 33.287 340.1 7.9534 7.607498 0.7149963
1/28/2021 7:40:54 AM 0.7325 33.3185 339.7501 7.9534 7.639999 0.7324982
1/28/2021 7:55:54 AM 0.735 33.323 340.1 7.9485 7.695 0.7350006
1/28/2021 8:10:54 AM 0.735 33.323 340.1 7.9485 7.660004 0.7324982
1/28/2021 8:25:54 AM 0.7325 33.3185 340.1 7.9499 7.660004 0.7324982
1/28/2021 8:40:54 AM 0.7175 33.2915 340.45 7.9485 7.779999 0.7174988
1/28/2021 8:55:54 AM 0.7175 33.2915 340.1 7.9485 7.764999 0.7174988
1/28/2021 9:10:54 AM 0.715 33.287 340.45 7.9436 7.732498 0.7149963
1/28/2021 9:25:54 AM 0.7325 33.3185 340.1 7.9471 7.709999 0.7324982
1/28/2021 9:40:54 AM 0.75 33.35 339.7501 7.9506 7.745003 0.75
1/28/2021 9:55:54 AM 0.7525 33.3545 339.4 7.9485 7.712502 0.7525024
1/28/2021 10:10:54 AM 0.785 33.413 339.0499 7.9485 7.870003 0.7850037
1/28/2021 10:25:55 AM 0.8375 33.5075 338.7 7.9478 7.832497 0.8375015
1/28/2021 10:40:54 AM 0.855 33.539 338.4 7.9492 7.779999 0.8550034
1/28/2021 10:55:54 AM 0.835 33.503 338.7 7.9485 7.8675 0.8349991
1/28/2021 11:10:54 AM 0.8375 33.5075 338.7 7.9478 7.692497 0.8375015
1/28/2021 11:25:55 AM 0.87 33.566 338.3501 7.9485 7.849998 0.8700027
1/28/2021 11:40:54 AM 0.8875 33.5975 338.3501 7.9534 7.762497 0.8874969
1/28/2021 11:55:54 AM 0.905 33.629 338.3501 7.9485 7.877502 0.9049988
1/28/2021 12:10:55 PM 0.905 33.629 338.3501 7.9541 7.794998 0.9049988
1/28/2021 12:25:55 PM 0.9075 33.6335 338.3501 7.9534 7.900002 0.9075012
1/28/2021 12:40:55 PM 0.9575 33.7235 338 7.9478 7.919998 0.9574966
1/28/2021 12:55:55 PM 0.9925 33.7865 339.7501 7.973 7.707497 0.9925003
1/28/2021 1:10:55 PM 1.045 33.881 336.9501 7.9247 9.392502 1.044998
1/28/2021 1:25:55 PM 1.045 33.881 336.9501 7.9345 10.3325 1.044998
1/28/2021 1:40:55 PM 1.0125 33.8225 337.6499 7.938 9.324997 1.012497
1/28/2021 1:55:54 PM 0.9925 33.7865 337.6499 7.9541 8.5075 0.9925003
1/28/2021 2:10:55 PM 0.9775 33.7595 337.6499 7.9527 8.197502 0.9775009
1/28/2021 2:25:54 PM 0.525 32.945 343.6 7.959 8.077499 0.5250015
1/28/2021 2:40:54 PM 0.6975 33.2555 341.2 7.9653 7.852501 0.6975021
1/28/2021 2:55:54 PM 0.8575 33.5435 339.1 7.9632 7.922501 0.8574982
1/28/2021 3:10:55 PM 0.875 33.575 338.7501 7.9632 7.767502 0.875
1/28/2021 3:25:54 PM 0.3375 32.6075 346.1 7.9709 7.925003 0.3375015
1/28/2021 3:40:55 PM 0.6125 33.1025 342.2499 7.973 7.802498 0.6125031
1/28/2021 3:55:54 PM 0.7875 33.4175 339.85 7.9751 7.697502 0.7874985
1/28/2021 4:10:55 PM 0.875 33.575 338.4 7.9828 7.629997 0.875
1/28/2021 4:25:54 PM 0.4775 32.8595 343.3 7.9835 7.769997 0.4775009
1/28/2021 4:40:54 PM 0.39 32.702 344.0499 7.9842 7.6875 0.3899994
1/28/2021 4:55:54 PM 0.65 33.17 340.2 7.9891 7.597504 0.6500015
1/28/2021 5:10:54 PM 0.7375 33.3275 338.8 7.992599 7.629997 0.7375031
1/28/2021 5:25:55 PM 0.805 33.449 337.7501 7.992599 7.574997 0.8050003
1/28/2021 5:40:54 PM 0.1975 32.3555 345.4 7.994699 7.5625 0.1975021
1/28/2021 5:55:54 PM 0.4075 32.7335 342.2499 8.000299 7.580002 0.4075012
1/28/2021 6:10:54 PM 0.6 33.08 339.5 8.003799 7.529999 0.5999985
1/28/2021 6:25:54 PM 0.685 33.233 338.1 7.998899 7.580002 0.6849976
1/28/2021 6:40:54 PM 0.735 33.323 337.3501 8.010099 7.474998 0.7350006
1/28/2021 6:55:54 PM 0.735 33.323 337.0499 8.007299 7.577499 0.7350006
1/28/2021 7:10:54 PM 0.06 32.108 346.45 8.004499 7.684998 0.05999756
1/28/2021 7:25:54 PM 0.32 32.576 343 8.005199 7.582497 0.3199997
1/28/2021 7:40:54 PM 0.5275 32.9495 340.55 8.008699 7.525002 0.5274963
1/28/2021 7:55:54 PM 0.615 33.107 339.55 8.013599 7.440002 0.6149979
1/28/2021 8:10:54 PM 0.7025 33.2645 338.8 8.008699 7.4925 0.7024994
1/28/2021 8:25:55 PM 0.7175 33.2915 338.45 8.012899 7.5075 0.7174988
1/28/2021 8:40:54 PM 0.735 33.323 338.4 8.012899 7.4925 0.7350006
1/28/2021 8:55:54 PM 0.7375 33.3275 338.4 8.011499 7.542503 0.7375031
1/28/2021 9:10:54 PM 0.75 33.35 338.4 8.013599 7.525002 0.75
1/28/2021 9:25:55 PM 0.25 32.45 345.0499 8.014299 7.489998 0.25
1/28/2021 9:40:54 PM 0.2525 32.4545 345.4 8.018499 7.510002 0.2525024
1/28/2021 9:55:55 PM 0.4775 32.8595 342.2499 8.014299 7.497498 0.4775009
1/28/2021 10:10:54 PM 0.58 33.044 341.2 8.013599 7.544998 0.5800018
1/28/2021 10:25:55 PM 0.65 33.17 340.5 8.012199 7.597504 0.6500015
1/28/2021 10:40:55 PM 0.665 33.197 340.2 8.003799 7.510002 0.6650009
1/28/2021 10:55:54 PM 0.27 32.486 345.4 8.013599 7.5625 0.2699966
1/28/2021 11:10:54 PM 0.0975 32.1755 348.2 8.007999 7.669998 0.09750366
1/28/2021 11:25:55 PM 0.3725 32.6705 344.3 8.008699 7.614998 0.3724976
1/28/2021 11:40:54 PM 0.51 32.918 342.55 8.010099 7.614998 0.5124969
1/29/2021 12:10:54 AM 0.2875 32.5175 344.7 8.003799 8.345001 0.2874985
1/29/2021 12:25:54 AM 0.0275 32.0495 348.55 8.003799 8.517502 0.02749634
1/29/2021 12:40:54 AM 0.355 32.639 344 8.000999 8.292503 0.3550034
1/29/2021 12:55:54 AM 0.27 32.486 344.7 7.999599 8.292503 0.2699966
1/29/2021 1:10:54 AM -0.025 31.955 348.9 8.000299 8.190002 -0.02500153
1/29/2021 1:25:54 AM 0.32 32.576 344.0499 7.993299 8.154999 0.3225021
1/29/2021 1:40:54 AM 0.51 32.918 341.6 7.994699 8.120003 0.5100021
1/29/2021 1:55:54 AM 0.1325 32.2385 346.8 7.989799 8.050003 0.1324997
1/29/2021 2:10:55 AM -0.1125 31.7975 350.3 7.992599 8.052498 -0.1125031
1/29/2021 2:25:54 AM 0.2525 32.4545 345.45 7.991199 8.072502 0.2525024
1/29/2021 2:40:54 AM 0.4425 32.7965 342.9501 7.9856 7.997498 0.4424973
1/29/2021 2:55:54 AM 0.475 32.855 342.2499 7.9863 8.032501 0.4749985
1/29/2021 3:10:55 AM 0.1125 32.2025 347.15 7.9856 8.017502 0.1125031
1/29/2021 3:25:54 AM 0.3725 32.6705 343.7 7.9793 8.120003 0.3724976
1/29/2021 3:40:54 AM 0.5125 32.9225 341.9501 7.9793 7.982498 0.5124969
1/29/2021 3:55:54 AM 0.58 33.044 341.2 7.9758 8.029999 0.5800018
1/29/2021 4:10:54 AM 0.1275 32.2295 347.1 7.9744 7.997498 0.1275024
1/29/2021 4:25:55 AM 0.1675 32.3015 347.15 7.9758 8.067497 0.1675034
1/29/2021 4:40:54 AM 0.3725 32.6705 344.3501 7.9709 8.309998 0.3724976
1/29/2021 4:55:54 AM 0.4775 32.8595 343.3 7.9702 8.220001 0.4775009
1/29/2021 5:10:54 AM -0.0425 31.9235 350.6 7.9716 8.172501 -0.04250336
1/29/2021 5:25:55 AM 0.0625 32.1125 349.2499 7.973 8.209999 0.0625
1/29/2021 5:40:54 AM 0.3075 32.5535 346.1 7.966 8.120003 0.3075027
1/29/2021 5:55:55 AM 0.4425 32.7965 344 7.966 8.254997 0.4424973
1/29/2021 6:10:54 AM 0.3375 32.6075 345.4 7.9667 7.892502 0.3375015
1/29/2021 6:25:55 AM -0.0925 31.8335 351.7 7.9625 7.879997 -0.09249878
1/29/2021 6:40:55 AM 0.1175 32.2115 349.2499 7.9611 7.7425 0.1175003
1/29/2021 6:55:54 AM 0.27 32.486 347.55 7.9611 7.6875 0.2699966
1/29/2021 7:10:55 AM 0.3575 32.6435 346.45 7.9632 7.654999 0.3574982
1/29/2021 7:25:55 AM 0.405 32.729 346.0499 7.9569 7.720001 0.4049988
1/29/2021 7:40:55 AM 0.445 32.801 345.7501 7.9548 7.754997 0.4449997
1/29/2021 7:55:55 AM 0.46 32.828 345.7 7.9527 7.667503 0.4599991
1/29/2021 8:10:55 AM 0.46 32.828 345.7501 7.9569 7.790001 0.4599991
1/29/2021 8:25:54 AM 0.495 32.891 345.4 7.9499 7.752502 0.4950027
1/29/2021 8:40:55 AM 0.5125 32.9225 345.3501 7.9506 7.787498 0.5124969
1/29/2021 8:55:55 AM 0.51 32.918 345.7501 7.9499 7.697502 0.5100021
1/29/2021 9:10:55 AM 0.51 32.918 345.7501 7.9457 7.772499 0.5100021
1/29/2021 9:25:54 AM 0.545 32.981 345.4 7.9457 7.647499 0.5449982
1/29/2021 9:40:54 AM 0.5475 32.9855 345.7501 7.9478 7.787498 0.5475006
1/29/2021 9:55:54 AM 0.58 33.044 345.4 7.945 7.717499 0.5800018
1/29/2021 10:10:54 AM 0.58 33.044 345.4 7.9471 7.772499 0.5800018
1/29/2021 10:25:55 AM 0.615 33.107 345 7.9457 7.754997 0.6149979
1/29/2021 10:40:54 AM 0.6125 33.1025 345 7.9464 7.852501 0.6125031
1/29/2021 10:55:54 AM 0.615 33.107 345.3501 7.9457 8.014999 0.6149979
1/29/2021 11:10:54 AM 0.615 33.107 345.7 7.9457 7.907501 0.6149979
1/29/2021 11:25:54 AM 0.615 33.107 345.7 7.9464 7.75 0.6149979
1/29/2021 11:40:54 AM 0.6325 33.1385 345.7 7.9457 7.822502 0.6324997
1/29/2021 11:55:54 AM 0.6325 33.1385 345.3501 7.9394 7.665001 0.6324997
1/29/2021 12:10:54 PM 0.63 33.134 345.3501 7.9415 7.650002 0.6299973
1/29/2021 12:25:54 PM 0.615 33.107 345.7 7.9408 7.752502 0.6149979
1/29/2021 12:40:54 PM 0.615 33.107 345.7501 7.9415 7.720001 0.6149979
1/29/2021 12:55:54 PM 0.615 33.107 345.7 7.9457 7.735001 0.6149979
1/29/2021 1:10:54 PM 0.6325 33.1385 345.3501 7.9464 7.629997 0.6324997
1/29/2021 1:25:55 PM 0.65 33.17 345 7.945 7.735001 0.6500015
1/29/2021 1:40:54 PM 0.685 33.233 344.6499 7.945 7.752502 0.6849976
1/29/2021 1:55:55 PM 0.685 33.233 344.7 7.9457 7.787498 0.6849976
1/29/2021 2:10:54 PM 0.7 33.26 344.3 7.9415 7.557503 0.6999969
1/29/2021 2:25:55 PM 0.7025 33.2645 344.3 7.9408 7.735001 0.7024994
1/29/2021 2:40:54 PM 0.7025 33.2645 344.3501 7.945 7.667503 0.7024994
1/29/2021 2:55:55 PM 0.7175 33.2915 343.9501 7.9443 7.802498 0.7174988
1/29/2021 3:10:54 PM 0.7175 33.2915 344 7.9408 7.805 0.7174988
1/29/2021 3:25:55 PM 0.7025 33.2645 344.3 7.9394 7.752502 0.7024994
1/29/2021 3:40:54 PM 0.72 33.296 344.3 7.9436 7.752502 0.7200012
1/29/2021 3:55:55 PM 0.7025 33.2645 344.3 7.945 7.772499 0.7024994
1/29/2021 4:10:55 PM 0.665 33.197 344.6499 7.9457 7.714996 0.6650009
1/29/2021 4:25:55 PM 0.665 33.197 344.7 7.9471 7.772499 0.6650009
1/29/2021 4:40:55 PM 0.63 33.134 345 7.9499 7.699997 0.6299973
1/29/2021 4:55:55 PM 0.6125 33.1025 345 7.9513 7.769997 0.6125031
1/29/2021 5:10:54 PM 0.615 33.107 345.4 7.9492 7.785004 0.6149979
1/29/2021 5:25:55 PM 0.5975 33.0755 345.3501 7.9548 7.732498 0.5975037
1/29/2021 5:40:54 PM 0.5775 33.0395 345.7 7.9506 7.697502 0.5774994
1/29/2021 5:55:54 PM 0.58 33.044 345.7 7.9555 7.754997 0.5800018
1/29/2021 6:10:54 PM 0.58 33.044 346.0499 7.9548 7.822502 0.5800018
1/29/2021 6:25:54 PM 0.58 33.044 346.0499 7.9555 7.735001 0.5800018
1/29/2021 6:40:54 PM 0.58 33.044 346.0499 7.9618 7.720001 0.5800018
1/29/2021 6:55:54 PM 0.5775 33.0395 346.4 7.966 7.650002 0.5800018
1/29/2021 7:10:54 PM 0.58 33.044 346.7501 7.9632 7.735001 0.5800018
1/29/2021 7:25:54 PM 0.58 33.044 346.7501 7.9702 7.735001 0.5800018
1/29/2021 7:40:54 PM 0.58 33.044 347.1 7.9688 7.805 0.5800018
1/29/2021 7:55:54 PM 0.6 33.08 347.15 7.973 7.75 0.5999985
1/29/2021 8:10:54 PM 0.58 33.044 347.45 7.9737 7.702499 0.5800018
1/29/2021 8:25:54 PM 0.595 33.071 347.7501 7.9758 7.644997 0.5950012
1/29/2021 8:40:54 PM 0.595 33.071 347.7501 7.9842 7.769997 0.5950012
1/29/2021 8:55:54 PM 0.615 33.107 348.15 7.9842 7.665001 0.6149979
1/29/2021 9:10:54 PM 0.615 33.107 348.5 7.9828 7.595001 0.6149979
1/29/2021 9:25:54 PM 0.5975 33.0755 349.15 7.990499 7.717499 0.5975037
1/29/2021 9:40:54 PM 0.58 33.044 349.9 7.9884 7.682503 0.5800018
1/29/2021 9:55:54 PM 0.5825 33.0485 350.55 7.9877 7.527496 0.5824966
1/29/2021 10:10:54 PM 0.5775 33.0395 350.85 7.989799 7.595001 0.5774994
1/29/2021 10:25:54 PM 0.5625 33.0125 351.6 7.990499 7.580002 0.5625
1/29/2021 10:40:54 PM 0.565 33.017 351.9501 7.9877 7.5075 0.5650024
1/29/2021 10:55:54 PM 0.58 33.044 352.2499 7.9884 7.527496 0.5800018
1/29/2021 11:10:54 PM 0.58 33.044 352.6499 7.995399 7.542503 0.5800018
1/29/2021 11:25:54 PM 0.58 33.044 353.3 7.993299 7.455002 0.5800018
1/29/2021 11:40:54 PM 0.615 33.107 353.3 7.9884 7.535004 0.6149979
1/30/2021 12:10:54 AM 0.58 33.044 354.7 7.9877 7.489998 0.5800018
1/30/2021 12:25:55 AM 0.5625 33.0125 355.0499 7.9884 7.457497 0.5625
1/30/2021 12:55:55 AM 0.545 32.981 355.7 7.9891 7.527496 0.5449982
1/30/2021 1:10:55 AM 0.545 32.981 355.7501 7.9891 7.4375 0.5449982
1/30/2021 1:25:55 AM 0.545 32.981 356.45 7.9828 7.580002 0.5449982
1/30/2021 1:40:55 AM 0.545 32.981 356.1 7.9884 7.457497 0.5449982
1/30/2021 1:55:55 AM 0.545 32.981 356.4 7.9849 7.510002 0.5449982
1/30/2021 2:10:55 AM 0.545 32.981 356.7501 7.9842 7.504997 0.5449982
1/30/2021 2:25:55 AM 0.545 32.981 356.8 7.9849 7.440002 0.5449982
1/30/2021 2:40:55 AM 0.5475 32.9855 357.15 7.9835 7.4925 0.5475006
1/30/2021 2:55:55 AM 0.545 32.981 357.5 7.9856 7.370003 0.5449982
1/30/2021 3:10:55 AM 0.5275 32.9495 357.8 7.9842 7.404999 0.5274963
1/30/2021 3:25:54 AM 0.545 32.981 357.85 7.9842 7.580002 0.5449982
1/30/2021 3:40:55 AM 0.545 32.981 357.8 7.98 7.512497 0.5449982
1/30/2021 3:55:55 AM 0.545 32.981 358.15 7.9786 7.422501 0.5449982
1/30/2021 4:10:54 AM 0.545 32.981 358.2 7.9786 7.425003 0.5449982
1/30/2021 4:25:55 AM 0.5625 33.0125 357.85 7.98 7.387497 0.5625
1/30/2021 4:40:54 AM 0.5625 33.0125 358.15 7.9758 7.300003 0.5625
1/30/2021 4:55:54 AM 0.5625 33.0125 358.2 7.9744 7.355003 0.5625
1/30/2021 5:10:54 AM 0.56 33.008 358.5 7.9758 7.510002 0.5599976
1/30/2021 5:25:54 AM 0.545 32.981 358.85 7.9709 7.389999 0.5449982
1/30/2021 5:40:54 AM 0.545 32.981 358.85 7.9695 7.422501 0.5449982
1/30/2021 5:55:54 AM 0.5625 33.0125 358.85 7.9653 7.477501 0.5625
1/30/2021 6:10:54 AM 0.5475 32.9855 359.2 7.9639 7.527496 0.5475006
1/30/2021 6:25:54 AM 0.5275 32.9495 359.9 7.9646 7.355003 0.5274963
1/30/2021 6:40:54 AM 0.5275 32.9495 359.9 7.9653 7.495003 0.5274963
1/30/2021 6:55:54 AM 0.53 32.954 360.2499 7.9604 7.407501 0.5299988
1/30/2021 7:10:54 AM 0.51 32.918 360.6 7.9611 7.510002 0.5100021
1/30/2021 7:25:54 AM 0.4925 32.8865 360.9501 7.9618 7.370003 0.4925003
1/30/2021 7:40:54 AM 0.495 32.891 361.3 7.9611 7.442497 0.4950027
1/30/2021 7:55:54 AM 0.495 32.891 361.6499 7.9548 7.407501 0.4950027
1/30/2021 8:10:54 AM 0.495 32.891 362 7.9555 7.387497 0.4950027
1/30/2021 8:25:55 AM 0.495 32.891 362.3 7.9534 7.559998 0.4950027
1/30/2021 8:40:54 AM 0.4925 32.8865 362.6499 7.9555 7.355003 0.4925003
1/30/2021 8:55:54 AM 0.51 32.918 362.6499 7.9506 7.387497 0.5100021
1/30/2021 9:10:55 AM 0.58 33.044 362 7.9499 7.440002 0.5800018
1/30/2021 9:25:55 AM 0.6325 33.1385 361.6 7.9506 7.495003 0.6324997
1/30/2021 9:40:54 AM 0.65 33.17 361.6 7.9492 7.372498 0.6500015
1/30/2021 9:55:55 AM 0.6675 33.2015 361.6499 7.9492 7.407501 0.6675034
1/30/2021 10:10:55 AM 0.7175 33.2915 361.3 7.9506 7.404999 0.7174988
1/30/2021 10:25:55 AM 0.7175 33.2915 361.6 7.9506 7.455002 0.7174988
1/30/2021 10:40:54 AM 0.7175 33.2915 361.9501 7.9506 7.302498 0.7174988
1/30/2021 10:55:55 AM 0.735 33.323 361.9501 7.9506 7.332497 0.7350006
1/30/2021 11:10:55 AM 0.755 33.359 361.6 7.9492 7.264999 0.7549973
1/30/2021 11:25:55 AM 0.77 33.386 361.9501 7.9513 7.402496 0.7699966
1/30/2021 11:40:55 AM 0.755 33.359 361.9501 7.9485 7.349998 0.7549973
1/30/2021 11:55:54 AM 0.77 33.386 361.9501 7.9443 7.264999 0.7699966
1/30/2021 12:10:54 PM 0.79 33.422 361.9 7.9492 7.3825 0.7900009
1/30/2021 12:25:55 PM 0.8025 33.4445 361.9501 7.9457 7.4375 0.8024979
1/30/2021 12:40:54 PM 0.8225 33.4805 361.55 7.9506 7.294998 0.8225021
1/30/2021 12:55:54 PM 0.8375 33.5075 361.2499 7.9492 7.417503 0.8375015
1/30/2021 1:10:54 PM 0.8225 33.4805 361.2499 7.9499 7.419998 0.8225021
1/30/2021 1:25:54 PM 0.2675 32.4815 368.9 7.952 7.407501 0.2675018
1/30/2021 1:40:55 PM 0.2175 32.3915 370 7.9506 7.392502 0.2174988
1/30/2021 1:55:54 PM 0.5125 32.9225 365.45 7.9513 7.357498 0.5124969
1/30/2021 2:10:54 PM 0.65 33.17 363 7.952 7.372498 0.6500015
1/30/2021 2:25:54 PM 0.72 33.296 361.2499 7.9548 7.372498 0.7200012
1/30/2021 2:40:54 PM 0.7525 33.3545 360.2 7.9562 7.300003 0.7525024
1/30/2021 2:55:55 PM 0.7875 33.4175 359.2 7.9555 7.404999 0.7874985
1/30/2021 3:10:54 PM 0.8025 33.4445 358.15 7.9611 7.370003 0.8024979
1/30/2021 3:25:54 PM 0.8225 33.4805 357.1 7.9597 7.472504 0.8225021
1/30/2021 3:40:54 PM 0.82 33.476 356.1 7.9597 7.489998 0.8199997
1/30/2021 3:55:55 PM 0.805 33.449 355.7 7.9639 7.489998 0.8050003
1/30/2021 4:10:54 PM 0.785 33.413 355 7.9646 7.4375 0.7850037
1/30/2021 4:25:54 PM 0.77 33.386 354.3501 7.9688 7.472504 0.7699966
1/30/2021 4:40:55 PM 0.7525 33.3545 353.6499 7.9737 7.519997 0.7525024
1/30/2021 4:55:55 PM 0.735 33.323 352.9 7.9681 7.402496 0.7350006
1/30/2021 5:10:54 PM 0.7325 33.3185 352.2 7.9751 7.589996 0.7324982
1/30/2021 5:25:54 PM 0.735 33.323 351.55 7.9744 7.542503 0.7350006
1/30/2021 5:40:54 PM 0.3025 32.5445 356.45 7.9758 7.597504 0.3024979
1/30/2021 5:55:55 PM -0.0925 31.8335 362.0499 7.9758 7.57 -0.09249878
1/30/2021 6:10:55 PM 0.185 32.333 357.2499 7.9814 7.587502 0.1849976
1/30/2021 6:25:54 PM 0.3925 32.7065 353.7 7.9807 7.532501 0.3925018
1/30/2021 6:40:55 PM 0.4775 32.8595 352 7.98 7.6175 0.4775009
1/30/2021 6:55:55 PM 0.5275 32.9495 350.9501 7.9793 7.597504 0.5274963
1/30/2021 7:10:55 PM 0.5475 32.9855 350.2499 7.9835 7.547501 0.5475006
1/30/2021 7:25:55 PM 0.5625 33.0125 349.55 7.9793 7.652496 0.5625
1/30/2021 7:40:55 PM 0.565 33.017 349.15 7.9828 7.582497 0.5650024
1/30/2021 7:55:55 PM 0.5625 33.0125 348.85 7.9828 7.477501 0.5625
1/30/2021 8:10:55 PM 0.565 33.017 348.5 7.9835 7.5625 0.5650024
1/30/2021 8:25:55 PM 0.5625 33.0125 348.45 7.9835 7.580002 0.5625
1/30/2021 8:40:55 PM 0.545 32.981 348.45 7.9856 7.510002 0.5449982
1/30/2021 8:55:55 PM 0.545 32.981 348.45 7.9849 7.629997 0.5449982
1/30/2021 9:10:55 PM 0.545 32.981 348.45 7.9842 7.495003 0.5449982
1/30/2021 9:25:55 PM 0.545 32.981 348.15 7.9884 7.472504 0.5449982
1/30/2021 9:40:55 PM 0.5275 32.9495 348.5 7.990499 7.495003 0.5274963
1/30/2021 9:55:54 PM 0.5275 32.9495 348.5 7.990499 7.474998 0.5274963
1/30/2021 10:10:54 PM 0.5275 32.9495 348.5 7.9884 7.529999 0.5274963
1/30/2021 10:25:54 PM 0.5275 32.9495 348.8 7.989799 7.407501 0.5274963
1/30/2021 10:40:54 PM 0.5275 32.9495 348.8 7.9884 7.334999 0.5274963
1/30/2021 10:55:55 PM 0.5275 32.9495 349.15 7.9835 7.372498 0.5274963
1/30/2021 11:10:54 PM 0.5125 32.9225 349.55 7.9828 7.404999 0.5124969
1/30/2021 11:25:55 PM 0.51 32.918 349.5 7.9849 7.337502 0.5100021
1/30/2021 11:40:54 PM 0.51 32.918 349.85 7.9842 7.337502 0.5100021
1/31/2021 12:10:54 AM 0.495 32.891 350.55 7.9828 7.422501 0.4950027
1/31/2021 12:25:54 AM 0.4925 32.8865 350.9501 7.9842 7.32 0.4925003
1/31/2021 12:40:55 AM 0.495 32.891 351.2499 7.9786 7.302498 0.4950027
1/31/2021 12:55:55 AM 0.4775 32.8595 351.9501 7.98 7.334999 0.4775009
1/31/2021 1:10:55 AM 0.495 32.891 352.2499 7.98 7.372498 0.4950027
1/31/2021 1:25:54 AM 0.4775 32.8595 352.2499 7.9779 7.32 0.4775009
1/31/2021 1:40:55 AM 0.4775 32.8595 353 7.98 7.305 0.4775009
1/31/2021 1:55:55 AM 0.4775 32.8595 353.3501 7.9737 7.264999 0.4775009
1/31/2021 2:10:55 AM 0.475 32.855 353.6499 7.98 7.355003 0.4749985
1/31/2021 2:25:55 AM 0.475 32.855 354.0499 7.9744 7.25 0.4749985
1/31/2021 2:40:55 AM 0.475 32.855 354.3501 7.9751 7.334999 0.4749985
1/31/2021 2:55:55 AM 0.475 32.855 354.7 7.9758 7.197502 0.4749985
1/31/2021 3:10:55 AM 0.495 32.891 354.7 7.9751 7.214996 0.4950027
1/31/2021 3:25:55 AM 0.4925 32.8865 355.45 7.9744 7.334999 0.4925003
1/31/2021 3:40:55 AM 0.4775 32.8595 355.7501 7.9646 7.142502 0.4775009
1/31/2021 3:55:55 AM 0.475 32.855 356.1 7.9702 7.199997 0.4749985
1/31/2021 4:10:55 AM 0.4775 32.8595 356.45 7.9688 7.182503 0.4775009
1/31/2021 4:25:55 AM 0.475 32.855 356.8 7.9709 7.334999 0.4749985
1/31/2021 4:40:55 AM 0.4775 32.8595 357.15 7.9639 7.142502 0.4775009
1/31/2021 4:55:55 AM 0.4775 32.8595 357.15 7.9646 7.127502 0.4775009
1/31/2021 5:10:55 AM 0.475 32.855 357.5 7.9597 7.18 0.4749985
1/31/2021 5:25:55 AM 0.46 32.828 357.8 7.9646 7.112503 0.4599991
1/31/2021 5:40:55 AM 0.475 32.855 358.2 7.9597 7.18 0.4749985
1/31/2021 5:55:55 AM 0.4775 32.8595 358.5 7.9604 7.110001 0.4775009
1/31/2021 6:10:55 AM 0.475 32.855 358.5 7.9555 7.107498 0.4749985
1/31/2021 6:25:55 AM 0.4775 32.8595 358.85 7.9555 7.004997 0.4775009
1/31/2021 6:40:54 AM 0.4775 32.8595 358.85 7.9555 6.972504 0.4775009
1/31/2021 6:55:54 AM 0.475 32.855 359.2 7.9548 7.025002 0.4749985
1/31/2021 7:10:54 AM 0.475 32.855 359.2 7.9513 7.022499 0.4749985
1/31/2021 7:25:54 AM 0.475 32.855 359.2 7.952 7.144997 0.4749985
1/31/2021 7:40:54 AM 0.4775 32.8595 359.55 7.9457 7.267502 0.4775009
1/31/2021 7:55:54 AM 0.475 32.855 359.55 7.9471 7.110001 0.4749985
1/31/2021 8:10:54 AM 0.4775 32.8595 359.9 7.9401 7.095001 0.4775009
1/31/2021 8:25:54 AM 0.4925 32.8865 359.9 7.9471 7.059998 0.4950027
1/31/2021 8:40:54 AM 0.495 32.891 359.85 7.9394 6.987503 0.4950027
1/31/2021 8:55:54 AM 0.495 32.891 360.3 7.9401 7.025002 0.4950027
1/31/2021 9:10:54 AM 0.4775 32.8595 360.6 7.9394 7.042503 0.4775009
1/31/2021 9:25:54 AM 0.495 32.891 360.55 7.9401 6.972504 0.4950027
1/31/2021 9:40:54 AM 0.4925 32.8865 360.6 7.9422 7.057503 0.4925003
1/31/2021 9:55:54 AM 0.51 32.918 360.6 7.9408 6.972504 0.5100021
1/31/2021 10:10:54 AM 0.5125 32.9225 361 7.9401 7.057503 0.5124969
1/31/2021 10:25:54 AM 0.51 32.918 360.9 7.9366 6.955002 0.5100021
1/31/2021 10:40:54 AM 0.5075 32.9135 361.2499 7.9373 7.042503 0.5074997
1/31/2021 10:55:54 AM 0.51 32.918 361.6 7.9352 6.972504 0.5100021
1/31/2021 11:10:54 AM 0.53 32.954 361.6499 7.9352 6.952499 0.5299988
1/31/2021 11:25:54 AM 0.5275 32.9495 361.9501 7.9359 6.917503 0.5274963
1/31/2021 11:40:54 AM 0.545 32.981 362 7.9317 6.8125 0.5449982
1/31/2021 11:55:54 AM 0.5475 32.9855 362.3501 7.9296 6.9375 0.5475006
1/31/2021 12:10:54 PM 0.56 33.008 362.3 7.9373 6.8825 0.5599976
1/31/2021 12:25:54 PM 0.5625 33.0125 362.6499 7.9359 6.797501 0.5625
1/31/2021 12:40:54 PM 0.58 33.044 362.6499 7.9352 6.709999 0.5800018
1/31/2021 12:55:54 PM 0.58 33.044 363 7.9415 6.707497 0.5800018
1/31/2021 1:10:54 PM 0.58 33.044 363.3 7.9345 6.724998 0.5800018
1/31/2021 1:25:54 PM 0.58 33.044 363.7 7.9359 6.692497 0.5800018
1/31/2021 1:40:54 PM 0.58 33.044 364.0499 7.9401 6.709999 0.5800018
1/31/2021 1:55:54 PM 0.5975 33.0755 364.3501 7.9373 6.654999 0.5975037
1/31/2021 2:10:55 PM 0.5975 33.0755 364.7501 7.9401 6.675003 0.5975037
1/31/2021 2:25:55 PM 0.58 33.044 365.1 7.9394 6.622498 0.5800018
1/31/2021 2:40:54 PM 0.5825 33.0485 365.4 7.9408 6.657501 0.5824966
1/31/2021 2:55:54 PM 0.58 33.044 365.7501 7.9422 6.605003 0.5800018
1/31/2021 3:10:54 PM 0.5975 33.0755 366.1 7.9457 6.605003 0.5975037
1/31/2021 3:25:54 PM 0.595 33.071 366.45 7.9506 6.587502 0.5950012
1/31/2021 3:40:54 PM 0.5975 33.0755 366.8 7.9555 6.57 0.5975037
1/31/2021 3:55:54 PM 0.615 33.107 367.1 7.9555 6.535004 0.6149979
1/31/2021 4:10:54 PM 0.5975 33.0755 367.55 7.9597 6.622498 0.5975037
1/31/2021 4:25:54 PM 0.595 33.071 367.85 7.9709 6.517502 0.5950012
1/31/2021 4:40:54 PM 0.595 33.071 368.2 7.9702 6.565002 0.5950012
1/31/2021 4:55:54 PM 0.5975 33.0755 368.55 7.9758 6.449997 0.5975037
1/31/2021 5:10:54 PM 0.5975 33.0755 368.55 7.9807 6.379997 0.5975037
1/31/2021 5:25:54 PM 0.615 33.107 368.85 7.9849 6.497498 0.6149979
1/31/2021 5:40:54 PM 0.5975 33.0755 369.55 7.9877 6.532501 0.5975037
1/31/2021 5:55:54 PM 0.5975 33.0755 369.9 7.993299 6.377502 0.5975037
1/31/2021 6:10:54 PM 0.5975 33.0755 370.2499 7.992599 6.427498 0.5975037
1/31/2021 6:25:54 PM 0.5975 33.0755 370.6499 7.999599 6.412498 0.5975037
1/31/2021 6:40:54 PM 0.5975 33.0755 370.6 8.003799 6.394997 0.5975037
1/31/2021 6:55:54 PM 0.5975 33.0755 370.9501 8.003799 6.43 0.5975037
1/31/2021 7:10:54 PM 0.615 33.107 371.3 8.009399 6.377502 0.6149979
1/31/2021 7:25:54 PM 0.615 33.107 371.6499 8.012199 6.397499 0.6149979
1/31/2021 7:40:54 PM 0.615 33.107 372 8.017799 6.412498 0.6149979
1/31/2021 7:55:54 PM 0.615 33.107 372.6499 8.017099 6.377502 0.6149979
1/31/2021 8:10:54 PM 0.6125 33.1025 373 8.024099 6.324997 0.6125031
1/31/2021 8:25:54 PM 0.6125 33.1025 373.0499 8.023399 6.412498 0.6125031
1/31/2021 8:40:54 PM 0.6125 33.1025 373.4 8.028299 6.324997 0.6125031
1/31/2021 8:55:54 PM 0.615 33.107 373.7501 8.027599 6.377502 0.6149979
1/31/2021 9:10:54 PM 0.6325 33.1385 373.7 8.028999 6.324997 0.6324997
1/31/2021 9:25:54 PM 0.6325 33.1385 374.0499 8.033199 6.372498 0.6324997
1/31/2021 9:40:54 PM 0.63 33.134 374.4 8.033899 6.327499 0.6299973
1/31/2021 9:55:54 PM 0.6325 33.1385 374.4 8.032499 6.360001 0.6324997
1/31/2021 10:10:55 PM 0.6325 33.1385 374.7501 8.031799 6.254997 0.6324997
1/31/2021 10:25:54 PM 0.6325 33.1385 375.1 8.031799 6.324997 0.6324997
1/31/2021 10:40:55 PM 0.6325 33.1385 375.0499 8.033899 6.324997 0.6324997
1/31/2021 10:55:54 PM 0.63 33.134 375.1 8.033899 6.254997 0.6299973
1/31/2021 11:10:55 PM 0.6325 33.1385 375.45 8.033199 6.307503 0.6324997
1/31/2021 11:25:55 PM 0.6325 33.1385 375.45 8.034599 6.272499 0.6324997
1/31/2021 11:40:55 PM 0.58 33.044 376.45 8.036699 6.307503 0.5800018
2/1/2021 12:10:55 AM -0.025 31.955 385.9501 8.039499 6.400002 -0.02500153
2/1/2021 12:25:55 AM 0.27 32.486 381.7501 8.038799 7.065002 0.2699966
2/1/2021 12:55:55 AM -0.04 31.928 386.6 8.038799 6.824997 -0.04000092
2/1/2021 1:10:54 AM -0.09 31.838 388.0499 8.039499 6.474998 -0.08999634
2/1/2021 1:25:54 AM 0.22 32.396 383.2 8.038799 6.402496 0.2200012
2/1/2021 1:40:54 AM 0.375 32.675 381.4 8.038799 6.3125 0.375
2/1/2021 1:55:54 AM 0.4425 32.7965 380.3501 8.040199 6.3125 0.4424973
2/1/2021 2:10:54 AM 0.495 32.891 379.6499 8.038099 6.364998 0.4950027
2/1/2021 2:25:55 AM 0.5125 32.9225 379.3 8.038099 6.362503 0.5124969
2/1/2021 2:40:54 AM 0.53 32.954 378.9501 8.036699 6.364998 0.5299988
2/1/2021 2:55:54 AM 0.5475 32.9855 378.9 8.037399 6.2575 0.5475006
2/1/2021 3:10:54 AM 0.5625 33.0125 378.6499 8.037399 6.2575 0.5625
2/1/2021 3:25:54 AM 0.58 33.044 378.9 8.036699 6.2575 0.5800018
2/1/2021 3:40:54 AM 0.58 33.044 378.9 8.033199 6.345001 0.5800018
2/1/2021 3:55:55 AM 0.5975 33.0755 378.9 8.031799 6.309998 0.5975037
2/1/2021 4:10:54 AM 0.595 33.071 379.2499 8.033199 6.342499 0.5950012
2/1/2021 4:25:54 AM 0.5975 33.0755 379.2499 8.032499 6.254997 0.5975037
2/1/2021 4:40:54 AM 0.6 33.08 379.55 8.031799 6.239998 0.5999985
2/1/2021 4:55:54 AM 0.5975 33.0755 379.9501 8.026199 6.235001 0.5975037
2/1/2021 5:10:54 AM 0.5975 33.0755 379.9501 8.026899 6.220001 0.5975037
2/1/2021 5:25:54 AM 0.5975 33.0755 380.2499 8.027599 6.169998 0.5975037
2/1/2021 5:40:54 AM 0.5975 33.0755 380.3 8.026899 6.1875 0.5975037
2/1/2021 5:55:54 AM 0.5975 33.0755 380.6499 8.024099 6.272499 0.5975037
2/1/2021 6:10:54 AM 0.5975 33.0755 380.9501 8.023399 6.239998 0.5975037
2/1/2021 6:25:54 AM 0.5975 33.0755 381 8.017799 6.324997 0.5975037
2/1/2021 6:40:54 AM 0.5975 33.0755 381.3501 8.017799 6.275002 0.5975037
2/1/2021 6:55:55 AM 0.5975 33.0755 381.3501 8.017799 6.222504 0.5975037
2/1/2021 7:10:54 AM 0.5975 33.0755 381.3 8.017799 6.239998 0.5975037
2/1/2021 7:25:55 AM 0.5975 33.0755 381.3501 8.017099 6.272499 0.5975037
2/1/2021 7:40:55 AM 0.5975 33.0755 381.7 8.012899 6.237503 0.5975037
2/1/2021 7:55:54 AM 0.5975 33.0755 382 8.014299 6.184998 0.5975037
2/1/2021 8:10:55 AM 0.595 33.071 382 8.007999 6.269997 0.5950012
2/1/2021 8:25:55 AM 0.595 33.071 382.3501 8.009399 6.254997 0.5950012
2/1/2021 8:40:55 AM 0.5975 33.0755 382.4 8.007999 6.254997 0.5975037
2/1/2021 8:55:54 AM 0.5975 33.0755 382.7 8.007999 6.220001 0.5975037
2/1/2021 9:10:55 AM 0.615 33.107 382.7 8.003799 6.222504 0.6149979
2/1/2021 9:25:54 AM 0.6325 33.1385 382.7 8.003099 6.184998 0.6324997
2/1/2021 9:40:54 AM 0.615 33.107 383.0499 8.003799 6.220001 0.6149979
2/1/2021 9:55:54 AM 0.6325 33.1385 383.1 8.003099 6.167503 0.6324997
2/1/2021 10:10:54 AM 0.6325 33.1385 383.1 8.005199 6.1875 0.6324997
2/1/2021 10:25:54 AM 0.65 33.17 383.0499 8.003799 6.1175 0.6500015
2/1/2021 10:40:54 AM 0.6325 33.1385 383.45 8.002399 6.150002 0.6324997
2/1/2021 10:55:54 AM 0.6475 33.1655 383.4 8.009399 6.080002 0.6474991
2/1/2021 11:10:54 AM 0.665 33.197 383.4 8.003099 6.102501 0.6650009
2/1/2021 11:25:54 AM 0.6825 33.2285 383.4 8.003799 6.1175 0.6825027
2/1/2021 11:40:54 AM 0.6825 33.2285 383.7 8.009399 6.065002 0.6825027
2/1/2021 11:55:54 AM 0.685 33.233 383.7501 8.008699 6.099998 0.6849976
2/1/2021 12:10:54 PM 0.7375 33.3275 383.0499 7.993299 9.172501 0.7375031
2/1/2021 12:25:54 PM 0.7 33.26 383.7501 7.997499 6.427498 0.6999969
2/1/2021 12:40:54 PM 0.6675 33.2015 384.7501 8.003799 6.205002 0.6675034
2/1/2021 12:55:54 PM 0.63 33.134 385.45 8.003799 6.114998 0.6299973
2/1/2021 1:10:54 PM 0.615 33.107 385.8 8.003799 6.1325 0.6149979
2/1/2021 1:25:54 PM 0.5975 33.0755 386.15 8.007999 6.099998 0.5975037
2/1/2021 1:40:54 PM 0.6125 33.1025 386.15 8.008699 6.097504 0.6125031
2/1/2021 1:55:54 PM 0.6125 33.1025 386.5 8.006599 6.097504 0.6125031
2/1/2021 2:10:54 PM 0.6125 33.1025 386.5 8.007999 6.0625 0.6125031
2/1/2021 2:25:54 PM 0.6125 33.1025 386.5 8.014299 6.0625 0.6125031
2/1/2021 2:40:54 PM 0.63 33.134 386.85 8.012899 6.044998 0.6299973
2/1/2021 2:55:54 PM 0.6125 33.1025 386.85 8.017799 6.047501 0.6125031
2/1/2021 3:10:54 PM 0.6125 33.1025 386.85 8.017099 5.995003 0.6125031
2/1/2021 3:25:55 PM 0.6125 33.1025 386.8 8.024099 5.957497 0.6125031
2/1/2021 3:40:54 PM 0.6125 33.1025 386.85 8.023399 6.010002 0.6125031
2/1/2021 3:55:54 PM 0.615 33.107 386.85 8.023399 5.9925 0.6149979
2/1/2021 4:10:54 PM 0.63 33.134 386.45 8.028299 6.010002 0.6299973
2/1/2021 4:25:55 PM 0.63 33.134 386.45 8.034599 6.029999 0.6299973
2/1/2021 4:40:54 PM 0.6125 33.1025 386.15 8.033199 5.9925 0.6125031
2/1/2021 4:55:55 PM 0.6125 33.1025 385.8 8.035999 6.150002 0.6125031
2/1/2021 5:10:54 PM 0.6125 33.1025 385.8 8.043699 6.0625 0.6125031
2/1/2021 5:25:54 PM 0.595 33.071 385.8 8.046499 6.010002 0.5950012
2/1/2021 5:40:55 PM 0.5975 33.0755 385.45 8.047199 6.044998 0.5975037
2/1/2021 5:55:54 PM 0.595 33.071 385.5 8.050699 6.080002 0.5950012
2/1/2021 6:10:54 PM 0.595 33.071 385.4 8.052099 5.987503 0.5950012
2/1/2021 6:25:54 PM 0.5775 33.0395 385.7501 8.058399 6.0075 0.5774994
2/1/2021 6:40:54 PM 0.595 33.071 385.45 8.054899 6.022499 0.5950012
2/1/2021 6:55:54 PM 0.595 33.071 385.1 8.062599 6.047501 0.5950012
2/1/2021 7:10:54 PM 0.595 33.071 384.7501 8.066799 6.112503 0.5950012
2/1/2021 7:25:54 PM 0.595 33.071 384.0499 8.064699 5.989998 0.5950012
2/1/2021 7:40:54 PM 0.595 33.071 383.7501 8.066799 6.059998 0.5950012
2/1/2021 7:55:54 PM 0.595 33.071 383.3501 8.070999 6.077499 0.5950012
2/1/2021 8:10:54 PM 0.5975 33.0755 383.0499 8.070299 6.112503 0.5975037
2/1/2021 8:25:54 PM 0.595 33.071 382.6499 8.077299 6.269997 0.5950012
2/1/2021 8:40:54 PM 0.595 33.071 382 8.080799 6.114998 0.5950012
2/1/2021 8:55:54 PM 0.6125 33.1025 381.6499 8.081499 6.0625 0.6125031
2/1/2021 9:10:54 PM 0.6125 33.1025 381.3 8.080099 6.182503 0.6125031
2/1/2021 9:25:54 PM 0.595 33.071 381.3 8.080099 6.044998 0.5950012
2/1/2021 9:40:54 PM 0.595 33.071 380.9501 8.079399 6.059998 0.5950012
2/1/2021 9:55:54 PM 0.595 33.071 380.6 8.079399 6.077499 0.5950012
2/1/2021 10:10:54 PM 0.595 33.071 380.2499 8.079399 6.044998 0.5950012
2/1/2021 10:25:55 PM 0.5775 33.0395 380.2499 8.085699 6.027496 0.5774994
2/1/2021 10:40:54 PM 0.5775 33.0395 379.9 8.082199 6.080002 0.5774994
2/1/2021 10:55:55 PM 0.5775 33.0395 379.55 8.086399 6.027496 0.5774994
2/1/2021 11:10:55 PM 0.595 33.071 379.2 8.082199 6.025002 0.5950012
2/1/2021 11:25:55 PM 0.5775 33.0395 378.85 8.082199 6.097504 0.5774994
2/1/2021 11:40:55 PM 0.595 33.071 378.2 8.080799 6.114998 0.5950012
2/2/2021 12:10:55 AM 0.5775 33.0395 377.5 8.075899 6.095001 0.5774994
2/2/2021 12:25:55 AM 0.5775 33.0395 377.15 8.071699 5.974998 0.5774994
2/2/2021 12:55:55 AM 0.595 33.071 375.7501 8.073099 6.097504 0.5950012
2/2/2021 1:10:55 AM 0.58 33.044 375.4 8.070999 6.129997 0.5800018
2/2/2021 1:25:55 AM 0.595 33.071 375.0499 8.067499 6.127502 0.5950012
2/2/2021 1:40:55 AM 0.58 33.044 374.7501 8.061899 6.114998 0.5800018
2/2/2021 1:55:55 AM 0.5775 33.0395 374.0499 8.061199 6.147499 0.5774994
2/2/2021 2:10:55 AM 0.5775 33.0395 373.7 8.060499 6.184998 0.5774994
2/2/2021 2:25:55 AM 0.595 33.071 373.3501 8.056299 6.217499 0.5950012
2/2/2021 2:40:55 AM 0.595 33.071 373 8.056999 6.167503 0.5950012
2/2/2021 2:55:55 AM 0.5925 33.0665 372.2499 8.053499 6.232498 0.5924988
2/2/2021 3:10:55 AM 0.595 33.071 371.9501 8.052099 6.217499 0.5950012
2/2/2021 3:25:55 AM 0.5975 33.0755 371.9501 8.052099 6.287498 0.5975037
2/2/2021 3:40:55 AM 0.595 33.071 371.9501 8.047899 6.217499 0.5950012
2/2/2021 3:55:55 AM 0.595 33.071 371.6 8.046499 6.199997 0.5950012
2/2/2021 4:10:54 AM 0.595 33.071 371.6499 8.041599 6.235001 0.5950012
2/2/2021 4:25:54 AM 0.595 33.071 371.6 8.041599 6.217499 0.5950012
2/2/2021 4:40:54 AM 0.595 33.071 371.6 8.038099 6.237503 0.5950012
2/2/2021 4:55:54 AM 0.595 33.071 371.6 8.031099 6.150002 0.5950012
2/2/2021 5:10:54 AM 0.595 33.071 371.6 8.031099 6.235001 0.5950012
2/2/2021 5:25:55 AM 0.595 33.071 371.9501 8.026899 6.1325 0.5950012
2/2/2021 5:40:54 AM 0.595 33.071 371.9501 8.025499 6.214996 0.5950012
2/2/2021 5:55:54 AM 0.595 33.071 372.3 8.024099 6.182503 0.5950012
2/2/2021 6:10:54 AM 0.595 33.071 372.6 8.021999 6.162498 0.5950012
2/2/2021 6:25:54 AM 0.595 33.071 372.6499 8.018499 6.199997 0.5950012
2/2/2021 6:40:54 AM 0.595 33.071 372.9501 8.017799 6.147499 0.5950012
2/2/2021 6:55:54 AM 0.595 33.071 373.3 8.017799 6.144997 0.5950012
2/2/2021 7:10:54 AM 0.595 33.071 373.7 8.012199 6.129997 0.5950012
2/2/2021 7:25:55 AM 0.6125 33.1025 374 8.012199 6.1325 0.6125031
2/2/2021 7:40:54 AM 0.63 33.134 374 8.014299 6.097504 0.6299973
2/2/2021 7:55:55 AM 0.63 33.134 374 8.014299 6.097504 0.6299973
2/2/2021 8:10:54 AM 0.63 33.134 374 8.014299 6.097504 0.6299973
2/2/2021 8:25:55 AM 0.63 33.134 374 8.014299 6.097504 0.6299973
2/2/2021 8:40:54 AM 0.63 33.134 374 8.014299 6.097504 0.6299973
2/2/2021 8:55:55 AM 0.665 33.197 375.4 8.001699 6.077499 0.6650009
2/2/2021 9:10:54 AM 0.665 33.197 375.7501 8.000999 6.0625 0.6650009
2/2/2021 9:25:55 AM 0.665 33.197 376.1 8.002399 6.0625 0.6650009
2/2/2021 9:40:55 AM 0.6625 33.1925 376.45 8.004499 6.0625 0.6624985
2/2/2021 9:55:55 AM 0.68 33.224 377.1 8.004499 6.010002 0.6800003
2/2/2021 10:10:55 AM 0.6825 33.2285 377.45 7.998899 6.025002 0.6825027
2/2/2021 10:25:55 AM 0.68 33.224 377.7501 7.998199 6.022499 0.6800003
2/2/2021 10:40:55 AM 0.7 33.26 378.15 7.998199 6.057503 0.6999969
2/2/2021 10:55:55 AM 0.7 33.26 378.8 7.997499 5.989998 0.6999969
2/2/2021 11:10:55 AM 0.715 33.287 378.85 7.993999 6.0075 0.7149963
2/2/2021 11:25:55 AM 0.7325 33.3185 379.55 7.993299 5.9925 0.7324982
2/2/2021 11:40:55 AM 0.75 33.35 379.85 7.994699 6.027496 0.75
2/2/2021 11:55:55 AM 0.7325 33.3185 380.55 7.993299 6.059998 0.7324982
2/2/2021 12:10:55 PM 0.7525 33.3545 380.9501 7.987 6.042503 0.7525024
2/2/2021 12:25:55 PM 0.75 33.35 381.6 7.992599 6.027496 0.75
2/2/2021 12:40:55 PM 0.75 33.35 382.3 7.991899 6.112503 0.75
2/2/2021 12:55:55 PM 0.75 33.35 382.6499 7.9877 6.042503 0.75
2/2/2021 1:10:54 PM 0.75 33.35 383.6499 7.9877 6.057503 0.75
2/2/2021 1:25:54 PM 0.735 33.323 384.3501 7.9877 6.077499 0.7350006
2/2/2021 1:40:55 PM 0.7475 33.3455 384.7 7.9884 6.147499 0.7474976
2/2/2021 1:55:54 PM 0.75 33.35 385.4 7.992599 6.162498 0.75
2/2/2021 2:10:54 PM 0.75 33.35 386.1 7.996799 6.245003 0.75
2/2/2021 2:25:55 PM 0.7325 33.3185 386.45 7.998199 6.232498 0.7324982
2/2/2021 2:40:54 PM 0.7325 33.3185 386.7501 8.002399 6.199997 0.7324982
2/2/2021 2:55:54 PM 0.75 33.35 387.2 8.002399 6.182503 0.75
2/2/2021 3:10:54 PM 0.7325 33.3185 387.15 8.007299 6.144997 0.7324982
2/2/2021 3:25:55 PM 0.75 33.35 387.45 8.001699 6.162498 0.75
2/2/2021 3:40:54 PM 0.75 33.35 387.5 8.005899 6.127502 0.75
2/2/2021 3:55:54 PM 0.75 33.35 387.45 8.008699 6.182503 0.75
2/2/2021 4:10:54 PM 0.75 33.35 387.15 8.008699 6.235001 0.75
2/2/2021 4:25:54 PM 0.75 33.35 387.2 8.017099 6.217499 0.75
2/2/2021 4:40:54 PM 0.735 33.323 386.7501 8.016399 6.199997 0.7350006
2/2/2021 4:55:54 PM 0.7325 33.3185 386.45 8.022699 6.25 0.7324982
2/2/2021 5:10:54 PM 0.7325 33.3185 386.45 8.021299 6.197502 0.7324982
2/2/2021 5:25:55 PM 0.735 33.323 386.1 8.026199 6.252502 0.7350006
2/2/2021 5:40:54 PM 0.7325 33.3185 385.7 8.026899 6.127502 0.7324982
2/2/2021 5:55:55 PM 0.7175 33.2915 385.0499 8.031099 6.195 0.7174988
2/2/2021 6:10:54 PM 0.715 33.287 384.7 8.032499 6.197502 0.7149963
2/2/2021 6:25:54 PM 0.7175 33.2915 384.0499 8.035999 6.182503 0.7174988
2/2/2021 6:40:54 PM 0.7125 33.2825 383.3501 8.038099 6.264999 0.7125015
2/2/2021 6:55:54 PM 0.715 33.287 383 8.035999 6.25 0.7149963
2/2/2021 7:10:54 PM 0.715 33.287 382.3 8.040899 6.197502 0.7149963
2/2/2021 7:25:55 PM 0.7325 33.3185 381.9501 8.047199 6.18 0.7324982
2/2/2021 7:40:54 PM 0.715 33.287 381.6499 8.050699 6.129997 0.7149963
2/2/2021 7:55:55 PM 0.7325 33.3185 380.9 8.055599 6.092499 0.7324982
2/2/2021 8:10:55 PM 0.715 33.287 380.55 8.056299 6.059998 0.7149963
2/2/2021 8:25:55 PM 0.715 33.287 380.2 8.059799 6.092499 0.7149963
2/2/2021 8:40:55 PM 0.7325 33.3185 379.9 8.064699 6.095001 0.7324982
2/2/2021 8:55:55 PM 0.715 33.287 379.5 8.066799 6.092499 0.7149963
2/2/2021 9:10:55 PM 0.715 33.287 379.15 8.070999 6.022499 0.7149963
2/2/2021 9:25:54 PM 0.715 33.287 378.85 8.075899 6.042503 0.7149963
2/2/2021 9:40:55 PM 0.715 33.287 378.5 8.077299 6.025002 0.7149963
2/2/2021 9:55:55 PM 0.715 33.287 378.55 8.074499 6.057503 0.7149963
2/2/2021 10:10:54 PM 0.715 33.287 378.45 8.075199 5.987503 0.7149963
2/2/2021 10:25:54 PM 0.715 33.287 378.15 8.078699 5.989998 0.7149963
2/2/2021 10:40:54 PM 0.715 33.287 378.15 8.080799 6.025002 0.7149963
2/2/2021 10:55:54 PM 0.7325 33.3185 377.8 8.081499 6.025002 0.7324982
2/2/2021 11:10:54 PM 0.7325 33.3185 377.8 8.075199 6.0075 0.7324982
2/2/2021 11:25:54 PM 0.7325 33.3185 377.45 8.076599 6.022499 0.7324982
2/2/2021 11:40:54 PM 0.7325 33.3185 377.8 8.074499 5.9375 0.7324982
2/3/2021 12:10:54 AM 0.73 33.314 377.8 8.070299 5.989998 0.7300034
2/3/2021 12:25:55 AM 0.7525 33.3545 377.8 8.071699 5.970001 0.7525024
2/3/2021 12:40:54 AM 0.75 33.35 377.8 8.069599 5.8125 0.75
2/3/2021 12:55:54 AM 0.7475 33.3455 377.7501 8.063999 5.8675 0.7474976
2/3/2021 1:10:54 AM 0.75 33.35 377.8 8.066099 5.872498 0.75
2/3/2021 1:25:55 AM 0.75 33.35 378.15 8.066799 5.817497 0.75
2/3/2021 1:40:54 AM 0.7525 33.3545 378.15 8.065399 5.849998 0.7525024
2/3/2021 1:55:54 AM 0.75 33.35 378.15 8.060499 5.852501 0.75
2/3/2021 2:10:54 AM 0.7525 33.3545 378.15 8.060499 5.904999 0.7525024
2/3/2021 2:25:55 AM 0.75 33.35 378.15 8.055599 5.852501 0.75
2/3/2021 2:40:55 AM 0.75 33.35 378.15 8.054899 5.815002 0.75
2/3/2021 2:55:55 AM 0.75 33.35 378.1 8.055599 5.864998 0.75
2/3/2021 3:10:54 AM 0.75 33.35 378.1 8.052799 5.764999 0.75
2/3/2021 3:25:55 AM 0.75 33.35 378.15 8.050699 5.800003 0.75
2/3/2021 3:40:55 AM 0.7475 33.3455 377.8 8.051399 5.732498 0.7474976
2/3/2021 3:55:54 AM 0.75 33.35 377.8 8.049999 5.764999 0.75
2/3/2021 4:10:55 AM 0.75 33.35 377.85 8.045799 5.785004 0.75
2/3/2021 4:25:55 AM 0.75 33.35 377.5 8.045799 5.782501 0.75
2/3/2021 4:40:55 AM 0.7475 33.3455 377.45 8.046499 5.764999 0.7474976
2/3/2021 4:55:55 AM 0.75 33.35 377.15 8.041599 5.764999 0.75
2/3/2021 5:10:55 AM 0.7475 33.3455 376.7501 8.040899 5.709999 0.7474976
2/3/2021 5:25:55 AM 0.7525 33.3545 376.8 8.035999 5.805 0.7525024
2/3/2021 5:40:55 AM 0.75 33.35 376.7501 8.035999 5.730003 0.75
2/3/2021 5:55:55 AM 0.75 33.35 376.3501 8.031799 5.730003 0.75
2/3/2021 6:10:55 AM 0.75 33.35 376.45 8.031099 5.68 0.75
2/3/2021 6:25:55 AM 0.75 33.35 376.0499 8.027599 5.732498 0.75
2/3/2021 6:40:55 AM 0.75 33.35 376.0499 8.020599 5.709999 0.75
2/3/2021 6:55:55 AM 0.75 33.35 376.0499 8.022699 5.712502 0.75
2/3/2021 7:10:55 AM 0.7525 33.3545 376.45 8.016399 5.747498 0.7525024
2/3/2021 7:25:54 AM 0.735 33.323 376.4 8.017799 5.677498 0.7350006
2/3/2021 7:40:54 AM 0.7325 33.3185 376.7501 8.017099 5.730003 0.7324982
2/3/2021 7:55:55 AM 0.7325 33.3185 376.7501 8.013599 5.662498 0.7324982
2/3/2021 8:10:55 AM 0.735 33.323 377.15 8.011499 5.730003 0.7350006
2/3/2021 8:25:54 AM 0.75 33.35 377.45 8.010799 5.695 0.75
2/3/2021 8:40:54 AM 0.75 33.35 377.4 8.007299 5.709999 0.75
2/3/2021 8:55:55 AM 0.75 33.35 377.8 8.007299 5.695 0.75
2/3/2021 9:10:54 AM 0.75 33.35 378.5 8.007299 5.747498 0.75
2/3/2021 9:25:54 AM 0.75 33.35 378.85 8.007299 5.730003 0.75
2/3/2021 9:40:54 AM 0.75 33.35 379.5 8.000999 5.709999 0.75
2/3/2021 9:55:54 AM 0.75 33.35 379.9 8.002399 5.747498 0.75
2/3/2021 10:10:54 AM 0.75 33.35 380.55 8.003799 5.782501 0.75
2/3/2021 10:25:54 AM 0.75 33.35 380.9 8.003099 5.75 0.75
2/3/2021 10:40:55 AM 0.7675 33.3815 381.3 8.003799 5.782501 0.7675018
2/3/2021 10:55:54 AM 0.7675 33.3815 381.9501 7.998899 5.764999 0.7675018
2/3/2021 11:10:54 AM 0.7675 33.3815 383 7.998899 5.732498 0.7675018
2/3/2021 11:25:54 AM 0.7675 33.3815 383.7 7.996099 5.75 0.7675018
2/3/2021 11:40:55 AM 0.7675 33.3815 384.3501 7.992599 5.732498 0.7675018
2/3/2021 11:55:54 AM 0.7875 33.4175 384.7 7.992599 5.747498 0.7874985
2/3/2021 12:10:54 PM 0.785 33.413 385.7501 7.9884 5.709999 0.7850037
2/3/2021 12:25:55 PM 0.7675 33.3815 386.45 7.987 5.834999 0.7675018
2/3/2021 12:40:54 PM 0.7675 33.3815 387.15 7.9891 5.797501 0.7675018
2/3/2021 12:55:54 PM 0.77 33.386 387.85 7.9877 5.747498 0.7699966
2/3/2021 1:10:54 PM 0.75 33.35 388.85 7.987 5.697502 0.75
2/3/2021 1:25:55 PM 0.7525 33.3545 389.2 7.9877 5.75 0.7525024
2/3/2021 1:40:54 PM 0.7525 33.3545 389.55 7.9877 5.747498 0.7525024
2/3/2021 1:55:55 PM 0.75 33.35 390.2499 7.9891 5.747498 0.75
2/3/2021 2:10:54 PM 0.7675 33.3815 390.6 7.9863 5.764999 0.7675018
2/3/2021 2:25:54 PM 0.75 33.35 390.6 7.9863 5.747498 0.75
2/3/2021 2:40:55 PM 0.77 33.386 390.55 7.992599 5.800003 0.7699966
2/3/2021 2:55:55 PM 0.7825 33.4085 390.6 7.993299 5.747498 0.7825012
2/3/2021 3:10:55 PM 0.785 33.413 390.9501 7.993999 5.767502 0.7850037
2/3/2021 3:25:55 PM 0.785 33.413 390.9501 7.997499 5.785004 0.7850037
2/3/2021 3:40:55 PM 0.785 33.413 390.9501 7.996099 5.817497 0.7825012
2/3/2021 3:55:54 PM 0.805 33.449 390.6 7.996799 5.817497 0.8050003
2/3/2021 4:10:54 PM 0.785 33.413 390.6 8.001699 5.764999 0.7850037
2/3/2021 4:25:54 PM 0.7875 33.4175 390.2499 8.006599 5.730003 0.7874985
2/3/2021 4:40:54 PM 0.7875 33.4175 389.9 8.006599 5.714996 0.7874985
2/3/2021 4:55:54 PM 0.7675 33.3815 389.6 8.005899 5.677498 0.7675018
2/3/2021 5:10:54 PM 0.785 33.413 389.2 8.012199 5.709999 0.7850037
2/3/2021 5:25:54 PM 0.785 33.413 388.55 8.018499 5.644997 0.7850037
2/3/2021 5:40:54 PM 0.785 33.413 388.15 8.017099 5.745003 0.7850037
2/3/2021 5:55:54 PM 0.7875 33.4175 387.85 8.020599 5.68 0.7874985
2/3/2021 6:10:54 PM 0.785 33.413 387.45 8.020599 5.762497 0.7850037
2/3/2021 6:25:54 PM 0.785 33.413 386.7501 8.026899 5.712502 0.7850037
2/3/2021 6:40:54 PM 0.8025 33.4445 386.45 8.025499 5.697502 0.8024979
2/3/2021 6:55:54 PM 0.785 33.413 385.7501 8.031099 5.730003 0.7850037
2/3/2021 7:10:54 PM 0.7825 33.4085 385.4 8.037399 5.730003 0.7874985
2/3/2021 7:25:54 PM 0.785 33.413 384.7 8.037399 5.714996 0.7850037
2/3/2021 7:40:54 PM 0.8025 33.4445 384.0499 8.040899 5.677498 0.8024979
2/3/2021 7:55:54 PM 0.785 33.413 383.3 8.045799 5.644997 0.7850037
2/3/2021 8:10:54 PM 0.785 33.413 383 8.045799 5.695 0.7850037
2/3/2021 8:25:54 PM 0.785 33.413 382.6499 8.050699 5.610001 0.7850037
2/3/2021 8:40:54 PM 0.7675 33.3815 382.6 8.056299 5.662498 0.7675018
2/3/2021 8:55:54 PM 0.7675 33.3815 382.3 8.059099 5.712502 0.7675018
2/3/2021 9:10:54 PM 0.7675 33.3815 381.6 8.060499 5.68 0.7675018
2/3/2021 9:25:54 PM 0.7675 33.3815 381.2499 8.066099 5.682503 0.7675018
2/3/2021 9:40:54 PM 0.7675 33.3815 380.9 8.068899 5.697502 0.7675018
2/3/2021 9:55:54 PM 0.7525 33.3545 380.6 8.074499 5.677498 0.7525024
2/3/2021 10:10:54 PM 0.7325 33.3185 380.55 8.077299 5.660004 0.7324982
2/3/2021 10:25:54 PM 0.75 33.35 380.2 8.075899 5.642502 0.75
2/3/2021 10:40:54 PM 0.735 33.323 379.9 8.074499 5.610001 0.7350006
2/3/2021 10:55:54 PM 0.7325 33.3185 379.85 8.080799 5.682503 0.7324982
2/3/2021 11:10:54 PM 0.715 33.287 379.55 8.076599 5.627502 0.7149963
2/3/2021 11:25:54 PM 0.715 33.287 379.5 8.075199 5.589996 0.7149963
2/3/2021 11:40:54 PM 0.735 33.323 379.2 8.070999 5.610001 0.7350006
2/4/2021 12:10:54 AM 0.715 33.287 379.2 8.070999 6.550003 0.7149963
2/4/2021 12:25:54 AM 0.94 33.692 375.0499 8.065399 11.9825 0.9400024
2/4/2021 12:40:54 AM 0.94 33.692 375.0499 8.063999 11.15 0.9400024
2/4/2021 12:55:54 AM 0.94 33.692 374.6499 8.061899 9.305 0.9400024
2/4/2021 1:10:54 AM 0.8875 33.5975 375.3501 8.061899 7.887497 0.8874969
2/4/2021 1:25:54 AM 0.8375 33.5075 376.4 8.059799 6.547501 0.8375015
2/4/2021 1:40:54 AM 0.82 33.476 377.1 8.060499 6.059998 0.8199997
2/4/2021 1:55:54 AM 0.785 33.413 377.45 8.054899 5.900002 0.7850037
2/4/2021 2:10:54 AM 0.765 33.377 377.8 8.050699 5.82 0.7649994
2/4/2021 2:25:54 AM 0.75 33.35 377.8 8.050699 5.732498 0.75
2/4/2021 2:40:54 AM 0.75 33.35 378.15 8.051399 4.8125 0.75
2/4/2021 2:55:54 AM 0.7475 33.3455 378.15 8.047199 4.727501 0.7474976
2/4/2021 3:10:54 AM 0.75 33.35 378.15 8.045799 4.692497 0.75
2/4/2021 3:25:54 AM 0.75 33.35 378.5 8.044399 4.727501 0.75
2/4/2021 3:40:54 AM 0.7325 33.3185 378.5 8.045799 4.7425 0.7324982
2/4/2021 3:55:54 AM 0.7325 33.3185 378.85 8.040199 4.675003 0.7324982
2/4/2021 4:10:54 AM 0.7175 33.2915 379.15 8.040199 4.657501 0.7174988
2/4/2021 4:25:54 AM 0.715 33.287 379.15 8.035299 4.690002 0.7149963
2/4/2021 4:40:54 AM 0.6975 33.2555 379.55 8.036699 4.730003 0.6975021
2/4/2021 4:55:54 AM 0.6825 33.2285 379.9 8.030399 4.675003 0.6825027
2/4/2021 5:10:54 AM 0.665 33.197 380.55 8.031799 4.745003 0.6650009
2/4/2021 5:25:54 AM 0.6475 33.1655 380.9501 8.026899 4.745003 0.6474991
2/4/2021 5:40:54 AM 0.6275 33.1295 381.3 8.026899 4.712502 0.6275024
2/4/2021 5:55:54 AM 0.63 33.134 381.2499 8.020599 4.747498 0.6299973
2/4/2021 6:10:54 AM 0.6325 33.1385 381.2499 8.022699 4.727501 0.6324997
2/4/2021 6:25:54 AM 0.63 33.134 381.2499 8.017799 4.712502 0.6299973
2/4/2021 6:40:54 AM 0.63 33.134 381.3 8.017099 4.745003 0.6299973
2/4/2021 6:55:54 AM 0.63 33.134 381.2499 8.012899 4.747498 0.6299973
2/4/2021 7:10:54 AM 0.63 33.134 381.2499 8.013599 4.75 0.6299973
2/4/2021 7:25:54 AM 0.6125 33.1025 381.3 8.007299 4.730003 0.6125031
2/4/2021 7:40:54 AM 0.6125 33.1025 381.6 8.007999 4.727501 0.6125031
2/4/2021 7:55:54 AM 0.6125 33.1025 381.6 8.000999 4.727501 0.6125031
2/4/2021 8:10:55 AM 0.6125 33.1025 381.6499 8.001699 4.732498 0.6125031
2/4/2021 8:25:55 AM 0.615 33.107 381.2499 8.002399 4.747498 0.6149979
2/4/2021 8:40:54 AM 0.6475 33.1655 380.9 7.999599 4.714996 0.6474991
2/4/2021 8:55:54 AM 0.7 33.26 380.2 7.998199 4.695 0.6975021
2/4/2021 9:10:55 AM 0.735 33.323 379.85 7.998899 4.745003 0.7350006
2/4/2021 9:25:55 AM 0.7675 33.3815 379.2 7.997499 4.747498 0.7675018
2/4/2021 9:40:54 AM 0.8025 33.4445 378.8 7.997499 4.794998 0.8024979
2/4/2021 9:55:54 AM 0.8375 33.5075 378.8 7.991899 4.775002 0.8375015
2/4/2021 10:10:54 AM 0.8725 33.5705 378.1 7.991899 4.707497 0.8724976
2/4/2021 10:25:54 AM 0.89 33.602 378.15 7.992599 4.762497 0.8899994
2/4/2021 10:40:54 AM 0.905 33.629 377.8 7.993999 4.762497 0.9049988
2/4/2021 10:55:54 AM 0.925 33.665 377.7501 7.993299 4.727501 0.9250031
2/4/2021 11:10:54 AM 0.9425 33.6965 377.7501 7.9891 4.785004 0.9424973
2/4/2021 11:25:54 AM 0.9425 33.6965 377.7501 7.9891 4.782501 0.9424973
2/4/2021 11:40:54 AM 0.9575 33.7235 377.7501 7.9891 4.779999 0.9574966
2/4/2021 11:55:54 AM 0.9625 33.7325 377.7 7.9884 4.764999 0.9625015
2/4/2021 12:10:54 PM 1.0325 33.8585 377.1 7.9632 9.139999 1.032501
2/4/2021 12:25:54 PM 1.0325 33.8585 377.1 7.9737 7.192497 1.032501
2/4/2021 12:40:54 PM 1.0325 33.8585 377.45 7.973 5.959999 1.032501
2/4/2021 12:55:54 PM 1.015 33.827 377.8 7.9786 5.527496 1.014999
2/4/2021 1:10:54 PM 1.03 33.854 377.8 7.9779 5.252502 1.029999
2/4/2021 1:25:54 PM 1.03 33.854 378.1 7.9779 5.162498 1.029999
2/4/2021 1:40:54 PM 1.0325 33.8585 378.1 7.9779 5.042503 1.032501
2/4/2021 1:55:54 PM 1.03 33.854 378.45 7.9835 5.025002 1.029999
2/4/2021 2:10:54 PM 1.03 33.854 378.8 7.9849 4.989998 1.029999
2/4/2021 2:25:54 PM 1.03 33.854 379.2 7.990499 5.044998 1.029999
2/4/2021 2:40:54 PM 1.0475 33.8855 379.15 7.992599 4.9925 1.047501
2/4/2021 2:55:54 PM 1.0475 33.8855 379.5 8.004499 4.974998 1.047501
2/4/2021 3:10:54 PM 1.0475 33.8855 379.55 8.007999 5.059998 1.047501
2/4/2021 3:25:54 PM 1.0475 33.8855 379.5 8.017799 4.987503 1.047501
2/4/2021 3:40:54 PM 1.03 33.854 379.85 8.021999 5.040001 1.029999
2/4/2021 3:55:54 PM 1.03 33.854 379.85 8.026199 5.059998 1.029999
2/4/2021 4:10:55 PM 1.0325 33.8585 379.85 8.031799 5.042503 1.032501
2/4/2021 4:25:54 PM 1.03 33.854 379.9 8.036699 5.025002 1.029999
2/4/2021 4:40:55 PM 1.03 33.854 379.5 8.047199 5.095001 1.029999
2/4/2021 4:55:55 PM 1.03 33.854 379.55 8.052099 4.972504 1.029999
2/4/2021 5:10:55 PM 1.0125 33.8225 379.15 8.056999 5.077499 1.012497
2/4/2021 5:25:55 PM 0.995 33.791 379.2 8.056299 5.042503 0.9950027
2/4/2021 5:40:55 PM 0.9975 33.7955 378.8 8.061899 5.080002 0.9974976
2/4/2021 5:55:54 PM 0.96 33.728 378.45 8.061899 5.110001 0.9599991
2/4/2021 6:10:55 PM 0.945 33.701 378.15 8.061199 5.112503 0.9449997
2/4/2021 6:25:55 PM 0.9425 33.6965 377.4 8.066799 5.1325 0.9424973
2/4/2021 6:40:55 PM 0.9275 33.6695 376.7 8.067499 5.112503 0.9274979
2/4/2021 6:55:54 PM 0.9075 33.6335 376.4 8.065399 5.217499 0.9075012
2/4/2021 7:10:54 PM 0.91 33.638 375.7 8.065399 5.184998 0.9100037
2/4/2021 7:25:54 PM 0.9075 33.6335 374.6499 8.073099 5.184998 0.9075012
2/4/2021 7:40:54 PM 0.91 33.638 373.9501 8.070999 5.199997 0.9100037
2/4/2021 7:55:54 PM 0.91 33.638 372.9501 8.075199 5.214996 0.9100037
2/4/2021 8:10:55 PM 0.9075 33.6335 372.3 8.076599 5.237503 0.9075012
2/4/2021 8:25:54 PM 0.8925 33.6065 371.55 8.080099 5.267502 0.8925018
2/4/2021 8:40:54 PM 0.89 33.602 370.5 8.080099 5.252502 0.8899994
2/4/2021 8:55:54 PM 0.8925 33.6065 369.8 8.084999 5.302498 0.8925018
2/4/2021 9:10:54 PM 0.8925 33.6065 369.15 8.090599 5.322502 0.8925018
2/4/2021 9:25:54 PM 0.8925 33.6065 368.1 8.095501 5.285004 0.8925018
2/4/2021 9:40:54 PM 0.875 33.575 367.8 8.096201 5.272499 0.875
2/4/2021 9:55:54 PM 0.875 33.575 367.0499 8.096201 5.267502 0.875
2/4/2021 10:10:54 PM 0.8925 33.6065 366.7 8.094801 5.322502 0.8925018
2/4/2021 10:25:55 PM 0.875 33.575 366.3501 8.096901 5.302498 0.875
2/4/2021 10:40:54 PM 0.875 33.575 366.0499 8.091299 5.252502 0.875
2/4/2021 10:55:54 PM 0.8925 33.6065 365.7 8.086399 5.252502 0.8925018
2/4/2021 11:10:54 PM 0.8925 33.6065 365.3 8.087099 5.184998 0.8925018
2/4/2021 11:25:54 PM 0.89 33.602 365 8.082899 5.25 0.8899994
2/4/2021 11:40:54 PM 0.895 33.611 365 8.080799 5.235001 0.8949966
2/5/2021 12:10:54 AM 0.9075 33.6335 364.6499 8.075899 5.199997 0.9075012
2/5/2021 12:25:54 AM 0.91 33.638 364.6499 8.070999 5.217499 0.9100037
2/5/2021 12:40:54 AM 0.925 33.665 364.6 8.072399 5.165001 0.9250031
2/5/2021 12:55:54 AM 0.9275 33.6695 364.3 8.065399 5.217499 0.9274979
2/5/2021 1:10:54 AM 0.925 33.665 364.6499 8.066799 5.147499 0.9250031
2/5/2021 1:25:54 AM 0.925 33.665 364.6499 8.061199 5.150002 0.9250031
2/5/2021 1:40:54 AM 0.945 33.701 364.6499 8.055599 5.150002 0.9449997
2/5/2021 1:55:54 AM